Provisional Data: Baldwin Run near Wellsboro Junction, PA


Please select a monitoring station.
Please select start date.
Please select start date.

Toggle Unit: C/F Toggle Unit: C/F
Sample Time Temperature (C) Temperature (F) Specific Conductivity (mS/cm) pH   Turbidity (NTU+) DO (mg/L)
12/4/2020 12:00:00 AM 3.39 38.102 0.067 7.1 3.74 12.66
12/4/2020 12:15:00 AM 3.39 38.102 0.067 7.11 3.92 12.66
12/4/2020 12:30:00 AM 3.39 38.102 0.067 7.11 3.69 12.65
12/4/2020 12:45:00 AM 3.4 38.12 0.067 7.12 3.73 12.66
12/4/2020 1:00:00 AM 3.41 38.138 0.067 7.1 3.77 12.65
12/4/2020 1:15:00 AM 3.41 38.138 0.067 7.12 3.76 12.65
12/4/2020 1:30:00 AM 3.41 38.138 0.067 7.12 3.79 12.65
12/4/2020 1:45:00 AM 3.41 38.138 0.067 7.12 3.76 12.65
12/4/2020 2:00:00 AM 3.4 38.12 0.067 7.11 3.7 12.65
12/4/2020 2:15:00 AM 3.4 38.12 0.067 7.11 3.75 12.65
12/4/2020 2:30:00 AM 3.4 38.12 0.067 7.11 3.72 12.65
12/4/2020 2:45:00 AM 3.39 38.102 0.067 7.11 3.62 12.65
12/4/2020 3:00:00 AM 3.39 38.102 0.067 7.1 3.57 12.65
12/4/2020 3:15:00 AM 3.36 38.048 0.067 7.11 3.64 12.66
12/4/2020 3:30:00 AM 3.34 38.012 0.067 7.11 3.63 12.66
12/4/2020 3:45:00 AM 3.32 37.976 0.067 7.12 3.58 12.67
12/4/2020 4:00:00 AM 3.32 37.976 0.067 7.11 3.57 12.66
12/4/2020 4:15:00 AM 3.32 37.976 0.067 7.12 3.6 12.67
12/4/2020 4:30:00 AM 3.32 37.976 0.067 7.11 3.69 12.67
12/4/2020 4:45:00 AM 3.29 37.922 0.067 7.11 3.53 12.67
12/4/2020 5:00:00 AM 3.27 37.886 0.067 7.11 3.59 12.68
12/4/2020 5:15:00 AM 3.24 37.832 0.067 7.11 3.72 12.69
12/4/2020 5:30:00 AM 3.21 37.778 0.067 7.12 3.76 12.7
12/4/2020 5:45:00 AM 3.2 37.76 0.067 7.12 3.48 12.71
12/4/2020 6:00:00 AM 3.23 37.814 0.067 7.13 3.49 12.7
12/4/2020 6:15:00 AM 3.25 37.85 0.067 7.11 3.51 12.69
12/4/2020 6:30:00 AM 3.27 37.886 0.067 7.12 3.69 12.69
12/4/2020 6:45:00 AM 3.27 37.886 0.067 7.1 3.58 12.69
12/4/2020 7:00:00 AM 3.28 37.904 0.067 7.1 3.66 12.69
12/4/2020 7:15:00 AM 3.29 37.922 0.067 7.1 3.72 12.69
12/4/2020 7:30:00 AM 3.3 37.94 0.067 7.11 3.59 12.69
12/4/2020 7:45:00 AM 3.31 37.958 0.067 7.12 3.57 12.7
12/4/2020 8:00:00 AM 3.32 37.976 0.067 7.13 3.57 12.7
12/4/2020 8:15:00 AM 3.35 38.03 0.067 7.13 3.55 12.71
12/4/2020 8:30:00 AM 3.4 38.12 0.067 7.14 3.61 12.72
12/4/2020 8:45:00 AM 3.46 38.228 0.067 7.15 3.66 12.72
12/4/2020 9:00:00 AM 3.51 38.318 0.067 7.15 3.55 12.71
12/4/2020 9:15:00 AM 3.59 38.462 0.067 7.16 3.67 12.69
12/4/2020 9:30:00 AM 3.68 38.624 0.067 7.16 3.68 12.66
12/4/2020 9:45:00 AM 3.69 38.642 0.067 7.16 3.67 12.63
12/4/2020 10:00:00 AM 3.67 38.606 0.067 7.16 3.84 12.62
12/4/2020 10:15:00 AM 3.69 38.642 0.067 7.16 3.73 12.61
12/4/2020 10:30:00 AM 3.79 38.822 0.067 7.17 3.71 12.61
12/4/2020 10:45:00 AM 3.95 39.11 0.067 7.18 3.76 12.57
12/4/2020 11:00:00 AM 4.1 39.38 0.067 7.18 3.83 12.52
12/4/2020 11:15:00 AM 4.23 39.614 0.066 7.18 3.75 12.47
12/4/2020 11:30:00 AM 4.32 39.776 0.066 7.18 3.71 12.43
12/4/2020 11:45:00 AM 4.4 39.92 0.066 7.2 3.74 12.4
12/4/2020 12:00:00 PM 4.52 40.136 0.066 7.2 3.66 12.36
12/4/2020 12:15:00 PM 4.65 40.37 0.066 7.19 3.91 12.32
12/4/2020 12:30:00 PM 4.74 40.532 0.066 7.19 3.77 12.28
12/4/2020 12:45:00 PM 4.77 40.586 0.066 7.19 3.99 12.26
12/4/2020 1:00:00 PM 4.83 40.694 0.066 7.19 3.91 12.24
12/4/2020 1:15:00 PM 4.9 40.82 0.066 7.2 4.07 12.21
12/4/2020 1:30:00 PM 4.93 40.874 0.066 7.2 4.34 12.2
12/4/2020 1:45:00 PM 4.96 40.928 0.066 7.17 4.06 12.19
12/4/2020 2:00:00 PM 5 41 0.066 7.21 4.17 12.17
12/4/2020 2:15:00 PM 4.99 40.982 0.066 7.2 4.26 12.15
12/4/2020 2:30:00 PM 4.99 40.982 0.066 7.2 4.34 12.15
12/4/2020 2:45:00 PM 4.99 40.982 0.066 7.18 4.4 12.14
12/4/2020 3:00:00 PM 5 41 0.066 7.17 4.04 12.13
12/4/2020 3:15:00 PM 4.98 40.964 0.066 7.19 4.2 12.12
12/4/2020 3:30:00 PM 4.97 40.946 0.066 7.18 4.23 12.12
12/4/2020 3:45:00 PM 4.94 40.892 0.066 7.18 4.35 12.12
12/4/2020 4:00:00 PM 4.93 40.874 0.066 7.17 4.36 12.11
12/4/2020 4:15:00 PM 4.91 40.838 0.066 7.12 4.52 12.11
12/4/2020 4:30:00 PM 4.89 40.802 0.066 7.16 4.45 12.1
12/4/2020 4:45:00 PM 4.88 40.784 0.066 7.15 4.3 12.09
12/4/2020 5:00:00 PM 4.87 40.766 0.067 7.14 4.36 12.09
12/4/2020 5:15:00 PM 4.84 40.712 0.067 7.14 4.41 12.09
12/4/2020 5:30:00 PM 4.79 40.622 0.067 7.14 4.57 12.1
12/4/2020 5:45:00 PM 4.73 40.514 0.067 7.14 4.44 12.12
12/4/2020 6:00:00 PM 4.68 40.424 0.067 7.13 4.58 12.13
12/4/2020 6:15:00 PM 4.64 40.352 0.067 7.1 4.5 12.15
12/4/2020 6:30:00 PM 4.61 40.298 0.067 7.13 4.26 12.16
12/4/2020 6:45:00 PM 4.57 40.226 0.067 7.14 4.25 12.17
12/4/2020 7:00:00 PM 4.54 40.172 0.067 7.13 4.34 12.18
12/4/2020 7:15:00 PM 4.51 40.118 0.067 7.13 4.27 12.2
12/4/2020 7:30:00 PM 4.48 40.064 0.067 7.11 4.28 12.21
12/4/2020 7:45:00 PM 4.46 40.028 0.067 7.12 4.01 12.22
12/4/2020 8:00:00 PM 4.43 39.974 0.067 7.13 4.13 12.23
12/4/2020 8:15:00 PM 4.4 39.92 0.067 7.1 4.39 12.24
12/4/2020 8:30:00 PM 4.37 39.866 0.067 7.12 4.07 12.25
12/4/2020 8:45:00 PM 4.35 39.83 0.067 7.12 4.06 12.26
12/4/2020 9:00:00 PM 4.33 39.794 0.067 7.12 4.22 12.27
12/4/2020 9:15:00 PM 4.33 39.794 0.067 7.1 4.07 12.27
12/4/2020 9:30:00 PM 4.32 39.776 0.067 7.11 4.17 12.27
12/4/2020 9:45:00 PM 4.31 39.758 0.067 7.11 4.03 12.28
12/4/2020 10:00:00 PM 4.31 39.758 0.067 7.11 3.94 12.29
12/4/2020 10:15:00 PM 4.3 39.74 0.067 7.12 4.05 12.29
12/4/2020 10:30:00 PM 4.3 39.74 0.067 7.12 3.93 12.28
12/4/2020 10:45:00 PM 4.29 39.722 0.067 7.12 3.77 12.29
12/4/2020 11:00:00 PM 4.28 39.704 0.067 7.08 3.91 12.29
12/4/2020 11:15:00 PM 4.26 39.668 0.067 7.12 3.96 12.29
12/4/2020 11:30:00 PM 4.23 39.614 0.067 7.12 4.01 12.3
12/4/2020 11:45:00 PM 4.19 39.542 0.067 7.12 3.63 12.31
12/5/2020 12:00:00 AM 4.18 39.524 0.067 7.12 3.87 12.31
12/5/2020 12:15:00 AM 4.18 39.524 0.067 7.11 3.85 12.31
12/5/2020 12:30:00 AM 4.18 39.524 0.067 7.1 3.89 12.31
12/5/2020 12:45:00 AM 4.17 39.506 0.067 7.11 3.8 12.31
12/5/2020 1:00:00 AM 4.17 39.506 0.067 7.11 3.85 12.32
12/5/2020 1:15:00 AM 4.16 39.488 0.067 7.11 3.74 12.32
12/5/2020 1:30:00 AM 4.15 39.47 0.067 7.11 3.91 12.32
12/5/2020 1:45:00 AM 4.15 39.47 0.067 7.12 3.68 12.32
12/5/2020 2:00:00 AM 4.14 39.452 0.067 7.1 3.61 12.32
12/5/2020 2:15:00 AM 4.14 39.452 0.067 7.12 3.61 12.31
12/5/2020 2:30:00 AM 4.13 39.434 0.067 7.11 3.77 12.31
12/5/2020 2:45:00 AM 4.13 39.434 0.067 7.11 3.81 12.32
12/5/2020 3:00:00 AM 4.13 39.434 0.067 7.1 3.68 12.31
12/5/2020 3:15:00 AM 4.12 39.416 0.067 7.11 3.62 12.31
12/5/2020 3:30:00 AM 4.12 39.416 0.067 7.11 3.71 12.31
12/5/2020 3:45:00 AM 4.12 39.416 0.067 7.11 3.74 12.32
12/5/2020 4:00:00 AM 4.12 39.416 0.067 7.1 3.61 12.32
12/5/2020 4:15:00 AM 4.13 39.434 0.067 7.1 3.68 12.31
12/5/2020 4:30:00 AM 4.13 39.434 0.067 7.1 3.6 12.31
12/5/2020 4:45:00 AM 4.14 39.452 0.067 7.1 3.69 12.3
12/5/2020 5:00:00 AM 4.16 39.488 0.067 7.1 3.62 12.3
12/5/2020 5:15:00 AM 4.19 39.542 0.067 7.12 3.69 12.3
12/5/2020 5:30:00 AM 4.2 39.56 0.067 7.13 3.64 12.3
12/5/2020 5:45:00 AM 4.21 39.578 0.067 7.12 3.69 12.29
12/5/2020 6:00:00 AM 4.21 39.578 0.067 7.12 3.67 12.29
12/5/2020 6:15:00 AM 4.22 39.596 0.067 7.12 3.55 12.29
12/5/2020 6:30:00 AM 4.22 39.596 0.067 7.12 3.77 12.29
12/5/2020 6:45:00 AM 4.22 39.596 0.067 7.13 3.74 12.29
12/5/2020 7:00:00 AM 4.22 39.596 0.067 7.12 3.63 12.3
12/5/2020 7:15:00 AM 4.22 39.596 0.067 7.13 3.77 12.3
12/5/2020 7:30:00 AM 4.22 39.596 0.067 7.13 3.61 12.3
12/5/2020 7:45:00 AM 4.21 39.578 0.067 7.12 3.64 12.31
12/5/2020 8:00:00 AM 4.21 39.578 0.067 7.11 3.55 12.32
12/5/2020 8:15:00 AM 4.22 39.596 0.067 7.14 3.76 12.33
12/5/2020 8:30:00 AM 4.23 39.614 0.067 7.14 3.76 12.36
12/5/2020 8:45:00 AM 4.24 39.632 0.067 7.17 3.81 12.36
12/5/2020 9:00:00 AM 4.26 39.668 0.067 7.18 3.58 12.37
12/5/2020 9:15:00 AM 4.29 39.722 0.067 7.17 3.7 12.37
12/5/2020 9:30:00 AM 4.33 39.794 0.067 7.17 3.91 12.38
12/5/2020 9:45:00 AM 4.35 39.83 0.067 7.18 3.76 12.38
12/5/2020 10:00:00 AM 4.36 39.848 0.067 7.18 3.66 12.36
12/5/2020 10:15:00 AM 4.35 39.83 0.067 7.18 3.95 12.35
12/5/2020 10:30:00 AM 4.31 39.758 0.067 7.18 3.78 12.37
12/5/2020 10:45:00 AM 4.3 39.74 0.067 7.16 3.82 12.37
12/5/2020 11:00:00 AM 4.32 39.776 0.067 7.19 3.9 12.38
12/5/2020 11:15:00 AM 4.35 39.83 0.067 7.19 3.85 12.38
12/5/2020 11:30:00 AM 4.35 39.83 0.067 7.19 3.94 12.36
12/5/2020 11:45:00 AM 4.36 39.848 0.067 7.15 3.91 12.37
12/5/2020 12:00:00 PM 4.38 39.884 0.067 7.19 3.99 12.37
12/5/2020 12:15:00 PM 4.39 39.902 0.067 7.19 3.83 12.35
12/5/2020 12:30:00 PM 4.38 39.884 0.067 7.18 3.86 12.35
12/5/2020 12:45:00 PM 4.39 39.902 0.067 7.19 3.8 12.36
12/5/2020 1:00:00 PM 4.43 39.974 0.067 7.2 3.83 12.37
12/5/2020 1:15:00 PM 4.43 39.974 0.067 7.18 3.88 12.34
12/5/2020 1:30:00 PM 4.42 39.956 0.067 7.19 4.02 12.35
12/5/2020 1:45:00 PM 4.42 39.956 0.067 7.2 4.04 12.35
12/5/2020 2:00:00 PM 4.42 39.956 0.067 7.19 3.97 12.36
12/5/2020 2:15:00 PM 4.42 39.956 0.067 7.19 3.81 12.33
12/5/2020 2:30:00 PM 4.38 39.884 0.067 7.17 4.06 12.33
12/5/2020 2:45:00 PM 4.36 39.848 0.067 7.18 4.05 12.33
12/5/2020 3:00:00 PM 4.35 39.83 0.067 7.19 4.12 12.34
12/5/2020 3:15:00 PM 4.32 39.776 0.067 7.18 3.95 12.33
12/5/2020 3:30:00 PM 4.3 39.74 0.067 7.17 3.91 12.33
12/5/2020 3:45:00 PM 4.26 39.668 0.067 7.16 3.92 12.33
12/5/2020 4:00:00 PM 4.23 39.614 0.067 7.16 3.9 12.33
12/5/2020 4:15:00 PM 4.2 39.56 0.067 7.17 4.07 12.33
12/5/2020 4:30:00 PM 4.17 39.506 0.067 7.14 4.18 12.33
12/5/2020 4:45:00 PM 4.14 39.452 0.067 7.14 4.21 12.34
12/5/2020 5:00:00 PM 4.12 39.416 0.067 7.13 4.52 12.34
12/5/2020 5:15:00 PM 4.1 39.38 0.067 7.15 4.33 12.35
12/5/2020 5:30:00 PM 4.06 39.308 0.067 7.11 4.28 12.36
12/5/2020 5:45:00 PM 4.02 39.236 0.067 7.13 4.24 12.37
12/5/2020 6:00:00 PM 4.01 39.218 0.067 7.14 4.46 12.39
12/5/2020 6:15:00 PM 3.99 39.182 0.067 7.15 4.21 12.39
12/5/2020 6:30:00 PM 3.98 39.164 0.067 7.14 4.15 12.4
12/5/2020 6:45:00 PM 3.96 39.128 0.067 7.13 3.88 12.41
12/5/2020 7:00:00 PM 3.94 39.092 0.067 7.14 3.89 12.41
12/5/2020 7:15:00 PM 3.91 39.038 0.067 7.13 4.03 12.42
12/5/2020 7:30:00 PM 3.9 39.02 0.067 7.13 4.23 12.43
12/5/2020 7:45:00 PM 3.87 38.966 0.067 7.13 4.19 12.44
12/5/2020 8:00:00 PM 3.85 38.93 0.067 7.13 3.76 12.45
12/5/2020 8:15:00 PM 3.84 38.912 0.067 7.11 3.9 12.45
12/5/2020 8:30:00 PM 3.83 38.894 0.067 7.14 3.75 12.45
12/5/2020 8:45:00 PM 3.81 38.858 0.067 7.13 3.84 12.46
12/5/2020 9:00:00 PM 3.79 38.822 0.067 7.13 3.89 12.46
12/5/2020 9:15:00 PM 3.77 38.786 0.067 7.14 3.89 12.48
12/5/2020 9:30:00 PM 3.74 38.732 0.067 7.11 3.93 12.48
12/5/2020 9:45:00 PM 3.72 38.696 0.067 7.14 3.75 12.49
12/5/2020 10:00:00 PM 3.7 38.66 0.067 7.14 3.62 12.5
12/5/2020 10:15:00 PM 3.68 38.624 0.067 7.14 3.79 12.51
12/5/2020 10:30:00 PM 3.66 38.588 0.067 7.14 3.79 12.51
12/5/2020 10:45:00 PM 3.64 38.552 0.067 7.12 3.7 12.51
12/5/2020 11:00:00 PM 3.61 38.498 0.067 7.13 3.66 12.53
12/5/2020 11:15:00 PM 3.58 38.444 0.067 7.13 3.92 12.53
12/5/2020 11:30:00 PM 3.54 38.372 0.067 7.15 3.56 12.55
12/5/2020 11:45:00 PM 3.52 38.336 0.067 7.14 3.73 12.56
12/6/2020 12:00:00 AM 3.49 38.282 0.067 7.13 3.79 12.57
12/6/2020 12:15:00 AM 3.47 38.246 0.067 7.14 3.76 12.58
12/6/2020 12:30:00 AM 3.44 38.192 0.067 7.13 3.66 12.59
12/6/2020 12:45:00 AM 3.44 38.192 0.067 7.13 3.68 12.59
12/6/2020 1:00:00 AM 3.4 38.12 0.067 7.14 3.36 12.6
12/6/2020 1:15:00 AM 3.37 38.066 0.067 7.13 3.45 12.61
12/6/2020 1:30:00 AM 3.34 38.012 0.067 7.14 3.52 12.62
12/6/2020 1:45:00 AM 3.3 37.94 0.067 7.14 3.52 12.63
12/6/2020 2:00:00 AM 3.27 37.886 0.067 7.13 3.4 12.64
12/6/2020 2:15:00 AM 3.25 37.85 0.067 7.13 3.6 12.66
12/6/2020 2:30:00 AM 3.24 37.832 0.067 7.12 3.39 12.66
12/6/2020 2:45:00 AM 3.22 37.796 0.067 7.13 3.56 12.67
12/6/2020 3:00:00 AM 3.17 37.706 0.067 7.12 3.55 12.68
12/6/2020 3:15:00 AM 3.14 37.652 0.067 7.13 3.42 12.7
12/6/2020 3:30:00 AM 3.1 37.58 0.067 7.13 3.55 12.72
12/6/2020 3:45:00 AM 3.07 37.526 0.067 7.12 3.59 12.73
12/6/2020 4:00:00 AM 3.05 37.49 0.067 7.13 3.36 12.73
12/6/2020 4:15:00 AM 3.02 37.436 0.067 7.13 3.34 12.74
12/6/2020 4:30:00 AM 2.98 37.364 0.067 7.14 3.39 12.75
12/6/2020 4:45:00 AM 2.94 37.292 0.067 7.13 3.36 12.78
12/6/2020 5:00:00 AM 2.9 37.22 0.067 7.13 3.32 12.79
12/6/2020 5:15:00 AM 2.86 37.148 0.067 7.13 3.38 12.8
12/6/2020 5:30:00 AM 2.82 37.076 0.067 7.13 3.37 12.82
12/6/2020 5:45:00 AM 2.78 37.004 0.068 7.14 3.37 12.84
12/6/2020 6:00:00 AM 2.74 36.932 0.067 7.12 3.34 12.85
12/6/2020 6:15:00 AM 2.69 36.842 0.068 7.14 3.25 12.87
12/6/2020 6:30:00 AM 2.64 36.752 0.068 7.15 3.33 12.89
12/6/2020 6:45:00 AM 2.62 36.716 0.068 7.14 3.37 12.9
12/6/2020 7:00:00 AM 2.59 36.662 0.068 7.11 3.48 12.91
12/6/2020 7:15:00 AM 2.58 36.644 0.068 7.14 3.34 12.92
12/6/2020 7:30:00 AM 2.54 36.572 0.068 7.14 3.24 12.94
12/6/2020 7:45:00 AM 2.51 36.518 0.068 7.15 3.29 12.96
12/6/2020 8:00:00 AM 2.49 36.482 0.067 7.14 3.27 12.99
12/6/2020 8:15:00 AM 2.46 36.428 0.067 7.16 3.32 13.01
12/6/2020 8:30:00 AM 2.45 36.41 0.067 7.16 3.29 13.04
12/6/2020 8:45:00 AM 2.43 36.374 0.067 7.17 3.32 13.05
12/6/2020 9:00:00 AM 2.42 36.356 0.067 7.17 3.26 13.07
12/6/2020 9:15:00 AM 2.4 36.32 0.067 7.15 3.2 13.09
12/6/2020 9:30:00 AM 2.41 36.338 0.067 7.18 3.26 13.1
12/6/2020 9:45:00 AM 2.44 36.392 0.067 7.18 3.17 13.1
12/6/2020 10:00:00 AM 2.46 36.428 0.067 7.18 3.35 13.09
12/6/2020 10:15:00 AM 2.46 36.428 0.067 7.19 3.11 13.09
12/6/2020 10:30:00 AM 2.45 36.41 0.067 7.19 3.39 13.1
12/6/2020 10:45:00 AM 2.47 36.446 0.067 7.17 3.21 13.1
12/6/2020 11:00:00 AM 2.51 36.518 0.067 7.19 3.44 13.09
12/6/2020 11:15:00 AM 2.55 36.59 0.067 7.19 3.39 13.07
12/6/2020 11:30:00 AM 2.58 36.644 0.067 7.2 3.27 13.06
12/6/2020 11:45:00 AM 2.61 36.698 0.067 7.19 3.32 13.04
12/6/2020 12:00:00 PM 2.62 36.716 0.067 7.2 3.18 13.04
12/6/2020 12:15:00 PM 2.65 36.77 0.067 7.19 3.23 13.03
12/6/2020 12:30:00 PM 2.68 36.824 0.067 7.19 3.23 13.02
12/6/2020 12:45:00 PM 2.68 36.824 0.067 7.19 3.17 13
12/6/2020 1:00:00 PM 2.68 36.824 0.067 7.19 3.26 13.01
12/6/2020 1:15:00 PM 2.64 36.752 0.067 7.2 3.17 12.99
12/6/2020 1:30:00 PM 2.56 36.608 0.067 7.19 3.4 13
12/6/2020 1:45:00 PM 2.5 36.5 0.067 7.18 3.47 13.02
12/6/2020 2:00:00 PM 2.48 36.464 0.067 7.18 3.41 13.03
12/6/2020 2:15:00 PM 2.45 36.41 0.067 7.18 3.32 13.02
12/6/2020 2:30:00 PM 2.43 36.374 0.067 7.17 3.46 13.03
12/6/2020 2:45:00 PM 2.41 36.338 0.067 7.17 3.37 13.03
12/6/2020 3:00:00 PM 2.38 36.284 0.067 7.17 3.46 13.04
12/6/2020 3:15:00 PM 2.39 36.302 0.067 7.17 3.37 13.05
12/6/2020 3:30:00 PM 2.4 36.32 0.067 7.18 3.52 13.04
12/6/2020 3:45:00 PM 2.37 36.266 0.067 7.16 3.5 13.04
12/6/2020 4:00:00 PM 2.37 36.266 0.067 7.17 3.47 13.04
12/6/2020 4:15:00 PM 2.35 36.23 0.067 7.16 3.26 13.03
12/6/2020 4:30:00 PM 2.3 36.14 0.067 7.16 3.42 13.02
12/6/2020 4:45:00 PM 2.26 36.068 0.067 7.15 3.42 13.03
12/6/2020 5:00:00 PM 2.23 36.014 0.067 7.13 3.47 13.04
12/6/2020 5:15:00 PM 2.21 35.978 0.067 7.14 3.64 13.04
12/6/2020 5:30:00 PM 2.2 35.96 0.067 7.14 3.5 13.04
12/6/2020 5:45:00 PM 2.17 35.906 0.067 7.14 3.61 13.06
12/6/2020 6:00:00 PM 2.14 35.852 0.067 7.15 3.51 13.07
12/6/2020 6:15:00 PM 2.09 35.762 0.067 7.14 3.47 13.09
12/6/2020 6:30:00 PM 2.06 35.708 0.067 7.13 3.3 13.1
12/6/2020 6:45:00 PM 2.03 35.654 0.067 7.14 3.35 13.11
12/6/2020 7:00:00 PM 2 35.6 0.067 7.12 3.49 13.13
12/6/2020 7:15:00 PM 1.97 35.546 0.067 7.14 3.36 13.14
12/6/2020 7:30:00 PM 1.94 35.492 0.068 7.12 3.34 13.15
12/6/2020 7:45:00 PM 1.93 35.474 0.068 7.14 3.32 13.15
12/6/2020 8:00:00 PM 1.95 35.51 0.068 7.14 3.46 13.15
12/6/2020 8:15:00 PM 1.97 35.546 0.068 7.14 3.28 13.15
12/6/2020 8:30:00 PM 1.97 35.546 0.068 7.14 3.22 13.15
12/6/2020 8:45:00 PM 1.95 35.51 0.068 7.14 3.27 13.15
12/6/2020 9:00:00 PM 1.95 35.51 0.068 7.13 3.34 13.15
12/6/2020 9:15:00 PM 1.93 35.474 0.068 7.12 3.24 13.16
12/6/2020 9:30:00 PM 1.88 35.384 0.068 7.13 3.21 13.18
12/6/2020 9:45:00 PM 1.82 35.276 0.068 7.13 3.36 13.2
12/6/2020 10:00:00 PM 1.77 35.186 0.068 7.14 3.42 13.2
12/6/2020 10:15:00 PM 1.73 35.114 0.068 7.13 3.04 13.23
12/6/2020 10:30:00 PM 1.73 35.114 0.068 7.14 3.04 13.22
12/6/2020 10:45:00 PM 1.74 35.132 0.068 7.1 3.01 13.22
12/6/2020 11:00:00 PM 1.75 35.15 0.068 7.13 3.09 13.22
12/6/2020 11:15:00 PM 1.75 35.15 0.068 7.14 3.05 13.23
12/6/2020 11:30:00 PM 1.73 35.114 0.068 7.14 3.06 13.23
12/6/2020 11:45:00 PM 1.71 35.078 0.068 7.13 3.03 13.23
12/7/2020 12:00:00 AM 1.7 35.06 0.068 7.14 3.03 13.24
12/7/2020 12:15:00 AM 1.69 35.042 0.068 7.13 3.02 13.24
12/7/2020 12:30:00 AM 1.69 35.042 0.068 7.14 3.05 13.25
12/7/2020 12:45:00 AM 1.68 35.024 0.068 7.14 3.05 13.25
12/7/2020 1:00:00 AM 1.66 34.988 0.068 7.14 3.08 13.25
12/7/2020 1:15:00 AM 1.65 34.97 0.068 7.15 2.98 13.24
12/7/2020 1:30:00 AM 1.65 34.97 0.068 7.11 3.02 13.24
12/7/2020 1:45:00 AM 1.66 34.988 0.068 7.14 3.04 13.25
12/7/2020 2:00:00 AM 1.67 35.006 0.068 7.14 2.92 13.25
12/7/2020 2:15:00 AM 1.66 34.988 0.068 7.14 2.86 13.24
12/7/2020 2:30:00 AM 1.66 34.988 0.068 7.14 2.95 13.25
12/7/2020 2:45:00 AM 1.65 34.97 0.068 7.13 2.94 13.25
12/7/2020 3:00:00 AM 1.64 34.952 0.068 7.14 2.87 13.26
12/7/2020 3:15:00 AM 1.63 34.934 0.068 7.14 2.98 13.25
12/7/2020 3:30:00 AM 1.61 34.898 0.068 7.15 3.05 13.26
12/7/2020 3:45:00 AM 1.6 34.88 0.068 7.13 2.91 13.26
12/7/2020 4:00:00 AM 1.59 34.862 0.068 7.14 3.01 13.27
12/7/2020 4:15:00 AM 1.57 34.826 0.068 7.14 2.86 13.28
12/7/2020 4:30:00 AM 1.56 34.808 0.068 7.14 2.99 13.28
12/7/2020 4:45:00 AM 1.57 34.826 0.068 7.1 2.91 13.28
12/7/2020 5:00:00 AM 1.57 34.826 0.068 7.14 2.86 13.28
12/7/2020 5:15:00 AM 1.56 34.808 0.068 7.14 2.78 13.28
12/7/2020 5:30:00 AM 1.56 34.808 0.068 7.14 2.87 13.28
12/7/2020 5:45:00 AM 1.55 34.79 0.068 7.13 2.86 13.27
12/7/2020 6:00:00 AM 1.54 34.772 0.068 7.14 2.91 13.29
12/7/2020 6:15:00 AM 1.54 34.772 0.068 7.14 2.89 13.29
12/7/2020 6:30:00 AM 1.53 34.754 0.068 7.14 2.97 13.28
12/7/2020 6:45:00 AM 1.52 34.736 0.068 7.14 2.96 13.29
12/7/2020 7:00:00 AM 1.5 34.7 0.068 7.14 2.9 13.29
12/7/2020 7:15:00 AM 1.48 34.664 0.068 7.14 2.94 13.29
12/7/2020 7:30:00 AM 1.47 34.646 0.068 7.12 3.09 13.31
12/7/2020 7:45:00 AM 1.46 34.628 0.068 7.15 3.16 13.33
12/7/2020 8:00:00 AM 1.45 34.61 0.068 7.16 2.98 13.36
12/7/2020 8:15:00 AM 1.45 34.61 0.068 7.16 3 13.38
12/7/2020 8:30:00 AM 1.46 34.628 0.068 7.17 2.9 13.41
12/7/2020 8:45:00 AM 1.48 34.664 0.068 7.15 2.86 13.4
12/7/2020 9:00:00 AM 1.51 34.718 0.068 7.18 2.98 13.41
12/7/2020 9:15:00 AM 1.53 34.754 0.068 7.18 2.96 13.4
12/7/2020 9:30:00 AM 1.55 34.79 0.068 7.19 2.94 13.4
12/7/2020 9:45:00 AM 1.58 34.844 0.068 7.19 3.01 13.41
12/7/2020 10:00:00 AM 1.63 34.934 0.067 7.19 2.91 13.39
12/7/2020 10:15:00 AM 1.64 34.952 0.067 7.19 2.96 13.37
12/7/2020 10:30:00 AM 1.7 35.06 0.067 7.2 3.02 13.37
12/7/2020 10:45:00 AM 1.78 35.204 0.067 7.18 3.02 13.33
12/7/2020 11:00:00 AM 1.86 35.348 0.067 7.2 3.14 13.31
12/7/2020 11:15:00 AM 1.94 35.492 0.067 7.19 2.86 13.27
12/7/2020 11:30:00 AM 2 35.6 0.067 7.2 3.1 13.24
12/7/2020 11:45:00 AM 2.04 35.672 0.067 7.19 3.07 13.22
12/7/2020 12:00:00 PM 2.05 35.69 0.067 7.2 3.05 13.21
12/7/2020 12:15:00 PM 2.05 35.69 0.067 7.2 3.16 13.21
12/7/2020 12:30:00 PM 2.01 35.618 0.067 7.2 3.18 13.21
12/7/2020 12:45:00 PM 1.94 35.492 0.067 7.16 3.21 13.22
12/7/2020 1:00:00 PM 1.87 35.366 0.067 7.19 3.11 13.24
12/7/2020 1:15:00 PM 1.81 35.258 0.067 7.18 3.02 13.26
12/7/2020 1:30:00 PM 1.83 35.294 0.067 7.19 3.16 13.26
12/7/2020 1:45:00 PM 1.87 35.366 0.067 7.19 3.01 13.25
12/7/2020 2:00:00 PM 1.88 35.384 0.067 7.19 3.27 13.22
12/7/2020 2:15:00 PM 1.85 35.33 0.067 7.19 3.15 13.21
12/7/2020 2:30:00 PM 1.8 35.24 0.067 7.17 3.06 13.23
12/7/2020 2:45:00 PM 1.78 35.204 0.067 7.18 3.11 13.23
12/7/2020 3:00:00 PM 1.78 35.204 0.067 7.18 3.34 13.23
12/7/2020 3:15:00 PM 1.76 35.168 0.067 7.17 3.27 13.24
12/7/2020 3:30:00 PM 1.75 35.15 0.067 7.18 3.29 13.24
12/7/2020 3:45:00 PM 1.76 35.168 0.067 7.18 3.26 13.24
12/7/2020 4:00:00 PM 1.75 35.15 0.068 7.17 3.33 13.22
12/7/2020 4:15:00 PM 1.74 35.132 0.068 7.18 3.43 13.23
12/7/2020 4:30:00 PM 1.74 35.132 0.068 7.16 3.24 13.21
12/7/2020 4:45:00 PM 1.72 35.096 0.068 7.15 3.36 13.19
12/7/2020 5:00:00 PM 1.7 35.06 0.068 7.15 3.48 13.2
12/7/2020 5:15:00 PM 1.68 35.024 0.068 7.15 3.39 13.2
12/7/2020 5:30:00 PM 1.67 35.006 0.068 7.15 3.4 13.2
12/7/2020 5:45:00 PM 1.66 34.988 0.068 7.14 3.25 13.21
12/7/2020 6:00:00 PM 1.65 34.97 0.068 7.14 3.4 13.21
12/7/2020 6:15:00 PM 1.64 34.952 0.068 7.15 3.37 13.21
12/7/2020 6:30:00 PM 1.62 34.916 0.068 7.15 3.3 13.23
12/7/2020 6:45:00 PM 1.6 34.88 0.068 7.13 3.26 13.23
12/7/2020 7:00:00 PM 1.58 34.844 0.068 7.15 3.26 13.25
12/7/2020 7:15:00 PM 1.55 34.79 0.068 7.13 3.17 13.26
12/7/2020 7:30:00 PM 1.51 34.718 0.068 7.14 3.08 13.27
12/7/2020 7:45:00 PM 1.47 34.646 0.068 7.13 3.14 13.27
12/7/2020 8:00:00 PM 1.43 34.574 0.068 7.15 3.26 13.3
12/7/2020 8:15:00 PM 1.39 34.502 0.068 7.14 3.12 13.31
12/7/2020 8:30:00 PM 1.35 34.43 0.068 7.14 2.99 13.32
12/7/2020 8:45:00 PM 1.33 34.394 0.068 7.15 3.06 13.33
12/7/2020 9:00:00 PM 1.33 34.394 0.068 7.14 3.12 13.34
12/7/2020 9:15:00 PM 1.32 34.376 0.068 7.15 2.97 13.34
12/7/2020 9:30:00 PM 1.31 34.358 0.068 7.12 3.06 13.35
12/7/2020 9:45:00 PM 1.31 34.358 0.068 7.15 3 13.35
12/7/2020 10:00:00 PM 1.32 34.376 0.068 7.15 2.97 13.35
12/7/2020 10:15:00 PM 1.31 34.358 0.068 7.15 2.93 13.36
12/7/2020 10:30:00 PM 1.31 34.358 0.068 7.15 3.04 13.36
12/7/2020 10:45:00 PM 1.32 34.376 0.068 7.15 2.95 13.35
12/7/2020 11:00:00 PM 1.31 34.358 0.068 7.14 2.99 13.35
12/7/2020 11:15:00 PM 1.31 34.358 0.068 7.15 2.87 13.35
12/7/2020 11:30:00 PM 1.32 34.376 0.068 7.11 2.92 13.35
12/7/2020 11:45:00 PM 1.31 34.358 0.068 7.15 3.06 13.36
12/8/2020 12:00:00 AM 1.31 34.358 0.068 7.14 2.9 13.36
12/8/2020 12:15:00 AM 1.3 34.34 0.068 7.14 3.08 13.36
12/8/2020 12:30:00 AM 1.29 34.322 0.068 7.14 2.98 13.36
12/8/2020 12:45:00 AM 1.27 34.286 0.068 7.15 3.03 13.37
12/8/2020 1:00:00 AM 1.26 34.268 0.068 7.15 3.01 13.37
12/8/2020 1:15:00 AM 1.24 34.232 0.068 7.14 3.01 13.38
12/8/2020 1:30:00 AM 1.22 34.196 0.068 7.15 3.09 13.39
12/8/2020 1:45:00 AM 1.17 34.106 0.068 7.14 3 13.4
12/8/2020 2:00:00 AM 1.12 34.016 0.068 7.14 2.91 13.42
12/8/2020 2:15:00 AM 1.1 33.98 0.068 7.14 3 13.43
12/8/2020 2:30:00 AM 1.09 33.962 0.068 7.15 2.91 13.44
12/8/2020 2:45:00 AM 1.08 33.944 0.068 7.14 2.93 13.44
12/8/2020 3:00:00 AM 1.05 33.89 0.068 7.15 2.85 13.45
12/8/2020 3:15:00 AM 1.03 33.854 0.068 7.15 2.93 13.46
12/8/2020 3:30:00 AM 1.02 33.836 0.068 7.12 2.86 13.47
12/8/2020 3:45:00 AM 1.01 33.818 0.068 7.14 2.82 13.47
12/8/2020 4:00:00 AM 0.98 33.764 0.068 7.15 2.76 13.48
12/8/2020 4:15:00 AM 0.97 33.746 0.068 7.15 2.83 13.49
12/8/2020 4:30:00 AM 0.93 33.674 0.068 7.11 2.85 13.5
12/8/2020 4:45:00 AM 0.9 33.62 0.068 7.15 2.72 13.52
12/8/2020 5:00:00 AM 0.88 33.584 0.068 7.15 2.9 13.52
12/8/2020 5:15:00 AM 0.85 33.53 0.068 7.12 2.75 13.53
12/8/2020 5:30:00 AM 0.82 33.476 0.068 7.14 2.9 13.55
12/8/2020 5:45:00 AM 0.79 33.422 0.068 7.14 2.81 13.56
12/8/2020 6:00:00 AM 0.74 33.332 0.068 7.15 2.77 13.57
12/8/2020 6:15:00 AM 0.7 33.26 0.068 7.13 3.37 13.59
12/8/2020 6:30:00 AM 0.66 33.188 0.068 7.14 2.94 13.61
12/8/2020 6:45:00 AM 0.64 33.152 0.068 7.13 2.88 13.62
12/8/2020 7:00:00 AM 0.62 33.116 0.068 7.13 2.77 13.63
12/8/2020 7:15:00 AM 0.6 33.08 0.068 7.13 2.75 13.65
12/8/2020 7:30:00 AM 0.58 33.044 0.068 7.15 2.76 13.66
12/8/2020 7:45:00 AM 0.55 32.99 0.068 7.11 2.67 13.69
12/8/2020 8:00:00 AM 0.53 32.954 0.068 7.15 2.63 13.72
12/8/2020 8:15:00 AM 0.54 32.972 0.068 7.15 2.73 13.75
12/8/2020 8:30:00 AM 0.54 32.972 0.068 7.15 2.87 13.76
12/8/2020 8:45:00 AM 0.55 32.99 0.068 7.18 2.84 13.76
12/8/2020 9:00:00 AM 0.54 32.972 0.068 7.15 2.68 13.77
12/8/2020 9:15:00 AM 0.54 32.972 0.068 7.17 2.81 13.77
12/8/2020 9:30:00 AM 0.57 33.026 0.068 7.18 2.84 13.79
12/8/2020 9:45:00 AM 0.6 33.08 0.068 7.18 2.81 13.78
12/8/2020 10:00:00 AM 0.65 33.17 0.068 7.17 2.71 13.77
12/8/2020 10:15:00 AM 0.74 33.332 0.068 7.19 2.69 13.75
12/8/2020 10:30:00 AM 0.81 33.458 0.068 7.19 3.43 13.72
12/8/2020 10:45:00 AM 0.84 33.512 0.068 7.19 2.66 13.7
12/8/2020 11:00:00 AM 0.84 33.512 0.068 7.19 2.64 13.68
12/8/2020 11:15:00 AM 0.82 33.476 0.068 7.19 2.7 13.67
12/8/2020 11:30:00 AM 0.81 33.458 0.068 7.18 2.74 13.67
12/8/2020 11:45:00 AM 0.81 33.458 0.068 7.16 2.66 13.66
12/8/2020 12:00:00 PM 0.83 33.494 0.068 7.18 2.88 13.65
12/8/2020 12:15:00 PM 0.86 33.548 0.068 7.19 2.83 13.64
12/8/2020 12:30:00 PM 0.9 33.62 0.068 7.18 2.78 13.61
12/8/2020 12:45:00 PM 0.94 33.692 0.068 7.19 2.77 13.59
12/8/2020 1:00:00 PM 0.98 33.764 0.068 7.17 2.81 13.58
12/8/2020 1:15:00 PM 1.01 33.818 0.068 7.19 2.7 13.56
12/8/2020 1:30:00 PM 1.03 33.854 0.068 7.15 2.84 13.55
12/8/2020 1:45:00 PM 1.05 33.89 0.068 7.18 2.66 13.54
12/8/2020 2:00:00 PM 1.07 33.926 0.068 7.19 2.76 13.53
12/8/2020 2:15:00 PM 1.09 33.962 0.068 7.19 2.8 13.52
12/8/2020 2:30:00 PM 1.11 33.998 0.068 7.19 2.79 13.51
12/8/2020 2:45:00 PM 1.13 34.034 0.068 7.19 2.83 13.5
12/8/2020 3:00:00 PM 1.15 34.07 0.068 7.19 2.9 13.49
12/8/2020 3:15:00 PM 1.17 34.106 0.068 7.17 2.93 13.48
12/8/2020 3:30:00 PM 1.18 34.124 0.068 7.16 2.87 13.47
12/8/2020 3:45:00 PM 1.19 34.142 0.068 7.19 2.82 13.46
12/8/2020 4:00:00 PM 1.19 34.142 0.068 7.19 3.04 13.45
12/8/2020 4:15:00 PM 1.19 34.142 0.068 7.18 3.14 13.44
12/8/2020 4:30:00 PM 1.18 34.124 0.068 7.17 2.91 13.44
12/8/2020 4:45:00 PM 1.17 34.106 0.068 7.16 2.81 13.43
12/8/2020 5:00:00 PM 1.15 34.07 0.068 7.16 3.06 13.43
12/8/2020 5:15:00 PM 1.13 34.034 0.068 7.11 3.03 13.43
12/8/2020 5:30:00 PM 1.13 34.034 0.068 7.15 3.15 13.43
12/8/2020 5:45:00 PM 1.12 34.016 0.068 7.15 3.04 13.43
12/8/2020 6:00:00 PM 1.12 34.016 0.068 7.16 3.18 13.43
12/8/2020 6:15:00 PM 1.11 33.998 0.068 7.16 3.11 13.44
12/8/2020 6:30:00 PM 1.1 33.98 0.068 7.15 3.09 13.44
12/8/2020 6:45:00 PM 1.08 33.944 0.068 7.15 3.1 13.45
12/8/2020 7:00:00 PM 1.06 33.908 0.068 7.16 3.02 13.46
12/8/2020 7:15:00 PM 1.04 33.872 0.068 7.16 3.04 13.47
12/8/2020 7:30:00 PM 1.02 33.836 0.068 7.15 2.93 13.48
12/8/2020 7:45:00 PM 1 33.8 0.068 7.13 2.99 13.49
12/8/2020 8:00:00 PM 0.99 33.782 0.069 7.14 3.06 13.5
12/8/2020 8:15:00 PM 0.98 33.764 0.069 7.15 3.07 13.5
12/8/2020 8:30:00 PM 0.98 33.764 0.069 7.15 3.03 13.5
12/8/2020 8:45:00 PM 1 33.8 0.069 7.16 2.93 13.5
12/8/2020 9:00:00 PM 1.01 33.818 0.069 7.12 2.93 13.49
12/8/2020 9:15:00 PM 1.01 33.818 0.069 7.16 2.98 13.49
12/8/2020 9:30:00 PM 1.01 33.818 0.069 7.12 2.97 13.49
12/8/2020 9:45:00 PM 1 33.8 0.069 7.15 2.88 13.5
12/8/2020 10:00:00 PM 0.99 33.782 0.069 7.13 3.02 13.5
12/8/2020 10:15:00 PM 1 33.8 0.069 7.15 2.9 13.5
12/8/2020 10:30:00 PM 1.02 33.836 0.069 7.15 2.89 13.49
12/8/2020 10:45:00 PM 1.03 33.854 0.069 7.15 2.86 13.49
12/8/2020 11:00:00 PM 1.04 33.872 0.069 7.14 2.72 13.48
12/8/2020 11:15:00 PM 1.03 33.854 0.069 7.15 2.73 13.48
12/8/2020 11:30:00 PM 1 33.8 0.069 7.14 2.84 13.49
12/8/2020 11:45:00 PM 1 33.8 0.069 7.16 2.88 13.49
12/9/2020 12:00:00 AM 1.03 33.854 0.069 7.16 2.91 13.48
12/9/2020 12:15:00 AM 1.06 33.908 0.069 7.15 2.75 13.47
12/9/2020 12:30:00 AM 1.09 33.962 0.069 7.11 2.84 13.45
12/9/2020 12:45:00 AM 1.12 34.016 0.069 7.16 2.83 13.44
12/9/2020 1:00:00 AM 1.14 34.052 0.069 7.16 2.75 13.42
12/9/2020 1:15:00 AM 1.16 34.088 0.069 7.16 2.86 13.41
12/9/2020 1:30:00 AM 1.17 34.106 0.069 7.15 2.93 13.41
12/9/2020 1:45:00 AM 1.19 34.142 0.069 7.17 2.83 13.4
12/9/2020 2:00:00 AM 1.2 34.16 0.069 7.15 2.73 13.39
12/9/2020 2:15:00 AM 1.2 34.16 0.069 7.16 2.76 13.39
12/9/2020 2:30:00 AM 1.21 34.178 0.069 7.15 2.75 13.38
12/9/2020 2:45:00 AM 1.21 34.178 0.069 7.16 2.74 13.38
12/9/2020 3:00:00 AM 1.23 34.214 0.069 7.16 2.75 13.37
12/9/2020 3:15:00 AM 1.24 34.232 0.069 7.16 2.75 13.37
12/9/2020 3:30:00 AM 1.26 34.268 0.069 7.16 2.79 13.36
12/9/2020 3:45:00 AM 1.27 34.286 0.069 7.16 2.75 13.36
12/9/2020 4:00:00 AM 1.28 34.304 0.069 7.16 2.73 13.35
12/9/2020 4:15:00 AM 1.29 34.322 0.069 7.16 2.73 13.34
12/9/2020 4:30:00 AM 1.3 34.34 0.069 7.16 2.75 13.34
12/9/2020 4:45:00 AM 1.3 34.34 0.069 7.17 2.76 13.33
12/9/2020 5:00:00 AM 1.31 34.358 0.069 7.17 2.79 13.33
12/9/2020 5:15:00 AM 1.31 34.358 0.069 7.15 2.73 13.33
12/9/2020 5:30:00 AM 1.32 34.376 0.069 7.17 2.9 13.33
12/9/2020 5:45:00 AM 1.33 34.394 0.069 7.16 2.8 13.32
12/9/2020 6:00:00 AM 1.34 34.412 0.069 7.16 2.73 13.31
12/9/2020 6:15:00 AM 1.35 34.43 0.069 7.15 2.79 13.3
12/9/2020 6:30:00 AM 1.37 34.466 0.069 7.17 2.73 13.3
12/9/2020 6:45:00 AM 1.38 34.484 0.069 7.16 2.86 13.3
12/9/2020 7:00:00 AM 1.39 34.502 0.069 7.16 2.82 13.29
12/9/2020 7:15:00 AM 1.39 34.502 0.069 7.13 2.81 13.29
12/9/2020 7:30:00 AM 1.4 34.52 0.069 7.17 2.82 13.28
12/9/2020 7:45:00 AM 1.41 34.538 0.069 7.17 2.83 13.29
12/9/2020 8:00:00 AM 1.42 34.556 0.069 7.16 2.77 13.29
12/9/2020 8:15:00 AM 1.43 34.574 0.069 7.16 2.75 13.29
12/9/2020 8:30:00 AM 1.44 34.592 0.069 7.18 2.77 13.3
12/9/2020 8:45:00 AM 1.45 34.61 0.069 7.18 2.83 13.31
12/9/2020 9:00:00 AM 1.41 34.538 0.069 7.18 2.88 13.32
12/9/2020 9:15:00 AM 1.33 34.394 0.069 7.18 2.92 13.35
12/9/2020 9:30:00 AM 1.32 34.376 0.069 7.19 2.97 13.39
12/9/2020 9:45:00 AM 1.34 34.412 0.068 7.19 2.99 13.4
12/9/2020 10:00:00 AM 1.37 34.466 0.069 7.2 2.89 13.4
12/9/2020 10:15:00 AM 1.43 34.574 0.068 7.21 2.89 13.39
12/9/2020 10:30:00 AM 1.5 34.7 0.068 7.21 2.89 13.38
12/9/2020 10:45:00 AM 1.55 34.79 0.068 7.21 2.8 13.36
12/9/2020 11:00:00 AM 1.59 34.862 0.068 7.22 2.93 13.33
12/9/2020 11:15:00 AM 1.6 34.88 0.068 7.2 3.04 13.32
12/9/2020 11:30:00 AM 1.61 34.898 0.068 7.21 2.96 13.3
12/9/2020 11:45:00 AM 1.62 34.916 0.068 7.16 2.91 13.3
12/9/2020 12:00:00 PM 1.63 34.934 0.068 7.2 2.91 13.3
12/9/2020 12:15:00 PM 1.65 34.97 0.068 7.21 2.97 13.29
12/9/2020 12:30:00 PM 1.67 35.006 0.068 7.21 3.13 13.28
12/9/2020 12:45:00 PM 1.69 35.042 0.068 7.21 3 13.25
12/9/2020 1:00:00 PM 1.7 35.06 0.068 7.18 3.12 13.24
12/9/2020 1:15:00 PM 1.71 35.078 0.069 7.2 3.05 13.22
12/9/2020 1:30:00 PM 1.72 35.096 0.068 7.18 2.97 13.22
12/9/2020 1:45:00 PM 1.74 35.132 0.068 7.2 3.05 13.22
12/9/2020 2:00:00 PM 1.76 35.168 0.068 7.18 3.1 13.2
12/9/2020 2:15:00 PM 1.77 35.186 0.068 7.2 3.03 13.19
12/9/2020 2:30:00 PM 1.78 35.204 0.069 7.18 3.18 13.18
12/9/2020 2:45:00 PM 1.8 35.24 0.069 7.19 3.11 13.18
12/9/2020 3:00:00 PM 1.82 35.276 0.069 7.19 3.26 13.17
12/9/2020 3:15:00 PM 1.83 35.294 0.069 7.2 3.12 13.16
12/9/2020 3:30:00 PM 1.85 35.33 0.069 7.17 3.09 13.14
12/9/2020 3:45:00 PM 1.86 35.348 0.069 7.19 3.19 13.14
12/9/2020 4:00:00 PM 1.87 35.366 0.069 7.17 3.3 13.13
12/9/2020 4:15:00 PM 1.88 35.384 0.069 7.16 3.18 13.11
12/9/2020 4:30:00 PM 1.89 35.402 0.069 7.18 3.45 13.11
12/9/2020 4:45:00 PM 1.9 35.42 0.069 7.17 3.53 13.1
12/9/2020 5:00:00 PM 1.91 35.438 0.069 7.15 3.64 13.09
12/9/2020 5:15:00 PM 1.92 35.456 0.069 7.17 3.48 13.08
12/9/2020 5:30:00 PM 1.93 35.474 0.069 7.14 3.51 13.09
12/9/2020 5:45:00 PM 1.94 35.492 0.069 7.16 3.5 13.08
12/9/2020 6:00:00 PM 1.96 35.528 0.069 7.16 3.44 13.08
12/9/2020 6:15:00 PM 1.97 35.546 0.069 7.16 3.41 13.08
12/9/2020 6:30:00 PM 1.98 35.564 0.069 7.14 3.41 13.08
12/9/2020 6:45:00 PM 1.99 35.582 0.069 7.17 3.32 13.07
12/9/2020 7:00:00 PM 2 35.6 0.069 7.15 3.26 13.07
12/9/2020 7:15:00 PM 2.01 35.618 0.069 7.16 3.32 13.06
12/9/2020 7:30:00 PM 2.02 35.636 0.069 7.14 3.33 13.06
12/9/2020 7:45:00 PM 2.02 35.636 0.069 7.14 3.44 13.07
12/9/2020 8:00:00 PM 2.02 35.636 0.069 7.17 3.17 13.06
12/9/2020 8:15:00 PM 2.01 35.618 0.069 7.16 3.45 13.07
12/9/2020 8:30:00 PM 2.03 35.654 0.069 7.15 3.08 13.07
12/9/2020 8:45:00 PM 2.04 35.672 0.069 7.15 3.16 13.07
12/9/2020 9:00:00 PM 2.06 35.708 0.069 7.15 3.25 13.06
12/9/2020 9:15:00 PM 2.08 35.744 0.069 7.17 3.06 13.06
12/9/2020 9:30:00 PM 2.09 35.762 0.069 7.15 3.19 13.05
12/9/2020 9:45:00 PM 2.1 35.78 0.069 7.15 3.19 13.05
12/9/2020 10:00:00 PM 2.08 35.744 0.069 7.16 3.08 13.05
12/9/2020 10:15:00 PM 2.09 35.762 0.069 7.16 3.09 13.05
12/9/2020 10:30:00 PM 2.1 35.78 0.069 7.17 3.01 13.05
12/9/2020 10:45:00 PM 2.12 35.816 0.069 7.17 3.14 13.05
12/9/2020 11:00:00 PM 2.13 35.834 0.069 7.17 3.09 13.04
12/9/2020 11:15:00 PM 2.15 35.87 0.069 7.14 3.05 13.04
12/9/2020 11:30:00 PM 2.16 35.888 0.069 7.18 3.2 13.04
12/9/2020 11:45:00 PM 2.17 35.906 0.069 7.17 3.11 13.04
12/10/2020 12:00:00 AM 2.17 35.906 0.069 7.16 3.16 13.04
12/10/2020 12:15:00 AM 2.18 35.924 0.069 7.17 3.16 13.03
12/10/2020 12:30:00 AM 2.2 35.96 0.069 7.15 3.29 13.03
12/10/2020 12:45:00 AM 2.2 35.96 0.069 7.16 3.23 13.02
12/10/2020 1:00:00 AM 2.21 35.978 0.069 7.17 3.16 13.02
12/10/2020 1:15:00 AM 2.22 35.996 0.069 7.17 3.17 13.03
12/10/2020 1:30:00 AM 2.23 36.014 0.069 7.17 3.05 13.03
12/10/2020 1:45:00 AM 2.23 36.014 0.069 7.17 3.2 13.02
12/10/2020 2:00:00 AM 2.25 36.05 0.069 7.15 3.1 13.02
12/10/2020 2:15:00 AM 2.26 36.068 0.069 7.16 3.07 13.02
12/10/2020 2:30:00 AM 2.26 36.068 0.069 7.18 3.05 13.03
12/10/2020 2:45:00 AM 2.27 36.086 0.069 7.16 2.98 13.02
12/10/2020 3:00:00 AM 2.28 36.104 0.069 7.17 3.16 13.02
12/10/2020 3:15:00 AM 2.27 36.086 0.069 7.17 3.19 13.03
12/10/2020 3:30:00 AM 2.26 36.068 0.069 7.17 3.19 13.03
12/10/2020 3:45:00 AM 2.25 36.05 0.069 7.15 3.05 13.04
12/10/2020 4:00:00 AM 2.25 36.05 0.069 7.17 3.15 13.04
12/10/2020 4:15:00 AM 2.25 36.05 0.069 7.17 3.02 13.04
12/10/2020 4:30:00 AM 2.26 36.068 0.069 7.12 3.07 13.04
12/10/2020 4:45:00 AM 2.28 36.104 0.069 7.17 3.04 13.03
12/10/2020 5:00:00 AM 2.27 36.086 0.069 7.15 3.17 13.03
12/10/2020 5:15:00 AM 2.24 36.032 0.069 7.18 3.18 13.04
12/10/2020 5:30:00 AM 2.21 35.978 0.069 7.15 3.04 13.06
12/10/2020 5:45:00 AM 2.22 35.996 0.069 7.15 3.02 13.06
12/10/2020 6:00:00 AM 2.24 36.032 0.069 7.17 3.09 13.06
12/10/2020 6:15:00 AM 2.26 36.068 0.069 7.17 3.11 13.06
12/10/2020 6:30:00 AM 2.28 36.104 0.069 7.17 3.15 13.06
12/10/2020 6:45:00 AM 2.29 36.122 0.069 7.15 3.23 13.05
12/10/2020 7:00:00 AM 2.3 36.14 0.069 7.18 3.22 13.05
12/10/2020 7:15:00 AM 2.3 36.14 0.069 7.16 3.21 13.05
12/10/2020 7:30:00 AM 2.31 36.158 0.069 7.17 3.08 13.06
12/10/2020 7:45:00 AM 2.3 36.14 0.069 7.16 3.16 13.08
12/10/2020 8:00:00 AM 2.32 36.176 0.069 7.18 3.18 13.1
12/10/2020 8:15:00 AM 2.33 36.194 0.069 7.19 3.12 13.13
12/10/2020 8:30:00 AM 2.37 36.266 0.069 7.2 3.16 13.12
12/10/2020 8:45:00 AM 2.41 36.338 0.069 7.2 3.01 13.12
12/10/2020 9:00:00 AM 2.45 36.41 0.069 7.23 3.28 13.13
12/10/2020 9:15:00 AM 2.51 36.518 0.069 7.22 3.23 13.13
12/10/2020 9:30:00 AM 2.58 36.644 0.069 7.23 3.4 13.12
12/10/2020 9:45:00 AM 2.65 36.77 0.069 7.23 3.23 13.11
12/10/2020 10:00:00 AM 2.72 36.896 0.069 7.23 3.17 13.09
12/10/2020 10:15:00 AM 2.77 36.986 0.069 7.25 3.29 13.07
12/10/2020 10:30:00 AM 2.82 37.076 0.069 7.25 3.08 13.05
12/10/2020 10:45:00 AM 2.87 37.166 0.069 7.25 3.26 13.04
12/10/2020 11:00:00 AM 2.93 37.274 0.069 7.25 3.23 13.02
12/10/2020 11:15:00 AM 3 37.4 0.069 7.27 3.16 13
12/10/2020 11:30:00 AM 3.07 37.526 0.069 7.26 3.27 12.99
12/10/2020 11:45:00 AM 3.14 37.652 0.069 7.23 3.37 12.96
12/10/2020 12:00:00 PM 3.19 37.742 0.069 7.26 3.22 12.93
12/10/2020 12:15:00 PM 3.24 37.832 0.069 7.28 3.4 12.92
12/10/2020 12:30:00 PM 3.26 37.868 0.069 7.26 3.43 12.9
12/10/2020 12:45:00 PM 3.3 37.94 0.069 7.25 3.31 12.89
12/10/2020 1:00:00 PM 3.3 37.94 0.069 7.27 3.4 12.87
12/10/2020 1:15:00 PM 3.25 37.85 0.069 7.25 3.53 12.86
12/10/2020 1:30:00 PM 3.21 37.778 0.069 7.27 3.5 12.87
12/10/2020 1:45:00 PM 3.18 37.724 0.069 7.26 3.56 12.87
12/10/2020 2:00:00 PM 3.14 37.652 0.069 7.23 3.56 12.87
12/10/2020 2:15:00 PM 3.1 37.58 0.069 7.24 3.66 12.88
12/10/2020 2:30:00 PM 3.07 37.526 0.069 7.24 3.5 12.88
12/10/2020 2:45:00 PM 3.05 37.49 0.069 7.23 3.78 12.88
12/10/2020 3:00:00 PM 3.03 37.454 0.069 7.2 3.73 12.89
12/10/2020 3:15:00 PM 3.01 37.418 0.069 7.24 3.69 12.89
12/10/2020 3:30:00 PM 2.99 37.382 0.069 7.23 3.75 12.88
12/10/2020 3:45:00 PM 2.97 37.346 0.069 7.18 3.9 12.89
12/10/2020 4:00:00 PM 2.94 37.292 0.069 7.21 3.78 12.9
12/10/2020 4:15:00 PM 2.91 37.238 0.069 7.21 3.82 12.9
12/10/2020 4:30:00 PM 2.88 37.184 0.069 7.21 3.8 12.9
12/10/2020 4:45:00 PM 2.84 37.112 0.07 7.19 3.7 12.89
12/10/2020 5:00:00 PM 2.79 37.022 0.07 7.2 3.99 12.9
12/10/2020 5:15:00 PM 2.74 36.932 0.07 7.19 3.95 12.92
12/10/2020 5:30:00 PM 2.7 36.86 0.07 7.17 3.93 12.93
12/10/2020 5:45:00 PM 2.66 36.788 0.07 7.19 3.89 12.95
12/10/2020 6:00:00 PM 2.63 36.734 0.082 7.19 3.88 12.95
12/10/2020 6:15:00 PM 2.59 36.662 0.072 7.19 3.94 12.97
12/10/2020 6:30:00 PM 2.55 36.59 0.07 7.17 3.7 12.99
12/10/2020 6:45:00 PM 2.52 36.536 0.072 7.18 3.86 13
12/10/2020 7:00:00 PM 2.5 36.5 0.086 7.18 3.67 13
12/10/2020 7:15:00 PM 2.48 36.464 0.073 7.17 3.87 13.02
12/10/2020 7:30:00 PM 2.45 36.41 0.071 7.18 3.84 13.03
12/10/2020 7:45:00 PM 2.41 36.338 0.07 7.18 3.78 13.05
12/10/2020 8:00:00 PM 2.36 36.248 0.07 7.15 3.83 13.06
12/10/2020 8:15:00 PM 2.31 36.158 0.07 7.18 3.54 13.08
12/10/2020 8:30:00 PM 2.27 36.086 0.07 7.15 3.7 13.1
12/10/2020 8:45:00 PM 2.22 35.996 0.07 7.18 3.55 13.11
12/10/2020 9:00:00 PM 2.19 35.942 0.07 7.18 3.39 13.13
12/10/2020 9:15:00 PM 2.16 35.888 0.07 7.18 3.5 13.14
12/10/2020 9:30:00 PM 2.12 35.816 0.07 7.18 3.47 13.15
12/10/2020 9:45:00 PM 2.09 35.762 0.07 7.15 3.47 13.16
12/10/2020 10:00:00 PM 2.06 35.708 0.07 7.17 3.26 13.18
12/10/2020 10:15:00 PM 2.03 35.654 0.07 7.16 3.45 13.19
12/10/2020 10:30:00 PM 2 35.6 0.07 7.17 3.48 13.2
12/10/2020 10:45:00 PM 1.97 35.546 0.07 7.17 3.2 13.21
12/10/2020 11:00:00 PM 1.93 35.474 0.07 7.15 3.44 13.21
12/10/2020 11:15:00 PM 1.9 35.42 0.07 7.16 3.35 13.23
12/10/2020 11:30:00 PM 1.87 35.366 0.07 7.16 3.27 13.24
12/10/2020 11:45:00 PM 1.84 35.312 0.07 7.15 3.3 13.25
12/11/2020 12:00:00 AM 1.81 35.258 0.07 7.16 3.22 13.26
12/11/2020 12:15:00 AM 1.79 35.222 0.07 7.16 3.18 13.26
12/11/2020 12:30:00 AM 1.76 35.168 0.07 7.16 3.09 13.27
12/11/2020 12:45:00 AM 1.73 35.114 0.07 7.11 3.26 13.28
12/11/2020 1:00:00 AM 1.71 35.078 0.071 7.16 3.09 13.3
12/11/2020 1:15:00 AM 1.69 35.042 0.071 7.18 3.24 13.29
12/11/2020 1:30:00 AM 1.67 35.006 0.071 7.13 3.11 13.31
12/11/2020 1:45:00 AM 1.66 34.988 0.071 7.16 3.13 13.3
12/11/2020 2:00:00 AM 1.67 35.006 0.071 7.15 3.21 13.3
12/11/2020 2:15:00 AM 1.67 35.006 0.071 7.17 2.92 13.31
12/11/2020 2:30:00 AM 1.65 34.97 0.071 7.17 3.07 13.31
12/11/2020 2:45:00 AM 1.63 34.934 0.071 7.15 3.09 13.33
12/11/2020 3:00:00 AM 1.6 34.88 0.071 7.17 3.1 13.34
12/11/2020 3:15:00 AM 1.57 34.826 0.071 7.16 3.05 13.34
12/11/2020 3:30:00 AM 1.56 34.808 0.071 7.16 3.06 13.34
12/11/2020 3:45:00 AM 1.55 34.79 0.071 7.17 3.13 13.34
12/11/2020 4:00:00 AM 1.55 34.79 0.071 7.16 3.21 13.34
12/11/2020 4:15:00 AM 1.55 34.79 0.071 7.17 3.03 13.33
12/11/2020 4:30:00 AM 1.55 34.79 0.071 7.17 3.05 13.34
12/11/2020 4:45:00 AM 1.53 34.754 0.071 7.17 3.39 13.35
12/11/2020 5:00:00 AM 1.51 34.718 0.071 7.17 3.05 13.36
12/11/2020 5:15:00 AM 1.5 34.7 0.071 7.15 3.06 13.37
12/11/2020 5:30:00 AM 1.48 34.664 0.071 7.17 3.17 13.36
12/11/2020 5:45:00 AM 1.47 34.646 0.071 7.17 3.03 13.38
12/11/2020 6:00:00 AM 1.46 34.628 0.071 7.17 3.04 13.37
12/11/2020 6:15:00 AM 1.45 34.61 0.071 7.16 3.13 13.38
12/11/2020 6:30:00 AM 1.44 34.592 0.071 7.16 3.1 13.39
12/11/2020 6:45:00 AM 1.43 34.574 0.071 7.17 3.06 13.4
12/11/2020 7:00:00 AM 1.41 34.538 0.071 7.16 3.15 13.4
12/11/2020 7:15:00 AM 1.41 34.538 0.071 7.15 3.04 13.41
12/11/2020 7:30:00 AM -99999.99 -179968 -99999.99 -99999.99 -99999.99 -99999.99
12/11/2020 7:45:00 AM -99999.99 -179968 -99999.99 -99999.99 -99999.99 -99999.99
12/11/2020 8:00:00 AM -99999.99 -179968 -99999.99 -99999.99 -99999.99 -99999.99
12/11/2020 8:15:00 AM 1.51 34.718 0.071 7.22 3.12 13.48
12/11/2020 8:30:00 AM 1.56 34.808 0.071 7.22 3.12 13.48
12/11/2020 8:45:00 AM 1.63 34.934 0.07 7.21 3.07 13.45
12/11/2020 9:00:00 AM 1.71 35.078 0.07 7.21 3.32 13.44
12/11/2020 9:15:00 AM 1.79 35.222 0.07 7.23 3.03 13.41
12/11/2020 9:30:00 AM 1.9 35.42 0.07 7.22 3.1 13.38
12/11/2020 9:45:00 AM 2.02 35.636 0.07 7.23 3.02 13.34
12/11/2020 10:00:00 AM 2.17 35.906 0.07 7.24 3.09 13.29
12/11/2020 10:15:00 AM 2.33 36.194 0.07 7.21 3.03 13.24
12/11/2020 10:30:00 AM 2.45 36.41 0.07 7.25 2.99 13.18
12/11/2020 10:45:00 AM 2.54 36.572 0.07 7.25 3.12 13.14
12/11/2020 11:00:00 AM 2.59 36.662 0.07 7.26 3.03 13.11
12/11/2020 11:15:00 AM 2.63 36.734 0.07 7.24 3.09 13.09
12/11/2020 11:30:00 AM 2.73 36.914 0.07 7.26 3.06 13.07
12/11/2020 11:45:00 AM 2.81 37.058 0.07 7.25 3.01 13.02
12/11/2020 12:00:00 PM 2.89 37.202 0.07 7.26 3.17 12.99
12/11/2020 12:15:00 PM 2.98 37.364 0.07 7.26 3.22 12.96
12/11/2020 12:30:00 PM 3.06 37.508 0.07 7.27 3.44 12.92
12/11/2020 12:45:00 PM 3.13 37.634 0.07 7.27 3.22 12.9
12/11/2020 1:00:00 PM 3.2 37.76 0.07 7.27 3.34 12.86
12/11/2020 1:15:00 PM 3.28 37.904 0.07 7.24 3.31 12.83
12/11/2020 1:30:00 PM 3.33 37.994 0.07 7.27 3.45 12.8
12/11/2020 1:45:00 PM 3.37 38.066 0.07 7.26 3.71 12.79
12/11/2020 2:00:00 PM 3.45 38.21 0.07 7.27 3.43 12.77
12/11/2020 2:15:00 PM 3.55 38.39 0.07 7.28 3.52 12.74
12/11/2020 2:30:00 PM 3.62 38.516 0.07 7.26 3.64 12.7
12/11/2020 2:45:00 PM 3.66 38.588 0.07 7.28 3.59 12.67
12/11/2020 3:00:00 PM 3.66 38.588 0.07 7.26 3.54 12.64
12/11/2020 3:15:00 PM 3.64 38.552 0.07 7.25 3.46 12.63
12/11/2020 3:30:00 PM 3.62 38.516 0.07 7.21 3.76 12.63
12/11/2020 3:45:00 PM 3.6 38.48 0.07 7.25 3.67 12.63
12/11/2020 4:00:00 PM 3.59 38.462 0.07 7.22 3.81 12.61
12/11/2020 4:15:00 PM 3.59 38.462 0.07 7.24 3.88 12.6
12/11/2020 4:30:00 PM 3.59 38.462 0.07 7.23 3.71 12.58
12/11/2020 4:45:00 PM 3.57 38.426 0.07 7.16 3.75 12.57
12/11/2020 5:00:00 PM 3.56 38.408 0.07 7.2 4.07 12.56
12/11/2020 5:15:00 PM 3.53 38.354 0.07 7.21 4.28 12.56
12/11/2020 5:30:00 PM 3.51 38.318 0.07 7.2 3.86 12.58
12/11/2020 5:45:00 PM 3.48 38.264 0.071 7.15 4.19 12.59
12/11/2020 6:00:00 PM 3.45 38.21 0.071 7.2 4.15 12.6
12/11/2020 6:15:00 PM 3.42 38.156 0.071 7.2 4.11 12.61
12/11/2020 6:30:00 PM 3.39 38.102 0.071 7.17 4.04 12.63
12/11/2020 6:45:00 PM 3.36 38.048 0.071 7.19 4.09 12.64
12/11/2020 7:00:00 PM 3.35 38.03 0.071 7.19 4.07 12.65
12/11/2020 7:15:00 PM 3.34 38.012 0.071 7.19 4.04 12.65
12/11/2020 7:30:00 PM 3.34 38.012 0.071 7.16 4.13 12.65
12/11/2020 7:45:00 PM 3.34 38.012 0.071 7.2 4.08 12.66
12/11/2020 8:00:00 PM 3.33 37.994 0.071 7.18 3.95 12.66
12/11/2020 8:15:00 PM 3.31 37.958 0.071 7.19 4.01 12.67
12/11/2020 8:30:00 PM 3.29 37.922 0.071 7.15 3.64 12.67
12/11/2020 8:45:00 PM 3.26 37.868 0.071 7.17 3.99 12.68
12/11/2020 9:00:00 PM 3.23 37.814 0.071 7.17 3.69 12.7
12/11/2020 9:15:00 PM 3.2 37.76 0.071 7.18 3.73 12.71
12/11/2020 9:30:00 PM 3.17 37.706 0.071 7.18 3.89 12.72
12/11/2020 9:45:00 PM 3.13 37.634 0.071 7.18 3.77 12.73
12/11/2020 10:00:00 PM 3.1 37.58 0.071 7.17 3.65 12.74
12/11/2020 10:15:00 PM 3.07 37.526 0.071 7.18 3.66 12.76
12/11/2020 10:30:00 PM 3.03 37.454 0.071 7.19 3.73 12.77
12/11/2020 10:45:00 PM 3 37.4 0.071 7.15 3.67 12.78
12/11/2020 11:00:00 PM 2.98 37.364 0.071 7.18 3.78 12.79
12/11/2020 11:15:00 PM 2.97 37.346 0.071 7.18 3.62 12.79
12/11/2020 11:30:00 PM 2.95 37.31 0.071 7.17 3.72 12.8
12/11/2020 11:45:00 PM 2.93 37.274 0.071 7.18 3.65 12.8
12/12/2020 12:00:00 AM 2.91 37.238 0.071 7.17 3.66 12.81
12/12/2020 12:15:00 AM 2.9 37.22 0.071 7.16 3.63 12.82
12/12/2020 12:30:00 AM 2.89 37.202 0.071 7.16 3.57 12.82
12/12/2020 12:45:00 AM 2.87 37.166 0.071 7.18 3.7 12.83
12/12/2020 1:00:00 AM 2.85 37.13 0.071 7.17 3.5 12.84
12/12/2020 1:15:00 AM 2.83 37.094 0.071 7.18 3.82 12.84
12/12/2020 1:30:00 AM 2.81 37.058 0.071 7.16 3.66 12.85
12/12/2020 1:45:00 AM 2.79 37.022 0.071 7.18 3.92 12.86
12/12/2020 2:00:00 AM 2.79 37.022 0.071 7.17 3.75 12.86
12/12/2020 2:15:00 AM 2.77 36.986 0.071 7.18 3.74 12.86
12/12/2020 2:30:00 AM 2.75 36.95 0.071 7.17 3.53 12.87
12/12/2020 2:45:00 AM 2.72 36.896 0.072 7.17 3.43 12.88
12/12/2020 3:00:00 AM 2.68 36.824 0.072 7.17 3.66 12.9
12/12/2020 3:15:00 AM 2.65 36.77 0.072 7.15 3.62 12.91
12/12/2020 3:30:00 AM 2.64 36.752 0.072 7.18 4.05 12.92
12/12/2020 3:45:00 AM 2.64 36.752 0.072 7.17 3.46 12.92
12/12/2020 4:00:00 AM 2.63 36.734 0.072 7.18 3.57 12.92
12/12/2020 4:15:00 AM 2.6 36.68 0.072 7.13 3.55 12.93
12/12/2020 4:30:00 AM 2.57 36.626 0.072 7.17 3.55 12.94
12/12/2020 4:45:00 AM 2.54 36.572 0.072 7.18 3.6 12.95
12/12/2020 5:00:00 AM 2.52 36.536 0.072 7.17 3.46 12.95
12/12/2020 5:15:00 AM 2.52 36.536 0.072 7.16 3.58 12.96
12/12/2020 5:30:00 AM 2.53 36.554 0.072 7.17 3.58 12.96
12/12/2020 5:45:00 AM 2.55 36.59 0.072 7.18 3.5 12.95
12/12/2020 6:00:00 AM 2.57 36.626 0.072 7.13 3.34 12.95
12/12/2020 6:15:00 AM 2.58 36.644 0.072 7.17 3.64 12.94
12/12/2020 6:30:00 AM 2.59 36.662 0.072 7.18 3.48 12.94
12/12/2020 6:45:00 AM 2.59 36.662 0.072 7.17 3.44 12.93
12/12/2020 7:00:00 AM 2.59 36.662 0.072 7.16 3.45 12.94
12/12/2020 7:15:00 AM 2.58 36.644 0.072 7.17 3.46 12.93
12/12/2020 7:30:00 AM 2.57 36.626 0.072 7.19 3.56 12.94
12/12/2020 7:45:00 AM 2.58 36.644 0.072 7.18 3.47 12.94
12/12/2020 8:00:00 AM 2.59 36.662 0.072 7.18 3.45 12.96
12/12/2020 8:15:00 AM 2.6 36.68 0.072 7.17 3.38 12.97
12/12/2020 8:30:00 AM 2.62 36.716 0.072 7.2 3.43 13
12/12/2020 8:45:00 AM 2.64 36.752 0.071 7.22 3.61 13.01
12/12/2020 9:00:00 AM 2.68 36.824 0.071 7.2 3.61 13.03
12/12/2020 9:15:00 AM 2.73 36.914 0.071 7.22 3.63 13.02
12/12/2020 9:30:00 AM 2.77 36.986 0.071 7.23 3.45 13.01
12/12/2020 9:45:00 AM 2.84 37.112 0.071 7.23 3.66 13.01
12/12/2020 10:00:00 AM 2.91 37.238 0.071 7.24 3.87 12.98
12/12/2020 10:15:00 AM 2.96 37.328 0.071 7.23 3.48 12.96
12/12/2020 10:30:00 AM 3 37.4 0.071 7.25 3.42 12.94
12/12/2020 10:45:00 AM 3.07 37.526 0.071 7.22 3.45 12.93
12/12/2020 11:00:00 AM 3.22 37.796 0.071 7.27 3.51 12.89
12/12/2020 11:15:00 AM 3.36 38.048 0.071 7.26 3.31 12.84
12/12/2020 11:30:00 AM 3.49 38.282 0.071 7.27 3.62 12.78
12/12/2020 11:45:00 AM 3.59 38.462 0.071 7.28 3.48 12.74
12/12/2020 12:00:00 PM 3.7 38.66 0.071 7.29 3.45 12.7
12/12/2020 12:15:00 PM 3.8 38.84 0.071 7.27 3.63 12.67
12/12/2020 12:30:00 PM 3.9 39.02 0.071 7.29 3.68 12.63
12/12/2020 12:45:00 PM 4.01 39.218 0.071 7.3 3.58 12.59
12/12/2020 1:00:00 PM 4.12 39.416 0.071 7.3 3.48 12.55
12/12/2020 1:15:00 PM 4.11 39.398 0.071 7.29 3.68 12.49
12/12/2020 1:30:00 PM 4.09 39.362 0.071 7.27 3.71 12.49
12/12/2020 1:45:00 PM 4.1 39.38 0.071 7.29 3.68 12.48
12/12/2020 2:00:00 PM 4.11 39.398 0.071 7.29 3.74 12.46
12/12/2020 2:15:00 PM 4.11 39.398 0.071 7.25 3.86 12.44
12/12/2020 2:30:00 PM 4.15 39.47 0.071 7.29 3.8 12.45
12/12/2020 2:45:00 PM 4.21 39.578 0.071 7.29 3.87 12.43
12/12/2020 3:00:00 PM 4.35 39.83 0.071 7.3 3.75 12.42
12/12/2020 3:15:00 PM 4.45 40.01 0.071 7.31 3.72 12.37
12/12/2020 3:30:00 PM 4.52 40.136 0.071 7.28 4.05 12.32
12/12/2020 3:45:00 PM 4.56 40.208 0.071 7.27 4.2 12.26
12/12/2020 4:00:00 PM 4.58 40.244 0.071 7.27 3.92 12.23
12/12/2020 4:15:00 PM 4.58 40.244 0.071 7.26 4.15 12.19
12/12/2020 4:30:00 PM 4.57 40.226 0.071 7.23 4.14 12.17
12/12/2020 4:45:00 PM 4.57 40.226 0.071 7.25 4.08 12.16
12/12/2020 5:00:00 PM 4.57 40.226 0.071 7.23 4.15 12.15
12/12/2020 5:15:00 PM 4.56 40.208 0.071 7.22 4.35 12.15
12/12/2020 5:30:00 PM 4.56 40.208 0.071 7.23 4.41 12.15
12/12/2020 5:45:00 PM 4.57 40.226 0.071 7.2 5.73 12.14
12/12/2020 6:00:00 PM 4.59 40.262 0.071 7.22 4.49 12.14
12/12/2020 6:15:00 PM 4.6 40.28 0.071 7.23 4.53 12.14
12/12/2020 6:30:00 PM 4.6 40.28 0.071 7.22 4.73 12.14
12/12/2020 6:45:00 PM 4.61 40.298 0.071 7.19 4.47 12.13
12/12/2020 7:00:00 PM 4.61 40.298 0.071 7.21 4.37 12.13
12/12/2020 7:15:00 PM 4.61 40.298 0.071 7.22 4.46 12.13
12/12/2020 7:30:00 PM 4.59 40.262 0.071 7.19 4.27 12.13
12/12/2020 7:45:00 PM 4.58 40.244 0.071 7.22 4.21 12.14
12/12/2020 8:00:00 PM 4.57 40.226 0.071 7.2 4.27 12.14
12/12/2020 8:15:00 PM 4.57 40.226 0.071 7.21 4.34 12.14
12/12/2020 8:30:00 PM 4.57 40.226 0.071 7.17 4.21 12.14
12/12/2020 8:45:00 PM 4.58 40.244 0.071 7.21 4.3 12.14
12/12/2020 9:00:00 PM 4.58 40.244 0.071 7.21 4.55 12.13
12/12/2020 9:15:00 PM 4.59 40.262 0.071 7.19 4.39 12.13
12/12/2020 9:30:00 PM 4.61 40.298 0.071 7.21 4.29 12.13
12/12/2020 9:45:00 PM 4.62 40.316 0.071 7.21 4.2 12.12
12/12/2020 10:00:00 PM 4.62 40.316 0.071 7.2 4 12.12
12/12/2020 10:15:00 PM 4.65 40.37 0.071 7.21 4.25 12.11
12/12/2020 10:30:00 PM 4.67 40.406 0.071 7.17 4.11 12.1
12/12/2020 10:45:00 PM 4.69 40.442 0.071 7.21 4.22 12.09
12/12/2020 11:00:00 PM 4.71 40.478 0.072 7.21 4.08 12.08
12/12/2020 11:15:00 PM 4.72 40.496 0.072 7.2 4.16 12.08
12/12/2020 11:30:00 PM 4.69 40.442 0.072 7.21 4.02 12.08
12/12/2020 11:45:00 PM 4.67 40.406 0.072 7.18 4.23 12.09
12/13/2020 12:00:00 AM 4.66 40.388 0.072 7.21 4.05 12.1
12/13/2020 12:15:00 AM 4.66 40.388 0.072 7.21 3.97 12.1
12/13/2020 12:30:00 AM 4.65 40.37 0.072 7.21 4.02 12.09
12/13/2020 12:45:00 AM 4.64 40.352 0.072 7.21 4.21 12.1
12/13/2020 1:00:00 AM 4.61 40.298 0.072 7.21 4.05 12.1
12/13/2020 1:15:00 AM 4.63 40.334 0.072 7.17 4.15 12.1
12/13/2020 1:30:00 AM 4.67 40.406 0.072 7.22 3.98 12.09
12/13/2020 1:45:00 AM 4.71 40.478 0.072 7.21 4.11 12.07
12/13/2020 2:00:00 AM 4.75 40.55 0.072 7.21 4.11 12.06
12/13/2020 2:15:00 AM 4.79 40.622 0.072 7.21 4.2 12.05
12/13/2020 2:30:00 AM 4.83 40.694 0.071 7.19 5.59 12.04
12/13/2020 2:45:00 AM 4.87 40.766 0.071 7.18 5.56 12.02
12/13/2020 3:00:00 AM 4.89 40.802 0.071 7.2 6.24 12.01
12/13/2020 3:15:00 AM 4.9 40.82 0.072 7.21 17.41 12.01
12/13/2020 3:30:00 AM 4.87 40.766 0.072 7.18 25.17 12.01
12/13/2020 3:45:00 AM 4.84 40.712 0.072 7.21 11.46 12.02
12/13/2020 4:00:00 AM 4.82 40.676 0.072 7.21 8.5 12.04
12/13/2020 4:15:00 AM 4.81 40.658 0.072 7.21 6.78 12.04
12/13/2020 4:30:00 AM 4.84 40.712 0.072 7.21 7.51 12.03
12/13/2020 4:45:00 AM 4.86 40.748 0.072 7.23 8.22 12.02
12/13/2020 5:00:00 AM 4.89 40.802 0.072 7.23 8.09 12.02
12/13/2020 5:15:00 AM 4.88 40.784 0.072 7.24 8.51 12.02
12/13/2020 5:30:00 AM 4.87 40.766 0.072 7.24 8.76 12.03
12/13/2020 5:45:00 AM 4.85 40.73 0.072 7.24 8.21 12.04
12/13/2020 6:00:00 AM 4.87 40.766 0.072 7.23 7.02 12.04
12/13/2020 6:15:00 AM 4.87 40.766 0.072 7.25 5.93 12.05
12/13/2020 6:30:00 AM 4.86 40.748 0.072 7.23 5.65 12.05
12/13/2020 6:45:00 AM 4.84 40.712 0.072 7.25 5.32 12.06
12/13/2020 7:00:00 AM 4.84 40.712 0.072 7.24 5.19 12.07
12/13/2020 7:15:00 AM 4.86 40.748 0.072 7.19 5.01 12.07
12/13/2020 7:30:00 AM 4.88 40.784 0.072 7.24 4.75 12.07
12/13/2020 7:45:00 AM 4.9 40.82 0.072 7.19 4.69 12.07
12/13/2020 8:00:00 AM 4.91 40.838 0.072 7.24 4.87 12.07
12/13/2020 8:15:00 AM 4.92 40.856 0.072 7.24 4.69 12.08
12/13/2020 8:30:00 AM 4.93 40.874 0.072 7.23 4.66 12.09
12/13/2020 8:45:00 AM 4.93 40.874 0.072 7.23 4.6 12.11
12/13/2020 9:00:00 AM 4.95 40.91 0.072 7.27 4.69 12.15
12/13/2020 9:15:00 AM 4.98 40.964 0.071 7.26 4.55 12.16
12/13/2020 9:30:00 AM 5.01 41.018 0.071 7.28 4.67 12.19
12/13/2020 9:45:00 AM 5.05 41.09 0.071 7.28 4.76 12.2
12/13/2020 10:00:00 AM 5.05 41.09 0.071 7.26 4.52 12.15
12/13/2020 10:15:00 AM 5.05 41.09 0.071 7.27 4.86 12.15
12/13/2020 10:30:00 AM 5.08 41.144 0.071 7.3 4.69 12.2
12/13/2020 10:45:00 AM 5.11 41.198 0.071 7.31 4.95 12.22
12/13/2020 11:00:00 AM 5.15 41.27 0.071 7.28 4.78 12.22
12/13/2020 11:15:00 AM 5.2 41.36 0.071 7.32 5.16 12.21
12/13/2020 11:30:00 AM 5.24 41.432 0.071 7.32 5.25 12.2
12/13/2020 11:45:00 AM 5.28 41.504 0.071 7.34 5.08 12.18
12/13/2020 12:00:00 PM 5.35 41.63 0.071 7.33 4.94 12.17
12/13/2020 12:15:00 PM 5.41 41.738 0.071 7.33 4.94 12.16
12/13/2020 12:30:00 PM 5.38 41.684 0.072 7.33 4.83 12.12
12/13/2020 12:45:00 PM 5.33 41.594 0.072 7.33 4.87 12.13
12/13/2020 1:00:00 PM 5.28 41.504 0.072 7.32 4.97 12.15
12/13/2020 1:15:00 PM 5.31 41.558 0.072 7.33 4.7 12.16
12/13/2020 1:30:00 PM 5.3 41.54 0.072 7.33 4.95 12.16
12/13/2020 1:45:00 PM 5.33 41.594 0.072 7.33 4.68 12.16
12/13/2020 2:00:00 PM 5.33 41.594 0.072 7.33 4.85 12.1
12/13/2020 2:15:00 PM 5.31 41.558 0.072 7.32 4.79 12.14
12/13/2020 2:30:00 PM 5.3 41.54 0.072 7.34 5.06 12.18
12/13/2020 2:45:00 PM 5.29 41.522 0.072 7.33 4.87 12.17
12/13/2020 3:00:00 PM 5.25 41.45 0.072 7.3 4.87 12.13
12/13/2020 3:15:00 PM 5.21 41.378 0.072 7.32 4.91 12.15
12/13/2020 3:30:00 PM 5.15 41.27 0.072 7.3 4.74 12.16
12/13/2020 3:45:00 PM 5.13 41.234 0.072 7.3 4.87 12.17
12/13/2020 4:00:00 PM 5.1 41.18 0.072 7.29 4.9 12.15
12/13/2020 4:15:00 PM 5.04 41.072 0.072 7.29 5.1 12.13
12/13/2020 4:30:00 PM 4.98 40.964 0.073 7.27 4.76 12.12
12/13/2020 4:45:00 PM 4.91 40.838 0.073 7.27 4.72 12.13
12/13/2020 5:00:00 PM 4.86 40.748 0.073 7.24 4.94 12.13
12/13/2020 5:15:00 PM 4.83 40.694 0.073 7.24 5.24 12.13
12/13/2020 5:30:00 PM 4.8 40.64 0.073 7.23 5.32 12.15
12/13/2020 5:45:00 PM 4.78 40.604 0.073 7.24 5.23 12.15
12/13/2020 6:00:00 PM 4.75 40.55 0.073 7.23 5.15 12.16
12/13/2020 6:15:00 PM 4.73 40.514 0.073 7.22 5.06 12.18
12/13/2020 6:30:00 PM 4.7 40.46 0.073 7.23 5.03 12.18
12/13/2020 6:45:00 PM 4.67 40.406 0.073 7.23 4.88 12.2
12/13/2020 7:00:00 PM 4.65 40.37 0.073 7.23 5.2 12.21
12/13/2020 7:15:00 PM 4.62 40.316 0.073 7.23 4.79 12.21
12/13/2020 7:30:00 PM 4.59 40.262 0.073 7.19 4.9 12.23
12/13/2020 7:45:00 PM 4.57 40.226 0.073 7.23 4.75 12.24
12/13/2020 8:00:00 PM 4.55 40.19 0.073 7.22 4.82 12.24
12/13/2020 8:15:00 PM 4.53 40.154 0.073 7.23 4.77 12.25
12/13/2020 8:30:00 PM 4.5 40.1 0.073 7.22 4.42 12.25
12/13/2020 8:45:00 PM 4.48 40.064 0.073 7.23 4.52 12.26
12/13/2020 9:00:00 PM 4.45 40.01 0.073 7.22 4.87 12.27
12/13/2020 9:15:00 PM 4.43 39.974 0.073 7.22 4.6 12.28
12/13/2020 9:30:00 PM 4.41 39.938 0.073 7.21 4.77 12.27
12/13/2020 9:45:00 PM 4.38 39.884 0.073 7.23 4.69 12.29
12/13/2020 10:00:00 PM 4.36 39.848 0.073 7.21 4.47 12.3
12/13/2020 10:15:00 PM 4.34 39.812 0.073 7.22 4.46 12.29
12/13/2020 10:30:00 PM 4.32 39.776 0.073 7.22 4.49 12.31
12/13/2020 10:45:00 PM 4.3 39.74 0.073 7.22 4.66 12.32
12/13/2020 11:00:00 PM 4.28 39.704 0.073 7.17 4.54 12.33
12/13/2020 11:15:00 PM 4.26 39.668 0.073 7.22 4.7 12.33
12/13/2020 11:30:00 PM 4.24 39.632 0.073 7.21 4.21 12.34
12/13/2020 11:45:00 PM 4.22 39.596 0.073 7.19 4.25 12.34
12/14/2020 12:00:00 AM 4.21 39.578 0.073 7.21 4.34 12.35
12/14/2020 12:15:00 AM 4.19 39.542 0.073 7.22 4.55 12.36
12/14/2020 12:30:00 AM 4.17 39.506 0.073 7.2 4.58 12.35
12/14/2020 12:45:00 AM 4.15 39.47 0.073 7.22 4.3 12.35
12/14/2020 1:00:00 AM 4.14 39.452 0.073 7.22 4.41 12.36
12/14/2020 1:15:00 AM 4.12 39.416 0.073 7.22 4.46 12.36
12/14/2020 1:30:00 AM 4.1 39.38 0.073 7.22 4.42 12.37
12/14/2020 1:45:00 AM 4.07 39.326 0.073 7.22 4.35 12.38
12/14/2020 2:00:00 AM 4.05 39.29 0.073 7.2 4.48 12.39
12/14/2020 2:15:00 AM 4.03 39.254 0.074 7.22 4.33 12.4
12/14/2020 2:30:00 AM 4.01 39.218 0.074 7.2 4.35 12.4
12/14/2020 2:45:00 AM 3.99 39.182 0.074 7.22 4.25 12.4
12/14/2020 3:00:00 AM 3.96 39.128 0.074 7.17 4.16 12.41
12/14/2020 3:15:00 AM 3.94 39.092 0.074 7.22 4.17 12.41
12/14/2020 3:30:00 AM 3.93 39.074 0.074 7.2 4.12 12.41
12/14/2020 3:45:00 AM 3.91 39.038 0.074 7.21 4.27 12.42
12/14/2020 4:00:00 AM 3.89 39.002 0.074 7.22 4.2 12.42
12/14/2020 4:15:00 AM 3.88 38.984 0.074 7.23 4.42 12.43
12/14/2020 4:30:00 AM 3.86 38.948 0.074 7.23 4.05 12.44
12/14/2020 4:45:00 AM 3.85 38.93 0.074 7.22 4.09 12.44
12/14/2020 5:00:00 AM 3.83 38.894 0.074 7.21 4.21 12.45
12/14/2020 5:15:00 AM 3.79 38.822 0.074 7.22 3.99 12.46
12/14/2020 5:30:00 AM 3.71 38.678 0.074 7.21 4.09 12.47
12/14/2020 5:45:00 AM 3.63 38.534 0.074 7.23 4.04 12.49
12/14/2020 6:00:00 AM 3.57 38.426 0.073 7.2 4.04 12.53
12/14/2020 6:15:00 AM 3.53 38.354 0.073 7.22 4.18 12.54
12/14/2020 6:30:00 AM 3.49 38.282 0.073 7.19 4.09 12.55
12/14/2020 6:45:00 AM 3.44 38.192 0.073 7.22 4.18 12.56
12/14/2020 7:00:00 AM 3.35 38.03 0.073 7.22 4.14 12.58
12/14/2020 7:15:00 AM 3.32 37.976 0.073 7.21 4.3 12.61
12/14/2020 7:30:00 AM 3.32 37.976 0.073 7.21 4.88 12.61
12/14/2020 7:45:00 AM 3.32 37.976 0.073 7.22 4.5 12.61
12/14/2020 8:00:00 AM 3.27 37.886 0.073 7.22 4.47 12.62
12/14/2020 8:15:00 AM 3.24 37.832 0.073 7.21 4.98 12.65
12/14/2020 8:30:00 AM 3.21 37.778 0.073 7.23 4.57 12.68
12/14/2020 8:45:00 AM 3.22 37.796 0.073 7.23 4.71 12.71
12/14/2020 9:00:00 AM 3.22 37.796 0.073 7.24 4.4 12.73
12/14/2020 9:15:00 AM 3.25 37.85 0.073 7.25 4.4 12.73
12/14/2020 9:30:00 AM 3.28 37.904 0.073 7.24 4.8 12.74
12/14/2020 9:45:00 AM 3.32 37.976 0.073 7.26 5.06 12.76
12/14/2020 10:00:00 AM 3.37 38.066 0.073 7.28 5.45 12.77
12/14/2020 10:15:00 AM 3.4 38.12 0.073 7.28 5.24 12.77
12/14/2020 10:30:00 AM 3.44 38.192 0.073 7.27 5.51 12.76
12/14/2020 10:45:00 AM 3.46 38.228 0.073 7.28 5.59 12.75
12/14/2020 11:00:00 AM 3.48 38.264 0.073 7.29 6.36 12.74
12/14/2020 11:15:00 AM 3.5 38.3 0.073 7.26 6.08 12.74
12/14/2020 11:30:00 AM 3.52 38.336 0.073 7.3 6.08 12.73
12/14/2020 11:45:00 AM 3.53 38.354 0.073 7.29 5.89 12.71
12/14/2020 12:00:00 PM 3.53 38.354 0.073 7.27 5.79 12.69
12/14/2020 12:15:00 PM 3.56 38.408 0.073 7.29 5.15 12.71
12/14/2020 12:30:00 PM 3.57 38.426 0.073 7.3 5.03 12.69
12/14/2020 12:45:00 PM 3.59 38.462 0.073 7.3 4.97 12.69
12/14/2020 1:00:00 PM 3.6 38.48 0.073 7.3 4.74 12.69
12/14/2020 1:15:00 PM 3.56 38.408 0.073 7.3 4.72 12.67
12/14/2020 1:30:00 PM 3.61 38.498 0.073 7.31 4.74 12.71
12/14/2020 1:45:00 PM 3.64 38.552 0.073 7.27 4.81 12.7
12/14/2020 2:00:00 PM 3.67 38.606 0.073 7.31 4.76 12.67
12/14/2020 2:15:00 PM 3.67 38.606 0.073 7.3 4.46 12.64
12/14/2020 2:30:00 PM 3.65 38.57 0.073 7.29 4.81 12.63
12/14/2020 2:45:00 PM 3.65 38.57 0.073 7.3 5.08 12.64
12/14/2020 3:00:00 PM 3.63 38.534 0.073 7.29 5.06 12.63
12/14/2020 3:15:00 PM 3.62 38.516 0.073 7.3 4.93 12.65
12/14/2020 3:30:00 PM 3.6 38.48 0.073 7.29 4.8 12.66
12/14/2020 3:45:00 PM 3.57 38.426 0.073 7.28 4.72 12.61
12/14/2020 4:00:00 PM 3.53 38.354 0.073 7.27 4.88 12.58
12/14/2020 4:15:00 PM 3.47 38.246 0.073 7.25 5.01 12.58
12/14/2020 4:30:00 PM 3.44 38.192 0.073 7.24 4.83 12.6
12/14/2020 4:45:00 PM 3.4 38.12 0.073 7.24 4.79 12.6
12/14/2020 5:00:00 PM 3.37 38.066 0.073 7.23 4.69 12.61
12/14/2020 5:15:00 PM 3.31 37.958 0.073 7.24 4.77 12.63
12/14/2020 5:30:00 PM 3.27 37.886 0.073 7.19 4.72 12.64
12/14/2020 5:45:00 PM 3.22 37.796 0.073 7.23 4.77 12.67
12/14/2020 6:00:00 PM 3.17 37.706 0.073 7.23 4.77 12.69
12/14/2020 6:15:00 PM 3.13 37.634 0.073 7.23 4.55 12.71
12/14/2020 6:30:00 PM 3.09 37.562 0.073 7.21 4.66 12.72
12/14/2020 6:45:00 PM 3.04 37.472 0.074 7.23 4.38 12.75
12/14/2020 7:00:00 PM 2.99 37.382 0.074 7.23 4.38 12.77
12/14/2020 7:15:00 PM 2.95 37.31 0.074 7.23 4.45 12.79
12/14/2020 7:30:00 PM 2.92 37.256 0.074 7.23 4.31 12.8
12/14/2020 7:45:00 PM 2.87 37.166 0.074 7.23 4.37 12.82
12/14/2020 8:00:00 PM 2.83 37.094 0.074 7.2 4.12 12.85
12/14/2020 8:15:00 PM 2.76 36.968 0.074 7.23 4.22 12.87
12/14/2020 8:30:00 PM 2.71 36.878 0.074 7.2 4.12 12.89
12/14/2020 8:45:00 PM 2.66 36.788 0.074 7.23 4.1 12.92
12/14/2020 9:00:00 PM 2.62 36.716 0.074 7.22 4.2 12.94
12/14/2020 9:15:00 PM 2.59 36.662 0.074 7.21 4.13 12.95
12/14/2020 9:30:00 PM 2.55 36.59 0.074 7.22 4.13 12.96
12/14/2020 9:45:00 PM 2.52 36.536 0.074 7.22 4.05 12.98
12/14/2020 10:00:00 PM 2.49 36.482 0.074 7.22 4.17 12.99
12/14/2020 10:15:00 PM 2.47 36.446 0.074 7.23 3.86 13.01
12/14/2020 10:30:00 PM 2.42 36.356 0.074 7.19 3.9 13.02
12/14/2020 10:45:00 PM 2.39 36.302 0.074 7.21 3.85 13.03
12/14/2020 11:00:00 PM 2.36 36.248 0.074 7.23 3.85 13.05
12/14/2020 11:15:00 PM 2.31 36.158 0.074 7.21 3.79 13.06
12/14/2020 11:30:00 PM 2.27 36.086 0.074 7.22 3.88 13.08
12/14/2020 11:45:00 PM 2.22 35.996 0.074 7.22 3.82 13.1
12/15/2020 12:00:00 AM 2.16 35.888 0.074 7.23 3.77 13.12
12/15/2020 12:15:00 AM 2.12 35.816 0.074 7.22 3.61 13.14
12/15/2020 12:30:00 AM 2.08 35.744 0.074 7.22 3.58 13.16
12/15/2020 12:45:00 AM 2.03 35.654 0.074 7.18 3.71 13.18
12/15/2020 1:00:00 AM 1.98 35.564 0.074 7.22 3.61 13.19
12/15/2020 1:15:00 AM 1.94 35.492 0.074 7.19 3.7 13.22
12/15/2020 1:30:00 AM 1.89 35.402 0.074 7.21 3.52 13.24
12/15/2020 1:45:00 AM 1.86 35.348 0.074 7.22 3.69 13.25
12/15/2020 2:00:00 AM 1.85 35.33 0.074 7.2 3.75 13.27
12/15/2020 2:15:00 AM 1.83 35.294 0.074 7.21 3.63 13.27
12/15/2020 2:30:00 AM 1.81 35.258 0.074 7.23 3.63 13.28
12/15/2020 2:45:00 AM 1.79 35.222 0.074 7.23 3.62 13.3
12/15/2020 3:00:00 AM 1.76 35.168 0.074 7.21 3.8 13.32
12/15/2020 3:15:00 AM 1.74 35.132 0.074 7.22 3.53 13.33
12/15/2020 3:30:00 AM 1.72 35.096 0.074 7.22 3.51 13.34
12/15/2020 3:45:00 AM 1.69 35.042 0.074 7.22 3.49 13.34
12/15/2020 4:00:00 AM 1.66 34.988 0.075 7.21 3.41 13.35
12/15/2020 4:15:00 AM 1.63 34.934 0.075 7.22 3.32 13.38
12/15/2020 4:30:00 AM 1.61 34.898 0.075 7.2 3.48 13.37
12/15/2020 4:45:00 AM 1.59 34.862 0.075 7.22 3.39 13.4
12/15/2020 5:00:00 AM 1.58 34.844 0.075 7.22 3.47 13.39
12/15/2020 5:15:00 AM 1.56 34.808 0.075 7.19 3.38 13.41
12/15/2020 5:30:00 AM 1.5 34.7 0.075 7.22 3.46 13.42
12/15/2020 5:45:00 AM 1.46 34.628 0.075 7.18 3.54 13.45
12/15/2020 6:00:00 AM 1.43 34.574 0.075 7.2 3.42 13.47
12/15/2020 6:15:00 AM 1.41 34.538 0.075 7.22 3.31 13.49
12/15/2020 6:30:00 AM 1.4 34.52 0.075 7.2 3.54 13.49
12/15/2020 6:45:00 AM 1.38 34.484 0.075 7.22 3.33 13.49
12/15/2020 7:00:00 AM 1.37 34.466 0.075 7.2 3.7 13.5
12/15/2020 7:15:00 AM 1.36 34.448 0.075 7.22 3.44 13.51
12/15/2020 7:30:00 AM 1.34 34.412 0.075 7.21 3.34 13.51
12/15/2020 7:45:00 AM 1.33 34.394 0.075 7.23 3.31 13.54
12/15/2020 8:00:00 AM 1.32 34.376 0.075 7.22 3.26 13.57
12/15/2020 8:15:00 AM 1.32 34.376 0.075 7.25 3.28 13.62
12/15/2020 8:30:00 AM 1.33 34.394 0.074 7.25 3.24 13.66
12/15/2020 8:45:00 AM 1.34 34.412 0.074 7.27 3.25 13.68
12/15/2020 9:00:00 AM 1.33 34.394 0.074 7.27 3.36 13.7
12/15/2020 9:15:00 AM 1.34 34.412 0.074 7.28 3.25 13.71
12/15/2020 9:30:00 AM 1.35 34.43 0.074 7.29 3.25 13.72
12/15/2020 9:45:00 AM 1.35 34.43 0.074 7.29 3.26 13.73
12/15/2020 10:00:00 AM 1.34 34.412 0.074 7.3 3.11 13.74
12/15/2020 10:15:00 AM 1.34 34.412 0.074 7.28 3.21 13.73
12/15/2020 10:30:00 AM 1.35 34.43 0.074 7.3 3.15 13.73
12/15/2020 10:45:00 AM 1.38 34.484 0.074 7.26 3.15 13.73
12/15/2020 11:00:00 AM 1.38 34.484 0.074 7.3 3.36 13.73
12/15/2020 11:15:00 AM 1.38 34.484 0.074 7.29 3.23 13.72
12/15/2020 11:30:00 AM 1.37 34.466 0.074 7.3 3.25 13.73
12/15/2020 11:45:00 AM 1.42 34.556 0.074 7.3 3.09 13.71
12/15/2020 12:00:00 PM 1.48 34.664 0.074 7.3 3.23 13.71
12/15/2020 12:15:00 PM 1.53 34.754 0.074 7.31 3.15 13.68
12/15/2020 12:30:00 PM 1.57 34.826 0.074 7.31 3.31 13.65
12/15/2020 12:45:00 PM 1.57 34.826 0.074 7.29 3.17 13.64
12/15/2020 1:00:00 PM 1.55 34.79 0.074 7.3 3.16 13.63
12/15/2020 1:15:00 PM 1.51 34.718 0.074 7.29 3.1 13.64
12/15/2020 1:30:00 PM 1.51 34.718 0.074 7.3 3.46 13.66
12/15/2020 1:45:00 PM 1.52 34.736 0.074 7.29 3.35 13.67
12/15/2020 2:00:00 PM 1.52 34.736 0.074 7.3 3.3 13.66
12/15/2020 2:15:00 PM 1.54 34.772 0.074 7.31 3.49 13.65
12/15/2020 2:30:00 PM 1.52 34.736 0.074 7.3 3.32 13.65
12/15/2020 2:45:00 PM 1.48 34.664 0.074 7.29 3.34 13.65
12/15/2020 3:00:00 PM 1.41 34.538 0.074 7.29 3.24 13.65
12/15/2020 3:15:00 PM 1.35 34.43 0.074 7.26 3.29 13.67
12/15/2020 3:30:00 PM 1.31 34.358 0.074 7.28 3.46 13.68
12/15/2020 3:45:00 PM 1.27 34.286 0.074 7.27 3.36 13.69
12/15/2020 4:00:00 PM 1.22 34.196 0.074 7.27 3.23 13.69
12/15/2020 4:15:00 PM 1.17 34.106 0.075 7.25 3.35 13.69
12/15/2020 4:30:00 PM 1.12 34.016 0.075 7.25 3.34 13.68
12/15/2020 4:45:00 PM 1.08 33.944 0.075 7.24 3.41 13.68
12/15/2020 5:00:00 PM 1.04 33.872 0.075 7.23 3.64 13.67
12/15/2020 5:15:00 PM 1 33.8 0.075 7.24 3.34 13.68
12/15/2020 5:30:00 PM 0.96 33.728 0.075 7.22 3.62 13.7
12/15/2020 5:45:00 PM 0.93 33.674 0.075 7.23 3.46 13.71
12/15/2020 6:00:00 PM 0.9 33.62 0.075 7.22 3.51 13.73
12/15/2020 6:15:00 PM 0.87 33.566 0.075 7.23 3.54 13.73
12/15/2020 6:30:00 PM 0.85 33.53 0.075 7.22 3.29 13.74
12/15/2020 6:45:00 PM 0.82 33.476 0.075 7.22 3.72 13.75
12/15/2020 7:00:00 PM 0.8 33.44 0.075 7.21 3.44 13.77
12/15/2020 7:15:00 PM 0.77 33.386 0.075 7.23 3.32 13.78
12/15/2020 7:30:00 PM 0.75 33.35 0.075 7.22 3.37 13.79
12/15/2020 7:45:00 PM 0.72 33.296 0.075 7.21 3.23 13.8
12/15/2020 8:00:00 PM 0.72 33.296 0.075 7.21 3.23 13.81
12/15/2020 8:15:00 PM 0.73 33.314 0.075 7.22 3.27 13.8
12/15/2020 8:30:00 PM 0.72 33.296 0.075 7.21 3.15 13.8
12/15/2020 8:45:00 PM 0.7 33.26 0.075 7.21 3.12 13.81
12/15/2020 9:00:00 PM 0.66 33.188 0.075 7.21 3.22 13.82
12/15/2020 9:15:00 PM 0.62 33.116 0.075 7.22 3.17 13.84
12/15/2020 9:30:00 PM 0.58 33.044 0.075 7.22 3.19 13.86
12/15/2020 9:45:00 PM 0.53 32.954 0.075 7.23 3.09 13.87
12/15/2020 10:00:00 PM 0.48 32.864 0.075 7.21 3.12 13.9
12/15/2020 10:15:00 PM 0.42 32.756 0.075 7.22 3.21 13.92
12/15/2020 10:30:00 PM 0.38 32.684 0.075 7.22 3.25 13.93
12/15/2020 10:45:00 PM 0.34 32.612 0.075 7.19 3.14 13.95
12/15/2020 11:00:00 PM 0.32 32.576 0.075 7.21 3.23 13.97
12/15/2020 11:15:00 PM 0.29 32.522 0.075 7.19 3.09 13.98
12/15/2020 11:30:00 PM 0.26 32.468 0.075 7.19 3.11 13.99
12/15/2020 11:45:00 PM 0.24 32.432 0.075 7.2 3.29 14
12/16/2020 12:00:00 AM 0.21 32.378 0.075 7.18 3.1 14.01
12/16/2020 12:15:00 AM 0.18 32.324 0.075 7.21 3.22 14.03
12/16/2020 12:30:00 AM 0.15 32.27 0.075 7.17 3.06 14.04
12/16/2020 12:45:00 AM 0.12 32.216 0.075 7.2 3.1 14.05
12/16/2020 1:00:00 AM 0.09 32.162 0.075 7.2 3.1 14.06
12/16/2020 1:15:00 AM 0.05 32.09 0.075 7.18 3.09 14.08
12/16/2020 1:30:00 AM 0.02 32.036 0.075 7.19 3.16 14.1
12/16/2020 1:45:00 AM -0.01 31.982 0.076 7.18 3.13 14.11
12/16/2020 2:00:00 AM -0.03 31.946 0.076 7.2 3.24 14.12
12/16/2020 2:15:00 AM -0.06 31.892 0.076 7.17 3.12 14.14
12/16/2020 2:30:00 AM -0.09 31.838 0.076 7.2 3.32 14.15
12/16/2020 2:45:00 AM -0.07 31.874 0.076 7.21 3.42 14.16
12/16/2020 3:00:00 AM -0.07 31.874 0.076 7.2 3.4 14.17
12/16/2020 3:15:00 AM -0.07 31.874 0.076 7.22 3.41 14.17
12/16/2020 3:30:00 AM -0.07 31.874 0.076 7.21 3.47 14.16
12/16/2020 3:45:00 AM -0.07 31.874 0.076 7.22 3.56 14.17
12/16/2020 4:00:00 AM -0.07 31.874 0.076 7.21 3.9 14.17
12/16/2020 4:15:00 AM -0.07 31.874 0.076 7.21 3.65 14.18
12/16/2020 4:30:00 AM -0.07 31.874 0.076 7.22 3.84 14.17
12/16/2020 4:45:00 AM -0.07 31.874 0.076 7.21 3.73 14.17
12/16/2020 5:00:00 AM -0.06 31.892 0.076 7.22 3.71 14.16
12/16/2020 5:15:00 AM -0.06 31.892 0.076 7.2 3.71 14.16
12/16/2020 5:30:00 AM -0.06 31.892 0.076 7.22 4.01 14.16
12/16/2020 5:45:00 AM -0.06 31.892 0.076 7.18 3.76 14.16
12/16/2020 6:00:00 AM -0.06 31.892 0.076 7.21 3.96 14.15
12/16/2020 6:15:00 AM -0.06 31.892 0.076 7.22 3.85 14.15
12/16/2020 6:30:00 AM -0.06 31.892 0.077 7.22 3.68 14.15
12/16/2020 6:45:00 AM -0.07 31.874 0.077 7.21 3.94 14.14
12/16/2020 7:00:00 AM -0.06 31.892 0.077 7.22 3.63 14.15
12/16/2020 7:15:00 AM -0.06 31.892 0.077 7.21 3.71 14.14
12/16/2020 7:30:00 AM -0.06 31.892 0.077 7.22 3.7 14.14
12/16/2020 7:45:00 AM -0.06 31.892 0.077 7.23 3.79 14.15
12/16/2020 8:00:00 AM -0.06 31.892 0.077 7.23 3.56 14.15
12/16/2020 8:15:00 AM -0.06 31.892 0.077 7.24 3.58 14.17
12/16/2020 8:30:00 AM -0.06 31.892 0.077 7.25 3.67 14.2
12/16/2020 8:45:00 AM -0.06 31.892 0.077 7.25 3.64 14.23
12/16/2020 9:00:00 AM -0.06 31.892 0.077 7.27 3.76 14.25
12/16/2020 9:15:00 AM -0.05 31.91 0.077 7.26 3.67 14.28
12/16/2020 9:30:00 AM -0.05 31.91 0.077 7.28 3.65 14.28
12/16/2020 9:45:00 AM -0.05 31.91 0.077 7.27 3.91 14.29
12/16/2020 10:00:00 AM -0.05 31.91 0.077 7.28 3.82 14.28
12/16/2020 10:15:00 AM -0.05 31.91 0.077 7.28 3.53 14.28
12/16/2020 10:30:00 AM -0.05 31.91 0.077 7.3 3.79 14.28
12/16/2020 10:45:00 AM -0.05 31.91 0.077 7.3 3.84 14.27
12/16/2020 11:00:00 AM -0.05 31.91 0.077 7.28 4.14 14.26
12/16/2020 11:15:00 AM -0.05 31.91 0.077 7.29 3.62 14.25
12/16/2020 11:30:00 AM -0.05 31.91 0.077 7.29 3.78 14.24
12/16/2020 11:45:00 AM -0.05 31.91 0.077 7.27 3.68 14.24
12/16/2020 12:00:00 PM -0.05 31.91 0.077 7.29 3.58 14.23
12/16/2020 12:15:00 PM -0.06 31.892 0.077 7.24 3.83 14.22
12/16/2020 12:30:00 PM -0.06 31.892 0.077 7.28 4.1 14.22
12/16/2020 12:45:00 PM -0.06 31.892 0.077 7.27 4.2 14.23
12/16/2020 1:00:00 PM -0.06 31.892 0.077 7.28 3.97 14.23
12/16/2020 1:15:00 PM -0.06 31.892 0.077 7.28 3.93 14.22
12/16/2020 1:30:00 PM -0.06 31.892 0.077 7.28 3.86 14.21
12/16/2020 1:45:00 PM -0.06 31.892 0.077 7.28 3.98 14.21
12/16/2020 2:00:00 PM -0.06 31.892 0.077 7.28 4.75 14.19
12/16/2020 2:15:00 PM -0.06 31.892 0.077 7.28 4.73 14.18
12/16/2020 2:30:00 PM -0.06 31.892 0.077 7.26 4.93 14.16
12/16/2020 2:45:00 PM -99999.99 -179968 -99999.99 -99999.99 -99999.99 -99999.99
12/16/2020 3:00:00 PM -99999.99 -179968 -99999.99 -99999.99 -99999.99 -99999.99
12/16/2020 3:15:00 PM -99999.99 -179968 -99999.99 -99999.99 -99999.99 -99999.99
12/16/2020 3:30:00 PM -99999.99 -179968 -99999.99 -99999.99 -99999.99 -99999.99
12/16/2020 3:45:00 PM -99999.99 -179968 -99999.99 -99999.99 -99999.99 -99999.99
12/16/2020 4:00:00 PM -99999.99 -179968 -99999.99 -99999.99 -99999.99 -99999.99
12/16/2020 4:15:00 PM -99999.99 -179968 -99999.99 -99999.99 -99999.99 -99999.99
12/16/2020 4:30:00 PM -99999.99 -179968 -99999.99 -99999.99 -99999.99 -99999.99
12/16/2020 4:45:00 PM -99999.99 -179968 -99999.99 -99999.99 -99999.99 -99999.99
12/16/2020 5:00:00 PM -99999.99 -179968 -99999.99 -99999.99 -99999.99 -99999.99
12/16/2020 5:15:00 PM -99999.99 -179968 -99999.99 -99999.99 -99999.99 -99999.99
12/16/2020 5:30:00 PM -99999.99 -179968 -99999.99 -99999.99 -99999.99 -99999.99
12/16/2020 5:45:00 PM -99999.99 -179968 -99999.99 -99999.99 -99999.99 -99999.99
12/16/2020 6:00:00 PM -99999.99 -179968 -99999.99 -99999.99 -99999.99 -99999.99
12/16/2020 6:15:00 PM -99999.99 -179968 -99999.99 -99999.99 -99999.99 -99999.99
12/16/2020 6:30:00 PM -99999.99 -179968 -99999.99 -99999.99 -99999.99 -99999.99
12/16/2020 6:45:00 PM -99999.99 -179968 -99999.99 -99999.99 -99999.99 -99999.99
12/16/2020 7:00:00 PM -99999.99 -179968 -99999.99 -99999.99 -99999.99 -99999.99
12/16/2020 7:15:00 PM -99999.99 -179968 -99999.99 -99999.99 -99999.99 -99999.99
12/16/2020 7:30:00 PM -99999.99 -179968 -99999.99 -99999.99 -99999.99 -99999.99
12/16/2020 7:45:00 PM -99999.99 -179968 -99999.99 -99999.99 -99999.99 -99999.99
12/16/2020 8:00:00 PM -99999.99 -179968 -99999.99 -99999.99 -99999.99 -99999.99
12/16/2020 8:15:00 PM -99999.99 -179968 -99999.99 -99999.99 -99999.99 -99999.99
12/16/2020 8:30:00 PM -99999.99 -179968 -99999.99 -99999.99 -99999.99 -99999.99
12/16/2020 8:45:00 PM -99999.99 -179968 -99999.99 -99999.99 -99999.99 -99999.99
12/16/2020 9:00:00 PM -99999.99 -179968 -99999.99 -99999.99 -99999.99 -99999.99
12/16/2020 9:15:00 PM -99999.99 -179968 -99999.99 -99999.99 -99999.99 -99999.99
12/16/2020 9:30:00 PM -99999.99 -179968 -99999.99 -99999.99 -99999.99 -99999.99
12/16/2020 9:45:00 PM -99999.99 -179968 -99999.99 -99999.99 -99999.99 -99999.99
12/16/2020 10:00:00 PM -99999.99 -179968 -99999.99 -99999.99 -99999.99 -99999.99
12/16/2020 10:15:00 PM -99999.99 -179968 -99999.99 -99999.99 -99999.99 -99999.99
12/16/2020 10:30:00 PM -99999.99 -179968 -99999.99 -99999.99 -99999.99 -99999.99
12/16/2020 10:45:00 PM -99999.99 -179968 -99999.99 -99999.99 -99999.99 -99999.99
12/16/2020 11:00:00 PM -99999.99 -179968 -99999.99 -99999.99 -99999.99 -99999.99
12/16/2020 11:15:00 PM -99999.99 -179968 -99999.99 -99999.99 -99999.99 -99999.99
12/16/2020 11:30:00 PM -99999.99 -179968 -99999.99 -99999.99 -99999.99 -99999.99
12/16/2020 11:45:00 PM -99999.99 -179968 -99999.99 -99999.99 -99999.99 -99999.99
12/17/2020 12:00:00 AM -99999.99 -179968 -99999.99 -99999.99 -99999.99 -99999.99
12/17/2020 12:15:00 AM -99999.99 -179968 -99999.99 -99999.99 -99999.99 -99999.99
12/17/2020 12:30:00 AM -99999.99 -179968 -99999.99 -99999.99 -99999.99 -99999.99
12/20/2020 10:30:00 AM -99999.99 -179968 -99999.99 -99999.99 -99999.99 -99999.99
12/20/2020 10:45:00 AM -99999.99 -179968 -99999.99 -99999.99 -99999.99 -99999.99
12/20/2020 11:00:00 AM -99999.99 -179968 -99999.99 -99999.99 -99999.99 -99999.99
12/20/2020 11:15:00 AM -99999.99 -179968 -99999.99 -99999.99 -99999.99 -99999.99
12/20/2020 11:30:00 AM 0.59 33.062 0.075 7.21 4.13 13.75
12/20/2020 11:45:00 AM 0.6 33.08 0.075 7.2 3.88 13.74
12/20/2020 12:00:00 PM 0.59 33.062 0.075 7.19 3.9 13.74
12/20/2020 12:15:00 PM -99999.99 -179968 -99999.99 -99999.99 -99999.99 -99999.99
12/20/2020 12:30:00 PM -99999.99 -179968 -99999.99 -99999.99 -99999.99 -99999.99
12/20/2020 12:45:00 PM 0.63 33.134 0.075 7.21 3.94 13.72
12/20/2020 1:00:00 PM 0.65 33.17 0.075 7.21 3.78 13.71
12/20/2020 1:15:00 PM 0.65 33.17 0.075 7.21 4.01 13.69
12/20/2020 1:30:00 PM 0.66 33.188 0.075 7.2 3.97 13.69
12/20/2020 1:45:00 PM 0.59 33.062 0.075 7.18 4.41 13.7
12/20/2020 2:00:00 PM -99999.99 -179968 -99999.99 -99999.99 -99999.99 -99999.99
12/20/2020 2:15:00 PM -99999.99 -179968 -99999.99 -99999.99 -99999.99 -99999.99
12/20/2020 2:30:00 PM -99999.99 -179968 -99999.99 -99999.99 -99999.99 -99999.99
12/20/2020 2:45:00 PM -99999.99 -179968 -99999.99 -99999.99 -99999.99 -99999.99
12/20/2020 3:00:00 PM -99999.99 -179968 -99999.99 -99999.99 -99999.99 -99999.99
12/20/2020 3:15:00 PM -99999.99 -179968 -99999.99 -99999.99 -99999.99 -99999.99
12/20/2020 3:30:00 PM -99999.99 -179968 -99999.99 -99999.99 -99999.99 -99999.99
12/20/2020 3:45:00 PM -99999.99 -179968 -99999.99 -99999.99 -99999.99 -99999.99
12/20/2020 4:00:00 PM -99999.99 -179968 -99999.99 -99999.99 -99999.99 -99999.99
12/20/2020 4:15:00 PM -99999.99 -179968 -99999.99 -99999.99 -99999.99 -99999.99
12/20/2020 4:30:00 PM -99999.99 -179968 -99999.99 -99999.99 -99999.99 -99999.99
12/21/2020 11:30:00 AM 0.97 33.746 0.074 7.21 4.01 13.49
12/21/2020 11:45:00 AM -99999.99 -179968 -99999.99 -99999.99 -99999.99 -99999.99
12/21/2020 12:00:00 PM 0.53 32.954 0.074 7.21 4.99 13.58
12/21/2020 12:15:00 PM 0.74 33.332 0.074 7.19 4.43 13.6
12/21/2020 12:30:00 PM 0.83 33.494 0.074 7.21 4.63 13.56
12/21/2020 12:45:00 PM 0.89 33.602 0.074 7.21 4.24 13.53
12/21/2020 1:00:00 PM 0.93 33.674 0.074 7.21 4.18 13.51
12/21/2020 1:15:00 PM 0.95 33.71 0.074 7.2 4.07 13.49
12/21/2020 1:30:00 PM 0.97 33.746 0.074 7.18 4.34 13.49
12/21/2020 1:45:00 PM 0.99 33.782 0.074 7.2 4.19 13.49
12/21/2020 2:00:00 PM 0.96 33.728 0.074 7.22 4.07 13.49
12/21/2020 2:15:00 PM 0.99 33.782 0.074 7.19 4.22 13.48
12/21/2020 2:30:00 PM 0.95 33.71 0.074 7.21 4.98 13.49
12/21/2020 2:45:00 PM 0.97 33.746 0.074 7.2 4.4 13.47
12/21/2020 3:00:00 PM 0.97 33.746 0.074 7.21 4.24 13.46
12/21/2020 3:15:00 PM 0.8 33.44 0.074 7.2 4.61 13.47
12/21/2020 3:30:00 PM 0.91 33.638 0.074 7.2 4.37 13.49
12/21/2020 3:45:00 PM 0.92 33.656 0.074 7.2 4.31 13.47
12/21/2020 4:00:00 PM 0.94 33.692 0.074 7.18 4.34 13.46
12/21/2020 4:15:00 PM 0.96 33.728 0.074 7.2 4.38 13.44
12/21/2020 4:30:00 PM 0.97 33.746 0.074 7.19 4.31 13.43
12/21/2020 4:45:00 PM 0.97 33.746 0.074 7.19 4.69 13.43
12/21/2020 5:00:00 PM 0.97 33.746 0.074 7.18 4.37 13.42
12/21/2020 5:15:00 PM 0.43 32.774 0.073 7.18 5.85 13.53
12/21/2020 5:30:00 PM 0.6 33.08 0.074 7.17 5.23 13.58
12/21/2020 5:45:00 PM 0.7 33.26 0.074 7.16 4.78 13.54
12/21/2020 6:00:00 PM 0.78 33.404 0.074 7.16 4.55 13.51
12/21/2020 6:15:00 PM -99999.99 -179968 -99999.99 -99999.99 -99999.99 -99999.99
12/21/2020 6:30:00 PM -99999.99 -179968 -99999.99 -99999.99 -99999.99 -99999.99
12/21/2020 6:45:00 PM -99999.99 -179968 -99999.99 -99999.99 -99999.99 -99999.99
12/21/2020 7:00:00 PM -99999.99 -179968 -99999.99 -99999.99 -99999.99 -99999.99
12/21/2020 7:15:00 PM -99999.99 -179968 -99999.99 -99999.99 -99999.99 -99999.99
12/21/2020 7:30:00 PM -99999.99 -179968 -99999.99 -99999.99 -99999.99 -99999.99
12/21/2020 7:45:00 PM -99999.99 -179968 -99999.99 -99999.99 -99999.99 -99999.99
12/21/2020 8:00:00 PM -99999.99 -179968 -99999.99 -99999.99 -99999.99 -99999.99
12/21/2020 8:15:00 PM -99999.99 -179968 -99999.99 -99999.99 -99999.99 -99999.99
12/21/2020 8:30:00 PM -99999.99 -179968 -99999.99 -99999.99 -99999.99 -99999.99
12/21/2020 8:45:00 PM -99999.99 -179968 -99999.99 -99999.99 -99999.99 -99999.99
12/21/2020 9:00:00 PM -99999.99 -179968 -99999.99 -99999.99 -99999.99 -99999.99
12/21/2020 9:15:00 PM -99999.99 -179968 -99999.99 -99999.99 -99999.99 -99999.99
12/21/2020 9:30:00 PM -99999.99 -179968 -99999.99 -99999.99 -99999.99 -99999.99
12/21/2020 9:45:00 PM -99999.99 -179968 -99999.99 -99999.99 -99999.99 -99999.99
12/21/2020 10:00:00 PM -99999.99 -179968 -99999.99 -99999.99 -99999.99 -99999.99
12/21/2020 10:15:00 PM -99999.99 -179968 -99999.99 -99999.99 -99999.99 -99999.99
12/21/2020 10:30:00 PM -99999.99 -179968 -99999.99 -99999.99 -99999.99 -99999.99
12/21/2020 10:45:00 PM -99999.99 -179968 -99999.99 -99999.99 -99999.99 -99999.99
12/21/2020 11:00:00 PM -99999.99 -179968 -99999.99 -99999.99 -99999.99 -99999.99
12/21/2020 11:15:00 PM -99999.99 -179968 -99999.99 -99999.99 -99999.99 -99999.99
12/21/2020 11:30:00 PM -99999.99 -179968 -99999.99 -99999.99 -99999.99 -99999.99
12/21/2020 11:45:00 PM -99999.99 -179968 -99999.99 -99999.99 -99999.99 -99999.99
12/22/2020 12:00:00 AM -99999.99 -179968 -99999.99 -99999.99 -99999.99 -99999.99
12/22/2020 12:15:00 AM -99999.99 -179968 -99999.99 -99999.99 -99999.99 -99999.99
12/22/2020 12:30:00 AM -99999.99 -179968 -99999.99 -99999.99 -99999.99 -99999.99
12/22/2020 12:45:00 AM -99999.99 -179968 -99999.99 -99999.99 -99999.99 -99999.99
12/22/2020 1:00:00 AM -99999.99 -179968 -99999.99 -99999.99 -99999.99 -99999.99
12/22/2020 1:15:00 AM -99999.99 -179968 -99999.99 -99999.99 -99999.99 -99999.99
12/22/2020 1:30:00 AM -99999.99 -179968 -99999.99 -99999.99 -99999.99 -99999.99
12/22/2020 1:45:00 AM -99999.99 -179968 -99999.99 -99999.99 -99999.99 -99999.99
12/22/2020 2:00:00 AM -99999.99 -179968 -99999.99 -99999.99 -99999.99 -99999.99
12/22/2020 2:15:00 AM -99999.99 -179968 -99999.99 -99999.99 -99999.99 -99999.99
12/22/2020 2:30:00 AM -99999.99 -179968 -99999.99 -99999.99 -99999.99 -99999.99
12/22/2020 2:45:00 AM -99999.99 -179968 -99999.99 -99999.99 -99999.99 -99999.99
12/22/2020 3:00:00 AM -99999.99 -179968 -99999.99 -99999.99 -99999.99 -99999.99
12/22/2020 3:15:00 AM -99999.99 -179968 -99999.99 -99999.99 -99999.99 -99999.99
12/22/2020 3:30:00 AM -99999.99 -179968 -99999.99 -99999.99 -99999.99 -99999.99
12/22/2020 3:45:00 AM -99999.99 -179968 -99999.99 -99999.99 -99999.99 -99999.99
12/22/2020 4:00:00 AM -99999.99 -179968 -99999.99 -99999.99 -99999.99 -99999.99
12/22/2020 4:15:00 AM -99999.99 -179968 -99999.99 -99999.99 -99999.99 -99999.99
12/22/2020 4:30:00 AM -99999.99 -179968 -99999.99 -99999.99 -99999.99 -99999.99
12/22/2020 4:45:00 AM -99999.99 -179968 -99999.99 -99999.99 -99999.99 -99999.99
12/22/2020 5:00:00 AM -99999.99 -179968 -99999.99 -99999.99 -99999.99 -99999.99
12/22/2020 5:15:00 AM -99999.99 -179968 -99999.99 -99999.99 -99999.99 -99999.99
12/22/2020 9:15:00 AM 0.97 33.746 0.074 7.18 3.67 13.5
12/22/2020 9:30:00 AM 1 33.8 0.074 7.19 3.94 13.51
12/22/2020 9:45:00 AM 0.99 33.782 0.074 7.19 3.75 13.52
12/22/2020 10:00:00 AM 0.65 33.17 0.073 7.16 4.35 13.64
12/22/2020 10:15:00 AM 0.78 33.404 0.073 7.19 4.03 13.64
12/22/2020 10:30:00 AM 0.86 33.548 0.074 7.21 3.93 13.62
12/22/2020 10:45:00 AM 0.93 33.674 0.074 7.21 3.86 13.59
12/22/2020 11:00:00 AM 0.97 33.746 0.074 7.22 3.81 13.58
12/22/2020 11:15:00 AM 1 33.8 0.074 7.21 3.77 13.56
12/22/2020 11:30:00 AM 1.04 33.872 0.074 7.22 3.88 13.55
12/22/2020 11:45:00 AM 1.06 33.908 0.074 7.21 3.92 13.55
12/22/2020 12:00:00 PM 1.06 33.908 0.074 7.23 3.99 13.54
12/22/2020 12:15:00 PM 1.06 33.908 0.074 7.23 3.76 13.54
12/22/2020 12:30:00 PM 1.03 33.854 0.074 7.21 3.83 13.55
12/22/2020 12:45:00 PM 1.05 33.89 0.074 7.24 3.95 13.55
12/22/2020 1:00:00 PM 1.07 33.926 0.074 7.23 3.88 13.55
12/22/2020 1:15:00 PM 1.09 33.962 0.074 7.23 3.81 13.54
12/22/2020 1:30:00 PM 1.1 33.98 0.074 7.24 3.86 13.55
12/22/2020 1:45:00 PM 1.1 33.98 0.074 7.21 4.01 13.55
12/22/2020 2:00:00 PM 0.94 33.692 0.074 7.24 4.21 13.57
12/22/2020 2:15:00 PM 0.95 33.71 0.073 7.23 4.16 13.61
12/22/2020 2:30:00 PM 1.02 33.836 0.074 7.23 4.07 13.59
12/22/2020 2:45:00 PM 1.05 33.89 0.074 7.23 4.01 13.56
12/22/2020 3:00:00 PM 1.08 33.944 0.074 7.23 4.18 13.55
12/22/2020 3:15:00 PM 1.09 33.962 0.074 7.2 4.14 13.53
12/22/2020 3:30:00 PM 0.53 32.954 0.073 7.21 5.47 13.62
12/22/2020 3:45:00 PM 0.68 33.224 0.073 7.2 4.77 13.7
12/22/2020 4:00:00 PM 0.79 33.422 0.073 7.22 4.28 13.66
12/22/2020 4:15:00 PM 0.87 33.566 0.073 7.22 4.21 13.63
12/22/2020 4:30:00 PM 0.93 33.674 0.073 7.18 4.17 13.6
12/22/2020 4:45:00 PM 0.97 33.746 0.074 7.22 4.06 13.58
12/22/2020 5:00:00 PM 1 33.8 0.074 7.17 4.15 13.56
12/22/2020 5:15:00 PM 1.03 33.854 0.074 7.22 4.26 13.56
12/22/2020 5:30:00 PM 1.05 33.89 0.074 7.21 4.34 13.55
12/22/2020 5:45:00 PM 1.03 33.854 0.074 7.2 4.36 13.56
12/22/2020 6:00:00 PM 1.06 33.908 0.074 7.21 4.16 13.56
12/22/2020 6:15:00 PM 1.07 33.926 0.074 7.22 4.19 13.56
12/22/2020 6:30:00 PM 1.08 33.944 0.074 7.2 4.03 13.56
12/22/2020 6:45:00 PM 1.08 33.944 0.074 7.22 4.17 13.55
12/22/2020 7:00:00 PM 1.07 33.926 0.074 7.21 4.03 13.57
12/22/2020 7:15:00 PM 0.99 33.782 0.074 7.2 4.14 13.59
12/22/2020 7:30:00 PM 0.99 33.782 0.074 7.21 4.11 13.61
12/22/2020 7:45:00 PM 1.02 33.836 0.074 7.21 4.18 13.6
12/22/2020 8:00:00 PM 1.04 33.872 0.074 7.2 4.1 13.6
12/22/2020 8:15:00 PM 1.06 33.908 0.074 7.2 4.03 13.59
12/22/2020 8:30:00 PM 1.08 33.944 0.074 7.22 4.2 13.59
12/22/2020 8:45:00 PM 1.08 33.944 0.074 7.17 3.96 13.59
12/22/2020 9:00:00 PM 1.09 33.962 0.074 7.22 3.99 13.58
12/22/2020 9:15:00 PM 1.09 33.962 0.074 7.2 4.02 13.59
12/22/2020 9:30:00 PM 0.97 33.746 0.074 7.21 4.21 13.6
12/22/2020 9:45:00 PM 0.8 33.44 0.073 7.18 4.39 13.7
12/22/2020 10:00:00 PM 0.89 33.602 0.074 7.2 4.19 13.69
12/22/2020 10:15:00 PM 0.94 33.692 0.074 7.21 4.03 13.66
12/22/2020 10:30:00 PM 0.99 33.782 0.074 7.2 4.08 13.64
12/22/2020 10:45:00 PM 1.02 33.836 0.074 7.21 4.07 13.63
12/22/2020 11:00:00 PM 1.05 33.89 0.074 7.19 4.04 13.62
12/22/2020 11:15:00 PM 1.06 33.908 0.074 7.19 3.88 13.61
12/22/2020 11:30:00 PM 1.07 33.926 0.074 7.21 4.2 13.61
12/22/2020 11:45:00 PM 1.09 33.962 0.074 7.21 3.87 13.6
12/23/2020 12:00:00 AM 1.07 33.926 0.074 7.18 4.1 13.61
12/23/2020 12:15:00 AM 1.1 33.98 0.074 7.21 3.81 13.6
12/23/2020 12:30:00 AM 1.1 33.98 0.074 7.16 3.67 13.6
12/23/2020 12:45:00 AM 1.06 33.908 0.074 7.2 3.91 13.61
12/23/2020 1:00:00 AM 1.06 33.908 0.074 7.21 4.05 13.62
12/23/2020 1:15:00 AM 1.06 33.908 0.074 7.2 3.73 13.62
12/23/2020 1:30:00 AM 1.07 33.926 0.074 7.21 3.89 13.62
12/23/2020 1:45:00 AM 1.07 33.926 0.074 7.21 3.92 13.61
12/23/2020 2:00:00 AM 1.09 33.962 0.074 7.19 3.85 13.62
12/23/2020 2:15:00 AM 1.07 33.926 0.074 7.2 4.19 13.62
12/23/2020 2:30:00 AM 1.06 33.908 0.074 7.19 3.96 13.63
12/23/2020 2:45:00 AM 1.02 33.836 0.074 7.18 3.86 13.64
12/23/2020 3:00:00 AM 0.93 33.674 0.074 7.19 3.95 13.7
12/23/2020 3:15:00 AM 0.96 33.728 0.074 7.2 3.92 13.69
12/23/2020 3:30:00 AM 0.99 33.782 0.074 7.21 3.68 13.67
12/23/2020 3:45:00 AM 1.02 33.836 0.074 7.19 3.81 13.66
12/23/2020 4:00:00 AM 1.04 33.872 0.074 7.19 3.76 13.65
12/23/2020 4:15:00 AM 1.05 33.89 0.074 7.18 3.67 13.64
12/23/2020 4:30:00 AM 1.06 33.908 0.074 7.2 3.71 13.63
12/23/2020 4:45:00 AM 1.06 33.908 0.074 7.2 3.76 13.64
12/23/2020 5:00:00 AM 1.06 33.908 0.074 7.2 3.71 13.64
12/23/2020 5:15:00 AM 1.06 33.908 0.074 7.2 3.64 13.64
12/23/2020 5:30:00 AM 1.06 33.908 0.074 7.21 3.7 13.64
12/23/2020 5:45:00 AM 1.05 33.89 0.074 7.19 3.73 13.65
12/23/2020 6:00:00 AM 1.03 33.854 0.075 7.21 3.77 13.65
12/23/2020 6:15:00 AM 1.01 33.818 0.074 7.19 3.73 13.67
12/23/2020 6:30:00 AM 1 33.8 0.074 7.21 3.7 13.68
12/23/2020 6:45:00 AM 1.01 33.818 0.075 7.18 3.7 13.67
12/23/2020 7:00:00 AM 1.01 33.818 0.075 7.21 3.77 13.67
12/23/2020 7:15:00 AM 1.01 33.818 0.075 7.2 3.92 13.67
12/23/2020 7:30:00 AM 1.02 33.836 0.075 7.2 3.8 13.67
12/23/2020 7:45:00 AM 1.02 33.836 0.075 7.18 3.78 13.67
12/23/2020 8:00:00 AM 1.02 33.836 0.075 7.2 3.81 13.68
12/23/2020 8:15:00 AM 1.02 33.836 0.075 7.2 3.81 13.69
12/23/2020 8:30:00 AM 1 33.8 0.075 7.21 3.78 13.7
12/23/2020 8:45:00 AM 1.01 33.818 0.075 7.21 3.76 13.72
12/23/2020 9:00:00 AM 1.02 33.836 0.075 7.23 3.83 13.72
12/23/2020 9:15:00 AM 1.03 33.854 0.075 7.21 3.74 13.72
12/23/2020 9:30:00 AM 1.04 33.872 0.075 7.22 3.86 13.72
12/23/2020 9:45:00 AM 1.05 33.89 0.075 7.21 3.81 13.72
12/23/2020 10:00:00 AM 1.06 33.908 0.075 7.24 3.63 13.73
12/23/2020 10:15:00 AM 1.07 33.926 0.075 7.24 3.85 13.73
12/23/2020 10:30:00 AM 1.08 33.944 0.075 7.24 3.93 13.72
12/23/2020 10:45:00 AM 1.09 33.962 0.075 7.23 3.97 13.71
12/23/2020 11:00:00 AM 1.1 33.98 0.075 7.24 3.83 13.71
12/23/2020 11:15:00 AM 1.11 33.998 0.075 7.25 3.81 13.71
12/23/2020 11:30:00 AM 1.12 34.016 0.075 7.23 3.82 13.7
12/23/2020 11:45:00 AM 1.13 34.034 0.075 7.26 3.83 13.69
12/23/2020 12:00:00 PM 1.13 34.034 0.075 7.24 3.8 13.69
12/23/2020 12:15:00 PM 1.12 34.016 0.074 7.26 3.93 13.7
12/23/2020 12:30:00 PM 1.15 34.07 0.074 7.25 3.98 13.69
12/23/2020 12:45:00 PM 1.17 34.106 0.074 7.25 4.03 13.67
12/23/2020 1:00:00 PM 1.15 34.07 0.074 7.26 3.93 13.66
12/23/2020 1:15:00 PM 1.16 34.088 0.074 7.25 4.03 13.67
12/23/2020 1:30:00 PM 1.17 34.106 0.074 7.24 4.22 13.66
12/23/2020 1:45:00 PM 1.19 34.142 0.074 7.26 4.23 13.64
12/23/2020 2:00:00 PM 1.17 34.106 0.074 7.25 4.05 13.64
12/23/2020 2:15:00 PM 0.96 33.728 0.074 7.24 4.24 13.67
12/23/2020 2:30:00 PM 0.97 33.746 0.074 7.25 4.38 13.71
12/23/2020 2:45:00 PM 1.04 33.872 0.074 7.22 4.21 13.68
12/23/2020 3:00:00 PM 1.1 33.98 0.074 7.25 4.25 13.64
12/23/2020 3:15:00 PM 1.13 34.034 0.074 7.24 4.68 13.62
12/23/2020 3:30:00 PM 1.09 33.962 0.075 7.26 5.47 13.62
12/23/2020 3:45:00 PM 0.87 33.566 0.074 7.22 6.67 13.7
12/23/2020 4:00:00 PM 0.97 33.746 0.075 7.23 7.19 13.67
12/23/2020 4:15:00 PM 1.03 33.854 0.075 7.23 7.46 13.62
12/23/2020 4:30:00 PM 1.06 33.908 0.075 7.23 7.74 13.6
12/23/2020 4:45:00 PM 1.07 33.926 0.075 7.21 8.42 13.58
12/23/2020 5:00:00 PM 1.1 33.98 0.076 7.23 8.28 13.57
12/23/2020 5:15:00 PM 1.12 34.016 0.076 7.2 8.28 13.56
12/23/2020 5:30:00 PM 1.13 34.034 0.076 7.23 7.94 13.55
12/23/2020 5:45:00 PM 1.12 34.016 0.075 7.22 7.83 13.56
12/23/2020 6:00:00 PM 1.15 34.07 0.075 7.22 7.33 13.54
12/23/2020 6:15:00 PM 1.14 34.052 0.075 7.23 7.72 13.54
12/23/2020 6:30:00 PM 1.15 34.07 0.075 7.18 7.41 13.54
12/23/2020 6:45:00 PM 1.16 34.088 0.075 7.23 7.46 13.54
12/23/2020 7:00:00 PM 1.16 34.088 0.075 7.2 7.17 13.54
12/23/2020 7:15:00 PM 1.17 34.106 0.075 7.21 6.75 13.54
12/23/2020 7:30:00 PM 1.17 34.106 0.075 7.21 6.24 13.53
12/23/2020 7:45:00 PM 1.17 34.106 0.075 7.22 6 13.53
12/23/2020 8:00:00 PM 1.18 34.124 0.075 7.21 5.91 13.52
12/23/2020 8:15:00 PM 1.15 34.07 0.075 7.22 5.7 13.53
12/23/2020 8:30:00 PM 0.92 33.656 0.075 7.19 5.62 13.62
12/23/2020 8:45:00 PM 0.99 33.782 0.075 7.22 5.28 13.6
12/23/2020 9:00:00 PM 1.03 33.854 0.075 7.22 5.11 13.59
12/23/2020 9:15:00 PM 1.07 33.926 0.075 7.21 4.84 13.56
12/23/2020 9:30:00 PM 1.1 33.98 0.075 7.2 4.75 13.55
12/23/2020 9:45:00 PM 1.12 34.016 0.075 7.22 4.67 13.54
12/23/2020 10:00:00 PM 1.13 34.034 0.075 7.2 4.5 13.54
12/23/2020 10:15:00 PM 1.15 34.07 0.075 7.21 4.67 13.52
12/23/2020 10:30:00 PM 1.15 34.07 0.075 7.22 4.42 13.52
12/23/2020 10:45:00 PM 1.16 34.088 0.075 7.21 4.32 13.52
12/23/2020 11:00:00 PM 1.17 34.106 0.075 7.21 4.48 13.51
12/23/2020 11:15:00 PM 1.14 34.052 0.075 7.22 4.49 13.51
12/23/2020 11:30:00 PM 1.15 34.07 0.075 7.21 4.26 13.51
12/23/2020 11:45:00 PM 1.1 33.98 0.075 7.19 4.3 13.51
12/24/2020 12:00:00 AM 1.12 34.016 0.075 7.22 4.33 13.53
12/24/2020 12:15:00 AM 1.12 34.016 0.075 7.21 4.24 13.52
12/24/2020 12:30:00 AM 1.13 34.034 0.075 7.22 4.08 13.52
12/24/2020 12:45:00 AM 1.13 34.034 0.075 7.22 4.26 13.52
12/24/2020 1:00:00 AM 1.13 34.034 0.075 7.16 4.21 13.51
12/24/2020 1:15:00 AM 1.14 34.052 0.075 7.21 4.03 13.51
12/24/2020 1:30:00 AM 1.14 34.052 0.075 7.22 4.06 13.5
12/24/2020 1:45:00 AM 1.14 34.052 0.075 7.22 4.19 13.5
12/24/2020 2:00:00 AM 1.14 34.052 0.075 7.17 4.09 13.49
12/24/2020 2:15:00 AM 1.14 34.052 0.075 7.22 4.03 13.5
12/24/2020 2:30:00 AM 1.13 34.034 0.075 7.23 3.93 13.5
12/24/2020 2:45:00 AM 1.13 34.034 0.075 7.17 3.84 13.5
12/24/2020 3:00:00 AM 1.13 34.034 0.075 7.21 3.81 13.5
12/24/2020 3:15:00 AM 1.13 34.034 0.075 7.22 3.95 13.49
12/24/2020 3:30:00 AM 1.14 34.052 0.075 7.21 3.85 13.49
12/24/2020 3:45:00 AM 1.14 34.052 0.075 7.21 3.95 13.49
12/24/2020 4:00:00 AM 1.13 34.034 0.075 7.22 3.73 13.49
12/24/2020 4:15:00 AM 1.06 33.908 0.075 7.21 3.93 13.52
12/24/2020 4:30:00 AM 1.09 33.962 0.075 7.22 4 13.5
12/24/2020 4:45:00 AM 1.12 34.016 0.075 7.22 3.93 13.49
12/24/2020 5:00:00 AM 1.14 34.052 0.075 7.2 4.05 13.48
12/24/2020 5:15:00 AM 1.16 34.088 0.075 7.22 3.92 13.46
12/24/2020 5:30:00 AM 1.18 34.124 0.075 7.21 3.9 13.46
12/24/2020 5:45:00 AM 1.18 34.124 0.075 7.21 3.88 13.45
12/24/2020 6:00:00 AM 1.18 34.124 0.075 7.21 3.8 13.45
12/24/2020 6:15:00 AM 1.18 34.124 0.075 7.22 3.77 13.45
12/24/2020 6:30:00 AM 1.19 34.142 0.075 7.2 3.84 13.44
12/24/2020 6:45:00 AM 1.21 34.178 0.075 7.22 3.96 13.44
12/24/2020 7:00:00 AM 1.11 33.998 0.075 7.22 3.92 13.44
12/24/2020 7:15:00 AM 1.04 33.872 0.074 7.21 4.1 13.5
12/24/2020 7:30:00 AM 1.1 33.98 0.074 7.21 4 13.48
12/24/2020 7:45:00 AM 1.15 34.07 0.075 7.22 3.97 13.46
12/24/2020 8:00:00 AM 1.18 34.124 0.075 7.22 4.1 13.45
12/24/2020 8:15:00 AM 1.2 34.16 0.074 7.23 4.01 13.45
12/24/2020 8:30:00 AM 1.06 33.908 0.074 7.23 4.4 13.48
12/24/2020 8:45:00 AM 0.85 33.53 0.073 7.21 4.7 13.58
12/24/2020 9:00:00 AM 0.99 33.782 0.073 7.23 4.61 13.57
12/24/2020 9:15:00 AM 0.97 33.746 0.073 7.24 4.95 13.56
12/24/2020 9:30:00 AM 0.52 32.936 0.073 7.21 6.57 13.67
12/24/2020 9:45:00 AM 0.29 32.522 0.072 7.22 7.78 13.74
12/24/2020 10:00:00 AM 0.28 32.504 0.071 7.19 7.88 13.81
12/24/2020 10:15:00 AM 0.11 32.198 0.071 7.2 11.07 13.84
12/24/2020 10:30:00 AM 0.03 32.054 0.07 7.16 16.16 13.9
12/24/2020 10:45:00 AM 0 32 0.07 7.18 28.45 13.92
12/24/2020 11:00:00 AM -0.01 31.982 0.071 7.19 40.66 13.91
12/24/2020 11:15:00 AM -0.02 31.964 0.07 7.18 68.3 13.91
12/24/2020 11:30:00 AM -0.03 31.946 0.069 7.18 47.39 13.9
12/24/2020 11:45:00 AM -0.04 31.928 0.069 7.16 111.39 13.91
12/24/2020 12:00:00 PM -0.04 31.928 0.067 7.14 83.54 13.9
12/24/2020 12:15:00 PM -0.05 31.91 0.066 7.15 47.94 13.91
12/24/2020 12:30:00 PM -0.05 31.91 0.064 7.12 63.2 13.91
12/24/2020 12:45:00 PM -0.05 31.91 0.062 7.11 59.51 13.92
12/24/2020 1:00:00 PM -0.05 31.91 0.061 7.07 60.01 13.91
12/24/2020 1:15:00 PM -0.05 31.91 0.059 7.02 128.03 13.92
12/24/2020 1:30:00 PM -0.05 31.91 0.057 6.99 80.11 13.92
12/24/2020 1:45:00 PM -0.05 31.91 0.054 6.96 120.13 13.93
12/24/2020 2:00:00 PM -0.05 31.91 0.052 6.91 126.15 13.95
12/24/2020 2:15:00 PM -0.05 31.91 0.049 6.9 112.31 13.96
12/24/2020 2:30:00 PM -0.06 31.892 0.047 6.93 439.38 13.94
12/24/2020 2:45:00 PM -0.06 31.892 0.045 6.88 242.96 13.98
12/24/2020 3:00:00 PM -0.04 31.928 0.044 6.84 207.24 13.97
12/24/2020 3:15:00 PM -0.03 31.946 0.043 6.89 325.91 13.98
12/24/2020 3:30:00 PM 0.01 32.018 0.044 6.97 304.55 13.96
12/24/2020 3:45:00 PM 0.03 32.054 0.042 6.8 308.91 13.96
12/24/2020 4:00:00 PM 0.02 32.036 0.04 6.8 286.95 13.95
12/24/2020 4:15:00 PM 0.05 32.09 0.039 6.75 348.17 13.94
12/24/2020 4:30:00 PM 0.09 32.162 0.039 6.73 407.79 13.93
12/24/2020 4:45:00 PM 0.13 32.234 0.038 6.69 313.36 13.91
12/24/2020 5:00:00 PM 0.18 32.324 0.037 6.68 356.09 13.86
12/24/2020 5:15:00 PM 0.37 32.666 0.037 6.67 336.01 13.77
12/24/2020 5:30:00 PM 0.74 33.332 0.036 6.65 336.05 13.59
12/24/2020 5:45:00 PM 1.17 34.106 0.036 6.64 276.28 13.45
12/24/2020 6:00:00 PM 1.42 34.556 0.036 6.62 258.41 13.36
12/24/2020 6:15:00 PM 1.45 34.61 0.035 6.66 294.63 13.3
12/24/2020 6:30:00 PM 1.58 34.844 0.035 6.61 332.74 13.28
12/24/2020 6:45:00 PM 1.64 34.952 0.034 6.61 405.71 13.26
12/24/2020 7:00:00 PM 1.69 35.042 0.034 6.62 3414.87 13.27
12/24/2020 7:15:00 PM 1.74 35.132 0.034 6.59 5786.93 13.24
12/24/2020 7:30:00 PM 1.82 35.276 0.034 6.58 402.28 13.21
12/24/2020 7:45:00 PM 1.89 35.402 0.034 6.58 545.19 13.18
12/24/2020 8:00:00 PM 2 35.6 0.033 6.54 392.51 13.14
12/24/2020 8:15:00 PM 2.1 35.78 0.033 6.52 348.55 13.1
12/24/2020 8:30:00 PM 2.17 35.906 0.033 6.52 358.1 13.06
12/24/2020 8:45:00 PM 2.25 36.05 0.033 6.55 378.75 13.03
12/24/2020 9:00:00 PM 2.34 36.212 0.032 6.53 399.49 13
12/24/2020 9:15:00 PM 2.38 36.284 0.032 6.55 328.72 12.98
12/24/2020 9:30:00 PM 2.38 36.284 0.032 6.55 362 12.98
12/24/2020 9:45:00 PM 2.36 36.248 0.032 6.52 408.69 12.98
12/24/2020 10:00:00 PM 2.35 36.23 0.031 6.51 547.48 12.99
12/24/2020 10:15:00 PM 2.39 36.302 0.031 6.49 493.22 12.97
12/24/2020 10:30:00 PM 2.47 36.446 0.031 6.48 493 12.94
12/24/2020 10:45:00 PM 2.53 36.554 0.031 6.45 422.91 12.91
12/24/2020 11:00:00 PM 2.64 36.752 0.031 6.47 385.71 12.86
12/24/2020 11:15:00 PM 2.73 36.914 0.031 6.5 341.59 12.82
12/24/2020 11:30:00 PM 2.8 37.04 0.03 6.49 347.19 12.78
12/24/2020 11:45:00 PM 2.82 37.076 0.03 6.48 375.21 12.78
12/25/2020 12:00:00 AM 2.79 37.022 0.03 6.45 465.42 12.78
12/25/2020 12:15:00 AM 2.66 36.788 0.029 6.44 630.68 12.83
12/25/2020 12:30:00 AM 2.54 36.572 0.029 6.38 766.78 12.87
12/25/2020 12:45:00 AM 2.38 36.284 0.028 6.38 4618.96 12.93
12/25/2020 1:00:00 AM 2.22 35.996 0.027 6.32 1249.26 12.98
12/25/2020 1:15:00 AM 2.17 35.906 0.027 6.29 1415.72 13.01
12/25/2020 1:30:00 AM 2.12 35.816 0.027 6.37 1545.67 12.99
12/25/2020 1:45:00 AM 2.23 36.014 0.024 6.43 1461.49 12.2
12/25/2020 2:00:00 AM 2.35 36.23 0.024 6.43 1171.87 12.86
12/25/2020 2:15:00 AM 2.5 36.5 0.024 6.49 954.08 12.25
12/25/2020 2:30:00 AM 2.63 36.734 0.023 6.49 138.81 11.32
12/25/2020 2:45:00 AM 2.75 36.95 0.022 6.47 1146.92 11.12
12/25/2020 3:00:00 AM 2.87 37.166 0.021 6.45 104.26 11.67
12/25/2020 3:15:00 AM 3 37.4 0.021 6.44 1112.01 11.76
12/25/2020 3:30:00 AM 3.11 37.598 0.021 6.41 666.46 11.29
12/25/2020 3:45:00 AM 3.19 37.742 0.021 6.4 114.6 11.08
12/25/2020 4:00:00 AM 3.26 37.868 0.021 6.4 118.56 11.57
12/25/2020 4:15:00 AM 3.32 37.976 0.02 6.4 137.46 11.83
12/25/2020 4:30:00 AM 3.38 38.084 0.02 6.4 136.49 11.64
12/25/2020 4:45:00 AM 3.45 38.21 0.019 6.4 136.31 11.89
12/25/2020 5:00:00 AM 3.51 38.318 0.018 6.37 135.61 11.99
12/25/2020 5:15:00 AM 3.54 38.372 0.018 6.38 134.33 12
12/25/2020 5:30:00 AM 3.57 38.426 0.018 6.36 132.84 11.92
12/25/2020 5:45:00 AM 3.62 38.516 0.018 6.38 132.03 12.08
12/25/2020 6:00:00 AM 3.67 38.606 0.017 6.4 130.83 12.2
12/25/2020 6:15:00 AM 3.7 38.66 0.016 6.42 130.09 11.99
12/25/2020 6:30:00 AM 3.74 38.732 0.016 6.37 129.41 12.09
12/25/2020 6:45:00 AM 3.74 38.732 0.015 6.4 128.89 12.25
12/25/2020 7:00:00 AM 3.74 38.732 0.014 6.42 776.79 12.38
12/25/2020 7:15:00 AM 3.73 38.714 0.014 6.38 495.32 12.37
12/25/2020 7:30:00 AM 3.72 38.696 0.013 6.39 361.58 12.41
12/25/2020 7:45:00 AM 3.72 38.696 0.012 6.4 538.67 12.51
12/25/2020 8:00:00 AM 3.72 38.696 0.027 6.42 446.62 12.51
12/25/2020 8:15:00 AM 3.73 38.714 0.027 6.42 430.44 12.5
12/25/2020 8:30:00 AM 3.76 38.768 0.027 6.43 346.02 12.5
12/25/2020 8:45:00 AM 3.78 38.804 0.027 6.38 283.02 12.49
12/25/2020 9:00:00 AM 3.81 38.858 0.027 6.42 238.28 12.48
12/25/2020 9:15:00 AM 3.83 38.894 0.027 6.4 294.7 12.47
12/25/2020 9:30:00 AM 3.86 38.948 0.027 6.42 247.79 12.47
12/25/2020 9:45:00 AM 3.86 38.948 0.027 6.42 261.31 12.46
12/25/2020 10:00:00 AM 3.88 38.984 0.027 6.41 305.57 12.46
12/25/2020 10:15:00 AM 3.88 38.984 0.027 6.42 295.74 12.46
12/25/2020 10:30:00 AM 3.89 39.002 0.028 6.42 274.58 12.45
12/25/2020 10:45:00 AM 3.89 39.002 0.028 6.41 262.17 12.45
12/25/2020 11:00:00 AM 3.89 39.002 0.028 6.42 224.06 12.45
12/25/2020 11:15:00 AM 3.89 39.002 0.028 6.41 249.19 12.45
12/25/2020 11:30:00 AM 3.89 39.002 0.028 6.42 202.27 12.45
12/25/2020 11:45:00 AM 3.9 39.02 0.028 6.43 361.99 12.44
12/25/2020 12:00:00 PM 3.91 39.038 0.028 6.43 188.88 12.43
12/25/2020 12:15:00 PM 3.92 39.056 0.028 6.45 184.6 12.44
12/25/2020 12:30:00 PM 3.92 39.056 0.028 6.42 163.33 12.43
12/25/2020 12:45:00 PM 3.93 39.074 0.028 6.45 270.69 12.43
12/25/2020 1:00:00 PM 3.93 39.074 0.028 6.43 181.28 12.43
12/25/2020 1:15:00 PM 3.93 39.074 0.028 6.46 242.41 12.44
12/25/2020 1:30:00 PM 3.93 39.074 0.028 6.46 196.63 12.43
12/25/2020 1:45:00 PM 3.94 39.092 0.028 6.47 243.72 12.44
12/25/2020 2:00:00 PM 3.94 39.092 0.028 6.49 150.98 12.43
12/25/2020 2:15:00 PM 3.93 39.074 0.029 6.5 249.54 12.43
12/25/2020 2:30:00 PM 3.94 39.092 0.029 6.49 201.26 12.43
12/25/2020 2:45:00 PM 3.94 39.092 0.029 6.48 209.19 12.43
12/25/2020 3:00:00 PM 3.94 39.092 0.029 6.42 160.4 12.43
12/25/2020 3:15:00 PM 3.94 39.092 0.029 6.48 198.41 12.43
12/25/2020 3:30:00 PM 3.92 39.056 0.029 6.47 135.09 12.43
12/25/2020 3:45:00 PM 3.91 39.038 0.029 6.49 156.24 12.45
12/25/2020 4:00:00 PM 3.9 39.02 0.029 6.46 149.03 12.45
12/25/2020 4:15:00 PM 3.88 38.984 0.029 6.47 195.14 12.46
12/25/2020 4:30:00 PM 3.86 38.948 0.029 6.49 220.74 12.47
12/25/2020 4:45:00 PM 3.84 38.912 0.029 6.48 173.33 12.49
12/25/2020 5:00:00 PM 3.82 38.876 0.029 6.43 155.11 12.5
12/25/2020 5:15:00 PM 3.79 38.822 0.029 6.41 130.85 12.51
12/25/2020 5:30:00 PM 3.75 38.75 0.029 6.35 173.07 12.52
12/25/2020 5:45:00 PM 3.73 38.714 0.029 6.3 126.52 12.54
12/25/2020 6:00:00 PM 3.7 38.66 0.03 6.31 136.06 12.55
12/25/2020 6:15:00 PM 3.67 38.606 0.03 6.31 137.41 12.56
12/25/2020 6:30:00 PM 3.63 38.534 0.03 6.18 189.51 12.57
12/25/2020 6:45:00 PM 3.57 38.426 0.03 6.13 121.79 12.59
12/25/2020 7:00:00 PM 3.55 38.39 0.03 6.07 201.29 12.6
12/25/2020 7:15:00 PM 3.51 38.318 0.03 6.08 166.51 12.62
12/25/2020 7:30:00 PM 3.47 38.246 0.03 6.1 121.75 12.64
12/25/2020 7:45:00 PM 3.44 38.192 0.03 5.87 223.61 12.65
12/25/2020 8:00:00 PM 3.41 38.138 0.03 6.05 121.36 12.67
12/25/2020 8:15:00 PM 3.37 38.066 0.03 6.19 152.74 12.69
12/25/2020 8:30:00 PM 3.35 38.03 0.03 6.11 129.67 12.69
12/25/2020 8:45:00 PM 3.3 37.94 0.03 6.14 114.68 12.71
12/25/2020 9:00:00 PM 3.25 37.85 0.03 6.18 149.63 12.74
12/25/2020 9:15:00 PM 3.23 37.814 0.029 6.18 213.75 12.75
12/25/2020 9:30:00 PM 3.17 37.706 0.027 6.03 123.33 12.77
12/25/2020 9:45:00 PM 3.13 37.634 0.027 5.8 17.81 12.78
12/25/2020 10:00:00 PM 3.07 37.526 0.022 6.17 7.72 12.81
12/25/2020 10:15:00 PM 2.98 37.364 0.02 6.15 5.24 12.85
12/25/2020 10:30:00 PM 2.79 37.022 0.017 6.18 4.63 12.94
12/25/2020 10:45:00 PM 2.69 36.842 0.004 6.19 4.78 12.98
12/25/2020 11:00:00 PM 2.61 36.698 0.005 6.16 4.7 13
12/25/2020 11:15:00 PM 2.54 36.572 0.003 6.17 4.75 13.05
12/25/2020 11:30:00 PM 2.36 36.248 0 5.89 4.82 13.12
12/25/2020 11:45:00 PM 1.89 35.402 0 6.17 4.59 13.35
12/26/2020 12:00:00 AM 1.52 34.736 0 6.15 4.38 13.52
12/26/2020 12:15:00 AM 1.01 33.818 0 6.14 4.76 13.72
12/26/2020 12:30:00 AM 0.66 33.188 0 6.39 4.94 13.92
12/26/2020 12:45:00 AM 0.44 32.792 0 6.48 4.22 13.97
12/26/2020 1:00:00 AM 0.18 32.324 0 6.03 4.79 14.05
12/26/2020 1:15:00 AM -0.06 31.892 0 6.33 4.44 14.18
12/26/2020 1:30:00 AM -0.12 31.784 0 6.15 4.67 14.13
12/26/2020 1:45:00 AM -0.07 31.874 0 6.96 4.6 14.16
12/26/2020 2:00:00 AM -0.1 31.82 0 6.44 4.52 13.98
12/26/2020 2:15:00 AM -0.07 31.874 0.001 6.43 5.12 14.03
12/26/2020 2:30:00 AM -0.07 31.874 0 6.18 10.83 14
12/26/2020 2:45:00 AM -0.2 31.64 0 6.21 10.54 14.13
12/26/2020 3:00:00 AM -0.3 31.46 0 6.22 10.51 14.17
12/26/2020 3:15:00 AM -0.43 31.226 0 6.27 10.5 14.2
12/26/2020 3:30:00 AM -0.83 30.506 0 6.27 10.54 14.4
12/26/2020 3:45:00 AM -1.62 29.084 0 6.26 10.61 14.88
12/26/2020 4:00:00 AM -1.91 28.562 0 6.2 10.57 15.01
12/26/2020 4:15:00 AM -2.09 28.238 0 6.23 10.62 15.13
12/26/2020 4:30:00 AM -2.08 28.256 0 6.26 10.6 15.09
12/26/2020 4:45:00 AM -2.09 28.238 0 6.29 10.61 15.1
12/26/2020 5:00:00 AM -2.33 27.806 0 6.27 10.64 15.23
12/26/2020 5:15:00 AM -2.42 27.644 0 6.27 10.65 15.25
12/26/2020 5:30:00 AM -2.55 27.41 0 6.32 10.66 15.33
12/26/2020 5:45:00 AM -2.68 27.176 0 6.3 10.67 15.42
12/26/2020 6:00:00 AM -2.87 26.834 0 6.28 10.7 15.53
12/26/2020 6:15:00 AM -3.29 26.078 0 6.28 10.75 15.75
12/26/2020 6:30:00 AM -3.52 25.664 0 6.31 10.73 15.87
12/26/2020 6:45:00 AM -3.72 25.304 0 6.29 10.78 15.92
12/26/2020 7:00:00 AM -3.8 25.16 0 6.28 10.79 16.03
12/26/2020 7:15:00 AM -4.12 24.584 0 6.28 10.77 16.19
12/26/2020 7:30:00 AM -4.4 24.08 0 6.2 10.83 16.36
12/26/2020 7:45:00 AM -4.64 23.648 0 6.18 10.84 16.5
12/26/2020 8:00:00 AM -4.72 23.504 0 6.27 10.82 16.55
12/26/2020 8:15:00 AM -4.71 23.522 0 6.18 10.83 16.52
12/26/2020 8:30:00 AM -4.72 23.504 0 6.23 10.87 16.55
12/26/2020 8:45:00 AM -4.69 23.558 0 6.26 10.88 16.55
12/26/2020 9:00:00 AM -4.51 23.882 0 6.28 10.86 16.44
12/26/2020 9:15:00 AM -4.38 24.116 0 6.29 10.88 16.38
12/26/2020 9:30:00 AM -4.35 24.17 0 6.3 10.81 16.35
12/26/2020 9:45:00 AM -4.29 24.278 0 6.3 10.85 16.34
12/26/2020 10:00:00 AM -4.26 24.332 0 6.14 10.84 16.28
12/26/2020 10:15:00 AM -4.24 24.368 0 6.23 10.82 16.29
12/26/2020 10:30:00 AM -4.17 24.494 0 6.22 10.85 16.27
12/26/2020 10:45:00 AM -4.09 24.638 0 6.3 10.86 16.22
12/26/2020 11:00:00 AM -4.01 24.782 0 6.26 10.85 16.15
12/26/2020 11:15:00 AM -3.91 24.962 0 6.27 10.86 16.12
12/26/2020 11:30:00 AM -3.93 24.926 0 6.24 10.86 16.12
12/26/2020 11:45:00 AM -3.87 25.034 0 6.23 10.88 16.08
12/26/2020 12:00:00 PM -3.81 25.142 0 6.18 10.89 16.04
12/26/2020 12:15:00 PM -3.89 24.998 0 6.06 10.88 16.09
12/26/2020 12:30:00 PM -3.88 25.016 0 6.09 10.86 16.08
12/26/2020 12:45:00 PM -3.71 25.322 0 6.24 10.85 15.94
12/26/2020 1:00:00 PM -3.62 25.484 0 6.18 10.86 15.93
12/26/2020 1:15:00 PM -3.57 25.574 0 6.11 10.85 15.91
12/26/2020 1:30:00 PM -3.46 25.772 0 6.07 10.89 15.83
12/26/2020 1:45:00 PM -3.37 25.934 0 6.12 10.88 15.79
12/26/2020 2:00:00 PM -3.27 26.114 0 6.18 10.85 15.72
12/26/2020 2:15:00 PM -3.32 26.024 0 6.13 10.89 15.75
12/26/2020 2:30:00 PM -3.41 25.862 0 6.03 10.92 15.82
12/26/2020 2:45:00 PM -3.49 25.718 0 6.12 10.91 15.88
12/26/2020 3:00:00 PM -3.55 25.61 0 6.08 10.9 15.88
12/26/2020 3:15:00 PM -3.6 25.52 0 5.97 10.89 15.94
12/26/2020 3:30:00 PM -3.63 25.466 0 5.92 10.93 15.94
12/26/2020 3:45:00 PM -3.72 25.304 0 5.93 10.96 16
12/26/2020 4:00:00 PM -3.88 25.016 0 5.97 10.99 16.07
12/26/2020 4:15:00 PM -4 24.8 0 5.95 10.95 16.17
12/26/2020 4:30:00 PM -4.01 24.782 0 5.87 11.01 16.16
12/26/2020 4:45:00 PM -3.93 24.926 0 5.96 10.98 16.1
12/26/2020 5:00:00 PM -3.99 24.818 0 5.82 11.01 16.14
12/26/2020 5:15:00 PM -4.07 24.674 0 5.96 11.01 16.19
12/26/2020 5:30:00 PM -4.29 24.278 0 5.9 11 16.31
12/26/2020 5:45:00 PM -4.36 24.152 0 5.85 11.04 16.36
12/26/2020 6:00:00 PM -4.59 23.738 0 5.83 11.07 16.47
12/26/2020 6:15:00 PM -4.7 23.54 0 5.8 11.07 16.54
12/26/2020 6:30:00 PM -4.74 23.468 0 5.93 11.03 16.55
12/26/2020 6:45:00 PM -4.63 23.666 0 5.9 11.04 16.5
12/26/2020 7:00:00 PM -4.5 23.9 0 5.71 11.04 16.41
12/26/2020 7:15:00 PM -4.45 23.99 0 5.78 11.05 16.38
12/26/2020 7:30:00 PM -4.38 24.116 0 5.84 11.03 16.36
12/26/2020 7:45:00 PM -4.4 24.08 0 5.8 11.04 16.38
12/26/2020 8:00:00 PM -4.37 24.134 0 5.85 11.04 16.34
12/26/2020 8:15:00 PM -4.24 24.368 0 5.75 11.05 16.29
12/26/2020 8:30:00 PM -4.32 24.224 0 5.81 11.07 16.34
12/26/2020 8:45:00 PM -4.33 24.206 0 5.71 11.09 16.34
12/26/2020 9:00:00 PM -4.28 24.296 0 5.83 11.06 16.31
12/26/2020 9:15:00 PM -4.24 24.368 0 5.74 11.07 16.27
12/26/2020 9:30:00 PM -4.26 24.332 0 5.77 11.06 16.31
12/26/2020 9:45:00 PM -4.25 24.35 0 5.79 11.09 16.31
12/26/2020 10:00:00 PM -4.24 24.368 0 5.75 11.05 16.3
12/26/2020 10:15:00 PM -4.25 24.35 0 5.74 11.07 16.32
12/26/2020 10:30:00 PM -4.23 24.386 0 5.61 11.03 16.3
12/26/2020 10:45:00 PM -4.15 24.53 0 5.8 11.06 16.25
12/26/2020 11:00:00 PM -4.12 24.584 0 5.76 11.1 16.25
12/26/2020 11:15:00 PM -4.1 24.62 0 5.74 11.08 16.23
12/26/2020 11:30:00 PM -4.07 24.674 0 5.72 11.07 16.22
12/26/2020 11:45:00 PM -4.06 24.692 0 5.73 11.07 16.21
12/27/2020 12:00:00 AM -4.08 24.656 0 5.67 11.06 16.22
12/27/2020 12:15:00 AM -4.09 24.638 0 5.66 11.09 16.25
12/27/2020 12:30:00 AM -4.07 24.674 0 5.78 11.12 16.22
12/27/2020 12:45:00 AM -4.09 24.638 0 5.64 11.05 16.22
12/27/2020 1:00:00 AM -4.07 24.674 0 5.73 11.05 16.23
12/27/2020 1:15:00 AM -4.01 24.782 0 5.71 11.12 16.18
12/27/2020 1:30:00 AM -4.01 24.782 0 5.68 11.07 16.19
12/27/2020 1:45:00 AM -4.06 24.692 0 5.7 11.11 16.22
12/27/2020 2:00:00 AM -4.08 24.656 0 5.72 11.11 16.26
12/27/2020 2:15:00 AM -4.13 24.566 0 5.57 11.16 16.29
12/27/2020 2:30:00 AM -4.13 24.566 0 5.67 11.11 16.27
12/27/2020 2:45:00 AM -4.13 24.566 0 5.68 11.12 16.29
12/27/2020 3:00:00 AM -4.16 24.512 0 5.74 11.13 16.28
12/27/2020 3:15:00 AM -4.13 24.566 0 5.72 11.13 16.28
12/27/2020 3:30:00 AM -4.02 24.764 0 5.66 11.12 16.21
12/27/2020 3:45:00 AM -3.97 24.854 0 5.69 11.08 16.19
12/27/2020 4:00:00 AM -3.97 24.854 0 5.56 11.14 16.18
12/27/2020 4:15:00 AM -3.93 24.926 0 5.67 11.13 16.16
12/27/2020 4:30:00 AM -3.92 24.944 0 5.7 11.11 16.17
12/27/2020 4:45:00 AM -3.95 24.89 0 5.68 11.15 16.2
12/27/2020 5:00:00 AM -3.96 24.872 0 5.65 11.12 16.19
12/27/2020 5:15:00 AM -3.92 24.944 0 5.72 11.15 16.17
12/27/2020 5:30:00 AM -3.88 25.016 0 5.69 11.14 16.15
12/27/2020 5:45:00 AM -3.92 24.944 0 5.64 11.14 16.17
12/27/2020 6:00:00 AM -3.9 24.98 0 5.71 11.15 16.18
12/27/2020 6:15:00 AM -3.86 25.052 0 5.63 11.14 16.18
12/27/2020 6:30:00 AM -3.84 25.088 0 5.66 11.16 16.15
12/27/2020 6:45:00 AM -3.85 25.07 0 5.67 11.12 16.14
12/27/2020 7:00:00 AM -3.81 25.142 0 5.65 11.12 16.13
12/27/2020 7:15:00 AM -3.72 25.304 0 5.67 11.07 16.1
12/27/2020 7:30:00 AM -3.66 25.412 0 5.67 11.1 16.05
12/27/2020 7:45:00 AM -3.61 25.502 0 5.63 11.12 16.03
12/27/2020 8:00:00 AM -3.62 25.484 0 5.62 11.15 16.03
12/27/2020 8:15:00 AM -3.61 25.502 0 5.6 11.11 16.04
12/27/2020 8:30:00 AM -3.49 25.718 0 5.65 11.08 15.98
12/27/2020 8:45:00 AM -3.4 25.88 0 5.65 11.1 15.93
12/27/2020 9:00:00 AM -3.34 25.988 0 5.66 11.14 15.91
12/27/2020 9:15:00 AM -3.29 26.078 0 5.55 11.07 15.89
12/27/2020 9:30:00 AM -3.24 26.168 0 5.68 11.15 15.84
12/27/2020 9:45:00 AM -3.2 26.24 0 5.59 11.1 15.85
12/27/2020 10:00:00 AM -3.12 26.384 0 5.63 11.1 15.82
12/27/2020 10:15:00 AM -2.92 26.744 0 5.58 11.1 15.7
12/27/2020 10:30:00 AM -2.76 27.032 0 5.64 11.1 15.62
12/27/2020 10:45:00 AM -2.69 27.158 0 5.64 11.07 15.59
12/27/2020 11:00:00 AM -2.73 27.086 0 5.46 11.11 15.6
12/27/2020 11:15:00 AM -2.52 27.464 0 5.64 11.11 15.5
12/27/2020 11:30:00 AM -2.11 28.202 0 5.5 11.09 15.27
12/27/2020 11:45:00 AM -1.7 28.94 0 5.69 11.05 15.03
12/27/2020 12:00:00 PM -1.44 29.408 0 5.65 11.02 14.91
12/27/2020 12:15:00 PM -1.24 29.768 0 5.58 11 14.82
12/27/2020 12:30:00 PM -1.13 29.966 0 5.59 10.96 14.77
12/27/2020 12:45:00 PM -1.06 30.092 0 5.67 10.99 14.72
12/27/2020 1:00:00 PM -1.01 30.182 0 5.63 10.96 14.72
12/27/2020 1:15:00 PM -0.92 30.344 0 5.5 10.99 14.68
12/27/2020 1:30:00 PM -0.92 30.344 0 5.64 10.98 14.69
12/27/2020 1:45:00 PM -0.95 30.29 0 5.49 10.97 14.71
12/27/2020 2:00:00 PM -0.93 30.326 0 5.58 10.99 14.68
12/27/2020 2:15:00 PM -0.87 30.434 0 5.54 11.01 14.64
12/27/2020 2:30:00 PM -0.88 30.416 0 5.41 11.03 14.68
12/27/2020 2:45:00 PM -0.92 30.344 0 5.33 10.98 14.68
12/27/2020 3:00:00 PM -0.97 30.254 0 5.48 10.98 14.72
12/27/2020 3:15:00 PM -0.93 30.326 0 5.49 11.02 14.68
12/27/2020 3:30:00 PM -0.88 30.416 0 5.48 10.97 14.64
12/27/2020 3:45:00 PM -0.96 30.272 0 5.43 11.03 14.71
12/27/2020 4:00:00 PM -1 30.2 0 5.39 11 14.72
12/27/2020 4:15:00 PM -1.05 30.11 0 5.51 11.01 14.73
12/27/2020 4:30:00 PM -1.16 29.912 0 5.46 11.04 14.79
12/27/2020 4:45:00 PM -1.35 29.57 0 5.4 11.02 14.88
12/27/2020 5:00:00 PM -1.49 29.318 0 5.51 11.01 14.93
12/27/2020 5:15:00 PM -1.59 29.138 0 5.46 11.04 14.98
12/27/2020 5:30:00 PM -1.79 28.778 0 5.32 11.06 15.11
12/27/2020 5:45:00 PM -1.87 28.634 0 5.43 11.06 15.13
12/27/2020 6:00:00 PM -2 28.4 0 5.4 11.05 15.19
12/27/2020 6:15:00 PM -2.07 28.274 0 5.36 11.09 15.23
12/27/2020 6:30:00 PM -2.15 28.13 0 5.4 11.06 15.26
12/27/2020 6:45:00 PM -2.31 27.842 0 5.4 11.12 15.37
12/27/2020 7:00:00 PM -2.25 27.95 0 5.3 11.1 15.35
12/27/2020 7:15:00 PM -2.15 28.13 0 5.32 11.14 15.27
12/27/2020 7:30:00 PM -2.06 28.292 0 5.33 11.12 15.21
12/27/2020 7:45:00 PM -2.08 28.256 0 5.29 11.11 15.22
12/27/2020 8:00:00 PM -2.16 28.112 0 5.38 11.11 15.26
12/27/2020 8:15:00 PM -2.17 28.094 0 5.27 11.09 15.27
12/27/2020 8:30:00 PM -2.25 27.95 0 5.34 11.13 15.3
12/27/2020 8:45:00 PM -2.25 27.95 0 5.31 11.17 15.3
12/27/2020 9:00:00 PM -2.22 28.004 0 5.37 11.13 15.28
12/27/2020 9:15:00 PM -2.16 28.112 0 5.35 11.12 15.25
12/27/2020 9:30:00 PM -2.07 28.274 0 5.32 11.14 15.21
12/27/2020 9:45:00 PM -1.97 28.454 0 5.27 11.11 15.16
12/27/2020 10:00:00 PM -1.88 28.616 0 5.24 11.12 15.12
12/27/2020 10:15:00 PM -1.8 28.76 0 5.15 11.12 15.09
12/27/2020 10:30:00 PM -1.71 28.922 0 5.3 11.11 15.02
12/27/2020 10:45:00 PM -1.65 29.03 0 5.27 11.12 15
12/27/2020 11:00:00 PM -1.63 29.066 0 5.23 11.09 14.98
12/27/2020 11:15:00 PM -1.62 29.084 0 5.24 11.12 14.98
12/27/2020 11:30:00 PM -1.62 29.084 0 5.17 11.11 15
12/27/2020 11:45:00 PM -1.58 29.156 0 5.2 11.1 14.97
12/28/2020 12:00:00 AM -1.61 29.102 0 5.2 11.12 14.99
12/28/2020 12:15:00 AM -1.6 29.12 0 5.24 11.12 14.96
12/28/2020 12:30:00 AM -1.65 29.03 0 5.08 11.14 14.99
12/28/2020 12:45:00 AM -1.66 29.012 0 5.07 11.15 14.99
12/28/2020 1:00:00 AM -1.65 29.03 0 5.25 11.08 14.96
12/28/2020 1:15:00 AM -1.69 28.958 0 5.21 11.16 14.97
12/28/2020 1:30:00 AM -1.74 28.868 0 5.2 11.11 15
12/28/2020 1:45:00 AM -1.76 28.832 0 5.3 11.12 15.01
12/28/2020 2:00:00 AM -1.79 28.778 0 5.32 11.12 15.01
12/28/2020 2:15:00 AM -1.8 28.76 0 5.33 11.14 15
12/28/2020 2:30:00 AM -1.8 28.76 0 5.35 11.14 15.01
12/28/2020 2:45:00 AM -1.75 28.85 0 5.17 11.12 15.01
12/28/2020 3:00:00 AM -1.54 29.228 0 5.16 11.1 14.9
12/28/2020 3:15:00 AM -1.39 29.498 0 5.11 11.1 14.83
12/28/2020 3:30:00 AM -1.28 29.696 0 5.15 11.1 14.78
12/28/2020 3:45:00 AM -1.19 29.858 0 5.05 11.13 14.73
12/28/2020 4:00:00 AM -1.11 30.002 0 5.13 11.13 14.69
12/28/2020 4:15:00 AM -1.03 30.146 0 5.08 11.12 14.65
12/28/2020 4:30:00 AM -0.9 30.38 0 5.12 11.1 14.59
12/28/2020 4:45:00 AM -0.84 30.488 0 5.22 11.07 14.56
12/28/2020 5:00:00 AM -0.8 30.56 0 5.19 11.08 14.53
12/28/2020 5:15:00 AM -0.79 30.578 0 5.41 11.06 14.51
12/28/2020 5:30:00 AM -0.82 30.524 0 5.41 11.11 14.53
12/28/2020 5:45:00 AM -0.83 30.506 0 5.53 11.12 14.54
12/28/2020 6:00:00 AM -0.85 30.47 0 5.43 11.12 14.55
12/28/2020 6:15:00 AM -0.83 30.506 0 5.31 11.13 14.54
12/28/2020 6:30:00 AM -0.83 30.506 0 5.27 11.08 14.53
12/28/2020 6:45:00 AM -0.84 30.488 0 5.39 11.08 14.54
12/28/2020 7:00:00 AM -0.8 30.56 0 5.44 11.09 14.51
12/28/2020 7:15:00 AM -0.77 30.614 0 5.45 11.11 14.5
12/28/2020 7:30:00 AM -0.69 30.758 0 5.53 11.09 14.46
12/28/2020 7:45:00 AM -0.64 30.848 0 5.56 11.06 14.44
12/28/2020 8:00:00 AM -0.58 30.956 0 5.55 11.09 14.41
12/28/2020 8:15:00 AM -0.53 31.046 0 5.51 11.03 14.38
12/28/2020 8:30:00 AM -0.49 31.118 0 5.44 11.05 14.38
12/28/2020 8:45:00 AM -0.39 31.298 0 5.59 11.05 14.33
12/28/2020 9:00:00 AM -0.27 31.514 0 5.47 11 14.28
12/28/2020 9:15:00 AM -0.21 31.622 0 5.29 11.05 14.25
12/28/2020 9:30:00 AM -0.16 31.712 0 5.51 11.01 14.24
12/28/2020 9:45:00 AM -0.12 31.784 0 5.48 10.99 14.22
12/28/2020 10:00:00 AM -0.09 31.838 0 5.35 10.94 14.22
12/28/2020 10:15:00 AM -0.08 31.856 0 5.39 10.9 14.21
12/28/2020 10:30:00 AM -0.07 31.874 0 5.45 10.89 14.21
12/28/2020 10:45:00 AM -0.07 31.874 0 5.51 10.54 14.21
12/28/2020 11:00:00 AM -0.06 31.892 0 6.15 7.79 14.19
12/28/2020 11:15:00 AM -0.04 31.928 0 5.87 10.06 14.2
12/28/2020 11:30:00 AM -0.04 31.928 0 5.77 9.95 14.21
12/28/2020 11:45:00 AM -0.04 31.928 0 5.79 9.82 14.2
12/28/2020 12:00:00 PM -0.03 31.946 0 6.96 4.86 14.45
12/28/2020 12:15:00 PM 0.06 32.108 0 6.84 4.63 14.14
12/28/2020 12:30:00 PM 0.16 32.288 0 6.8 4.7 14.11
12/28/2020 12:45:00 PM 0.34 32.612 0 6.74 4.72 14
12/28/2020 1:00:00 PM 0.77 33.386 0 6.67 4.79 13.84
12/28/2020 1:15:00 PM 1.5 34.7 0 6.53 4.57 13.53
12/28/2020 1:30:00 PM 1.65 34.97 0 6.57 4.72 13.42
12/28/2020 1:45:00 PM 1.55 34.79 0 6.43 4.67 13.5
12/28/2020 2:00:00 PM 1.71 35.078 0 6.47 4.71 13.42
12/28/2020 2:15:00 PM 1.67 35.006 0 6.42 4.71 13.45
12/28/2020 2:30:00 PM 1.62 34.916 0 6.53 4.95 13.48
12/28/2020 2:45:00 PM 1.55 34.79 0 6.51 4.83 13.52
12/28/2020 3:00:00 PM 1.5 34.7 0 6.58 4.77 13.55
12/28/2020 3:15:00 PM 1.37 34.466 0 6.48 4.75 13.61
12/28/2020 3:30:00 PM 1.31 34.358 0 6.6 4.6 13.64
12/28/2020 3:45:00 PM 1.22 34.196 0 6.56 4.73 13.68
12/28/2020 4:00:00 PM 1.12 34.016 0 6.47 4.67 13.74
12/28/2020 4:15:00 PM 0.98 33.764 0 6.52 4.74 13.8
12/28/2020 4:30:00 PM 0.9 33.62 0 6.58 4.7 13.83
12/28/2020 4:45:00 PM 0.77 33.386 0 6.63 4.8 13.9
12/28/2020 5:00:00 PM 0.69 33.242 0 6.37 4.85 13.93
12/28/2020 5:15:00 PM 0.62 33.116 0 6.52 4.71 13.97
12/28/2020 5:30:00 PM 0.66 33.188 0 6.61 4.53 13.96
12/28/2020 5:45:00 PM 0.57 33.026 0 6.41 4.63 13.99
12/28/2020 6:00:00 PM 0.58 33.044 0 6.42 4.77 14.01
12/28/2020 6:15:00 PM 0.57 33.026 0 6.42 4.9 14.06
12/28/2020 6:30:00 PM 0.56 33.008 0 6.38 4.82 14.06
12/28/2020 6:45:00 PM 0.57 33.026 0 6.38 4.77 14.01
12/28/2020 7:00:00 PM 0.57 33.026 0 6.47 4.44 14.01
12/28/2020 7:15:00 PM 0.52 32.936 0 6.46 4.6 14.06
12/28/2020 7:30:00 PM 0.5 32.9 0 6.54 4.88 14.05
12/28/2020 7:45:00 PM 0.43 32.774 0 6.39 4.69 14.23
12/28/2020 8:00:00 PM 0.42 32.756 0 6.52 4.88 14.17
12/28/2020 8:15:00 PM 0.33 32.594 0 6.46 4.78 14.37
12/28/2020 8:30:00 PM 0.35 32.63 0 6.15 5.2 14.2
12/28/2020 8:45:00 PM 0.38 32.684 0 6.6 4.91 14.15
12/28/2020 9:00:00 PM 0.33 32.594 0 6.43 4.75 14.18
12/28/2020 9:15:00 PM 0.33 32.594 0 6.5 5.07 14.16
12/28/2020 9:30:00 PM 0.29 32.522 0 6.5 5.73 14.33
12/28/2020 9:45:00 PM 0.28 32.504 0 6.62 4.86 14.21
12/28/2020 10:00:00 PM 0.17 32.306 0 6.6 5.17 14.19
12/28/2020 10:15:00 PM -0.02 31.964 0 6.47 5.48 14.5
12/28/2020 10:30:00 PM -0.13 31.766 0 6.37 5.64 14.62
12/28/2020 10:45:00 PM -0.14 31.748 0 6.55 5.03 14.55
12/28/2020 11:00:00 PM -0.15 31.73 0 6.47 4.08 14.65
12/28/2020 11:15:00 PM -0.16 31.712 0 6.11 4.97 14.57
12/28/2020 11:30:00 PM -0.11 31.802 0 6.65 5.35 14.5
12/28/2020 11:45:00 PM -0.12 31.784 0 6.68 5.39 14.33
12/29/2020 12:00:00 AM -0.14 31.748 0 6.5 4.7 14.38
12/29/2020 12:15:00 AM -0.18 31.676 0 6.42 4.46 14.59
12/29/2020 12:30:00 AM -0.17 31.694 0 6.58 4.73 14.47
12/29/2020 12:45:00 AM -0.21 31.622 0 6.27 7.66 14.49
12/29/2020 1:00:00 AM -0.25 31.55 0 6.1 10.35 14.43
12/29/2020 1:15:00 AM -0.22 31.604 0 5.88 10.73 14.43
12/29/2020 1:30:00 AM -0.25 31.55 0 5.88 10.65 14.46
12/29/2020 1:45:00 AM -0.29 31.478 0 6.11 10.62 14.49
12/29/2020 2:00:00 AM -0.29 31.478 0 5.92 10.68 14.49
12/29/2020 2:15:00 AM -0.26 31.532 0 6.09 10.65 14.46
12/29/2020 2:30:00 AM -0.37 31.334 0 5.93 10.61 14.56
12/29/2020 2:45:00 AM -0.42 31.244 0 5.82 10.67 14.57
12/29/2020 3:00:00 AM -0.47 31.154 0 5.93 10.57 14.59
12/29/2020 3:15:00 AM -0.57 30.974 0 5.95 10.7 14.66
12/29/2020 3:30:00 AM -0.71 30.722 0 5.85 10.81 14.72
12/29/2020 3:45:00 AM -0.79 30.578 0 5.9 10.57 14.76
12/29/2020 4:00:00 AM -0.98 30.236 0 5.88 10.78 14.86
12/29/2020 4:15:00 AM -1.1 30.02 0 5.98 10.45 14.92
12/29/2020 4:30:00 AM -1.16 29.912 0 5.94 10.73 14.93
12/29/2020 4:45:00 AM -1.15 29.93 0 5.99 10.61 14.95
12/29/2020 5:00:00 AM -1.09 30.038 0 6.01 10.57 14.91
12/29/2020 5:15:00 AM -1.09 30.038 0 5.83 10.76 14.9
12/29/2020 5:30:00 AM -1.44 29.408 0 5.71 10.9 15.07
12/29/2020 5:45:00 AM -1.48 29.336 0 5.8 10.92 15.11
12/29/2020 6:00:00 AM -1.66 29.012 0 5.64 11.01 15.23
12/29/2020 6:15:00 AM -1.9 28.58 0 5.62 11.05 15.36
12/29/2020 6:30:00 AM -2.16 28.112 0 5.71 11.02 15.47
12/29/2020 6:45:00 AM -2.31 27.842 0 5.7 10.98 15.54
12/29/2020 7:00:00 AM -2.47 27.554 0 5.62 11.02 15.64
12/29/2020 7:15:00 AM -2.57 27.374 0 5.67 11.09 15.69
12/29/2020 7:30:00 AM -2.68 27.176 0 5.67 11.06 15.74
12/29/2020 7:45:00 AM -2.77 27.014 0 5.65 11.04 15.8
12/29/2020 8:00:00 AM -2.98 26.636 0 5.71 11.05 15.92
12/29/2020 8:15:00 AM -2.82 26.924 0 5.6 11.03 15.84
12/29/2020 8:30:00 AM -2.68 27.176 0 5.66 11.06 15.75
12/29/2020 8:45:00 AM -2.61 27.302 0 5.59 11.08 15.72
12/29/2020 9:00:00 AM -2.52 27.464 0 5.52 11.04 15.7
12/29/2020 9:15:00 AM -2.45 27.59 0 5.54 11.12 15.66
12/29/2020 9:30:00 AM -2.4 27.68 0 5.53 11.05 15.64
12/29/2020 9:45:00 AM -2.25 27.95 0 5.58 11.09 15.55
12/29/2020 10:00:00 AM -2.11 28.202 0 5.55 11.09 15.49
12/29/2020 10:15:00 AM -2.14 28.148 0 5.53 11.06 15.5
12/29/2020 10:30:00 AM -2.12 28.184 0 5.54 11.08 15.5
12/29/2020 10:45:00 AM -2.02 28.364 0 5.46 11.03 15.47
12/29/2020 11:00:00 AM -1.65 29.03 0 5.42 11.03 15.27
12/29/2020 11:15:00 AM -1.47 29.354 0 5.45 11.06 15.19
12/29/2020 11:30:00 AM -1.51 29.282 0 5.46 11.05 15.19
12/29/2020 11:45:00 AM -1.57 29.174 0 5.46 11.1 15.22
12/29/2020 12:00:00 PM -1.51 29.282 0 5.44 11.07 15.19
12/29/2020 12:15:00 PM -1.48 29.336 0 5.42 11.07 15.17
12/29/2020 12:30:00 PM -1.36 29.552 0 5.46 11.07 15.09
12/29/2020 12:45:00 PM -1.4 29.48 0 5.41 11.08 15.11
12/29/2020 1:00:00 PM -1.53 29.246 0 5.4 11.1 15.17
12/29/2020 1:15:00 PM -1.72 28.904 0 5.35 11.08 15.28
12/29/2020 1:30:00 PM -1.81 28.742 0 5.41 11.08 15.3
12/29/2020 1:45:00 PM -1.8 28.76 0 5.4 11.16 15.3
12/29/2020 2:00:00 PM -1.79 28.778 0 5.32 11.12 15.34
12/29/2020 2:15:00 PM -1.9 28.58 0 5.39 11.16 15.38
12/29/2020 2:30:00 PM -2.04 28.328 0 5.44 11.15 15.42
12/29/2020 2:45:00 PM -2.1 28.22 0 5.4 11.19 15.45
12/29/2020 3:00:00 PM -2.15 28.13 0 5.41 11.17 15.49
12/29/2020 3:15:00 PM -2.27 27.914 0 5.41 11.16 15.55
12/29/2020 3:30:00 PM -2.31 27.842 0 5.38 11.2 15.58
12/29/2020 3:45:00 PM -2.43 27.626 0 5.42 11.22 15.62
12/29/2020 4:00:00 PM -2.53 27.446 0 5.42 11.19 15.69
12/29/2020 4:15:00 PM -2.65 27.23 0 5.49 11.17 15.74
12/29/2020 4:30:00 PM -2.8 26.96 0 5.49 11.24 15.8
12/29/2020 4:45:00 PM -2.9 26.78 0 5.56 11.25 15.87
12/29/2020 5:00:00 PM -3.01 26.582 0 5.74 11.25 15.92
12/29/2020 5:15:00 PM -3.2 26.24 0 5.76 11.24 16.02
12/29/2020 5:30:00 PM -3.41 25.862 0 5.77 11.25 16.14
12/29/2020 5:45:00 PM -3.63 25.466 0 5.73 11.24 16.27
12/29/2020 6:00:00 PM -3.91 24.962 0 5.75 11.25 16.42
12/29/2020 6:15:00 PM -4.2 24.44 0 5.72 11.27 16.57
12/29/2020 6:30:00 PM -4.37 24.134 0 5.77 11.29 16.67
12/29/2020 6:45:00 PM -4.47 23.954 0 5.82 11.29 16.72
12/29/2020 7:00:00 PM -4.59 23.738 0 5.78 11.29 16.8
12/29/2020 7:15:00 PM -4.68 23.576 0 5.85 11.35 16.84
12/29/2020 7:30:00 PM -4.81 23.342 0 5.75 11.33 16.93
12/29/2020 7:45:00 PM -4.94 23.108 0 5.83 11.34 17
12/29/2020 8:00:00 PM -5.03 22.946 0 5.82 11.32 17.05
12/29/2020 8:15:00 PM -5.2 22.64 0 5.78 11.35 17.15
12/29/2020 8:30:00 PM -5.31 22.442 0 5.78 11.39 17.23
12/29/2020 8:45:00 PM -5.35 22.37 0 5.85 11.36 17.23
12/29/2020 9:00:00 PM -5.5 22.1 0 5.78 11.38 17.33
12/29/2020 9:15:00 PM -5.56 21.992 0 5.81 11.35 17.37
12/29/2020 9:30:00 PM -5.62 21.884 0 5.8 11.41 17.42
12/29/2020 9:45:00 PM -5.64 21.848 0 5.89 11.39 17.4
12/29/2020 10:00:00 PM -5.72 21.704 0 5.84 11.4 17.45
12/29/2020 10:15:00 PM -5.88 21.416 0 5.83 11.35 17.57
12/29/2020 10:30:00 PM -5.97 21.254 0 5.79 11.42 17.62
12/29/2020 10:45:00 PM -5.92 21.344 0 5.88 11.4 17.57
12/29/2020 11:00:00 PM -6.01 21.182 0 5.8 11.39 17.64
12/29/2020 11:15:00 PM -6 21.2 0 5.87 11.44 17.63
12/29/2020 11:30:00 PM -6.01 21.182 0 5.88 11.41 17.59
12/29/2020 11:45:00 PM -6.01 21.182 0 5.87 11.42 17.63
12/30/2020 12:00:00 AM -5.92 21.344 0 5.89 11.43 17.56
12/30/2020 12:15:00 AM -5.86 21.452 0 5.9 11.4 17.52
12/30/2020 12:30:00 AM -5.87 21.434 0 5.86 11.41 17.53
12/30/2020 12:45:00 AM -5.76 21.632 0 5.91 11.4 17.45
12/30/2020 1:00:00 AM -5.68 21.776 0 5.89 11.44 17.38
12/30/2020 1:15:00 AM -5.66 21.812 0 5.9 11.4 17.36
12/30/2020 1:30:00 AM -5.58 21.956 0 5.89 11.43 17.3
12/30/2020 1:45:00 AM -5.52 22.064 0 5.89 11.43 17.28
12/30/2020 2:00:00 AM -5.45 22.19 0 5.89 11.39 17.23
12/30/2020 2:15:00 AM -5.32 22.424 0 5.89 11.34 17.15
12/30/2020 2:30:00 AM -5.21 22.622 0 5.85 11.38 17.08
12/30/2020 2:45:00 AM -5.13 22.766 0 5.87 11.36 17.05
12/30/2020 3:00:00 AM -5.1 22.82 0 5.85 11.44 17.03
12/30/2020 3:15:00 AM -5.09 22.838 0 5.85 11.39 17.04
12/30/2020 3:30:00 AM -4.94 23.108 0 5.84 11.33 16.9
12/30/2020 3:45:00 AM -4.76 23.432 0 5.88 11.37 16.78
12/30/2020 4:00:00 AM -4.59 23.738 0 5.88 11.35 16.69
12/30/2020 4:15:00 AM -4.41 24.062 0 5.82 11.31 16.58
12/30/2020 4:30:00 AM -4.22 24.404 0 5.8 11.32 16.46
12/30/2020 4:45:00 AM -4.03 24.746 0 5.74 11.33 16.35
12/30/2020 5:00:00 AM -3.84 25.088 0 5.76 11.3 16.23
12/30/2020 5:15:00 AM -3.65 25.43 0 5.79 11.26 16.12
12/30/2020 5:30:00 AM -3.53 25.646 0 5.76 11.29 16.06
12/30/2020 5:45:00 AM -3.41 25.862 0 5.73 11.26 16
12/30/2020 6:00:00 AM -3.22 26.204 0 5.64 11.32 15.93
12/30/2020 6:15:00 AM -3 26.6 0 5.65 11.32 15.78
12/30/2020 6:30:00 AM -2.91 26.762 0 5.61 11.3 15.75
12/30/2020 6:45:00 AM -2.85 26.87 0 5.62 11.3 15.72
12/30/2020 7:00:00 AM -2.86 26.852 0 5.61 11.3 15.72
12/30/2020 7:15:00 AM -2.85 26.87 0 5.61 11.27 15.72
12/30/2020 7:30:00 AM -2.82 26.924 0 5.62 11.26 15.7
12/30/2020 7:45:00 AM -2.87 26.834 0 5.61 11.31 15.72
12/30/2020 8:00:00 AM -2.93 26.726 0 5.59 11.3 15.77
12/30/2020 8:15:00 AM -2.89 26.798 0 5.61 11.28 15.74
12/30/2020 8:30:00 AM -2.82 26.924 0 5.61 11.29 15.69
12/30/2020 8:45:00 AM -2.73 27.086 0 5.61 11.27 15.64
12/30/2020 9:00:00 AM -2.65 27.23 0 5.62 11.27 15.61
12/30/2020 9:15:00 AM -2.49 27.518 0 5.57 11.28 15.52
12/30/2020 9:30:00 AM -2.32 27.824 0 5.56 11.29 15.42
12/30/2020 9:45:00 AM -2.1 28.22 0 5.55 11.23 15.31
12/30/2020 10:00:00 AM -1.78 28.796 0 5.51 11.23 15.16
12/30/2020 10:15:00 AM -1.47 29.354 0 5.51 11.2 14.99
12/30/2020 10:30:00 AM -1.29 29.678 0 5.47 11.21 14.9
12/30/2020 10:45:00 AM -1.13 29.966 0 5.48 11.18 14.81
12/30/2020 11:00:00 AM -1.02 30.164 0 5.45 11.19 14.76
12/30/2020 11:15:00 AM -0.82 30.524 0 5.45 11.16 14.65
12/30/2020 11:30:00 AM -0.68 30.776 0 5.46 11.15 14.6
12/30/2020 11:45:00 AM -0.58 30.956 0 5.44 11.17 14.56
12/30/2020 12:00:00 PM -0.56 30.992 0 5.46 11.14 14.52
12/30/2020 12:15:00 PM -0.51 31.082 0 5.52 11.11 14.49
12/30/2020 12:30:00 PM -0.45 31.19 0 5.49 11.16 14.47
12/30/2020 12:45:00 PM -0.42 31.244 0 5.47 11.14 14.46
12/30/2020 1:00:00 PM -0.34 31.388 0 5.46 11.16 14.41
12/30/2020 1:15:00 PM -0.27 31.514 0 5.48 11.16 14.37
12/30/2020 1:30:00 PM -0.21 31.622 0 5.42 11.13 14.37
12/30/2020 1:45:00 PM -0.14 31.748 0 5.42 11.11 14.33
12/30/2020 2:00:00 PM -0.03 31.946 0 5.42 11.11 14.26
12/30/2020 2:15:00 PM -0.02 31.964 0 5.39 11.14 14.27
12/30/2020 2:30:00 PM -0.03 31.946 0 5.4 11.1 14.26
12/30/2020 2:45:00 PM 0 32 0 5.41 11.13 14.23
12/30/2020 3:00:00 PM 0.02 32.036 0 5.37 11.11 14.25
12/30/2020 3:15:00 PM 0.02 32.036 0 5.4 11.11 14.22
12/30/2020 3:30:00 PM 0.03 32.054 0 5.36 11.09 14.24
12/30/2020 3:45:00 PM 0 32 0 5.4 11.07 14.23
12/30/2020 4:00:00 PM 0.03 32.054 0 5.41 11.09 14.21
12/30/2020 4:15:00 PM 0.05 32.09 0 5.41 11.12 14.19
12/30/2020 4:30:00 PM 0.02 32.036 0 5.42 11.11 14.22
12/30/2020 4:45:00 PM 0.01 32.018 0 5.45 11.11 14.22
12/30/2020 5:00:00 PM 0.02 32.036 0 5.53 11.09 14.21
12/30/2020 5:15:00 PM 0 32 0 5.5 11.09 14.22
12/30/2020 5:30:00 PM 0 32 0 5.63 11.1 14.21
12/30/2020 5:45:00 PM -0.01 31.982 0 5.64 11.22 14.21
12/30/2020 6:00:00 PM 0.09 32.162 0 5.6 11.27 14.15
12/30/2020 6:15:00 PM 0.09 32.162 0 5.55 11.17 14.17
12/30/2020 6:30:00 PM 0.13 32.234 0 5.53 11.1 14.15
12/30/2020 6:45:00 PM 0.17 32.306 0 5.56 11.11 14.13
12/30/2020 7:00:00 PM 0.13 32.234 0 5.58 11.07 14.14
12/30/2020 7:15:00 PM 0.13 32.234 0 5.73 11 14.12
12/30/2020 7:30:00 PM 0.09 32.162 0 5.84 10.7 14.14
12/30/2020 7:45:00 PM 0.07 32.126 0 5.9 9.89 14.16
12/30/2020 8:00:00 PM 0.03 32.054 0 6.02 9.03 14.18
12/30/2020 8:15:00 PM 0.03 32.054 0 6.05 8.46 14.17
12/30/2020 8:30:00 PM 0.03 32.054 0 6.07 8.19 14.18
12/30/2020 8:45:00 PM 0.02 32.036 0 6.12 7.83 14.19
12/30/2020 9:00:00 PM 0.03 32.054 0 6.17 7.63 14.18
12/30/2020 9:15:00 PM 0.06 32.108 0 6.2 7.52 14.19
12/30/2020 9:30:00 PM 0.06 32.108 0 6.19 7.46 14.18
12/30/2020 9:45:00 PM 0.07 32.126 0 6.19 7.46 14.15
12/30/2020 10:00:00 PM 0.07 32.126 0 6.21 7.47 14.15
12/30/2020 10:15:00 PM 0.09 32.162 0 6.22 7.52 14.13
12/30/2020 10:30:00 PM 0.11 32.198 0 6.23 7.45 14.11
12/30/2020 10:45:00 PM 0.12 32.216 0 6.24 7.54 14.11
12/30/2020 11:00:00 PM 0.13 32.234 0 6.26 7.54 14.1
12/30/2020 11:15:00 PM 0.15 32.27 0 6.28 7.57 14.09
12/30/2020 11:30:00 PM 0.16 32.288 0 6.27 7.56 14.07
12/30/2020 11:45:00 PM 0.19 32.342 0 6.31 7.52 14.06
12/31/2020 12:00:00 AM 0.24 32.432 0 6.38 7.51 14.04
12/31/2020 12:15:00 AM 0.26 32.468 0 6.32 7.52 14.02
12/31/2020 12:30:00 AM 0.25 32.45 0 6.32 7.47 14.03
12/31/2020 12:45:00 AM 0.24 32.432 0 6.34 7.49 14.03
12/31/2020 1:00:00 AM 0.26 32.468 0 6.35 7.48 14.03
12/31/2020 1:15:00 AM 0.27 32.486 0 6.36 7.29 14.02
12/31/2020 1:30:00 AM 0.25 32.45 0 6.38 7.25 14.04
12/31/2020 1:45:00 AM 0.25 32.45 0 6.41 7.39 14.05
12/31/2020 2:00:00 AM 0.24 32.432 0 6.41 7.1 14.06
12/31/2020 2:15:00 AM 0.25 32.45 0 6.42 7.25 14.06
12/31/2020 2:30:00 AM 0.3 32.54 0 6.41 7.27 14.03
12/31/2020 2:45:00 AM 0.29 32.522 0 6.41 7.12 14.04
12/31/2020 3:00:00 AM 0.28 32.504 0 6.41 7.32 14.04
12/31/2020 3:15:00 AM 0.3 32.54 0 6.46 7.3 14.04
12/31/2020 3:30:00 AM 0.28 32.504 0 6.46 7.15 14.05
12/31/2020 3:45:00 AM 0.27 32.486 0 6.49 7.44 14.06
12/31/2020 4:00:00 AM 0.27 32.486 0 6.5 7.27 14.06
12/31/2020 4:15:00 AM 0.26 32.468 0 6.51 7.81 14.07
12/31/2020 4:30:00 AM 0.26 32.468 0 6.56 7.68 14.07
12/31/2020 4:45:00 AM 0.29 32.522 0 6.57 7.6 14.05
12/31/2020 5:00:00 AM 0.35 32.63 0 6.6 7.9 14.02
12/31/2020 5:15:00 AM 0.33 32.594 0 6.59 7.84 14.04
12/31/2020 5:30:00 AM 0.29 32.522 0 6.6 7.32 14.07
12/31/2020 5:45:00 AM 0.26 32.468 0 6.62 6.61 14.08
12/31/2020 6:00:00 AM 0.35 32.63 0 6.66 6.88 14.05
12/31/2020 6:15:00 AM 0.31 32.558 0 6.64 6.91 14.07
12/31/2020 6:30:00 AM 0.29 32.522 0 6.65 7.08 14.08
12/31/2020 6:45:00 AM 0.25 32.45 0 6.65 7.34 14.1
12/31/2020 7:00:00 AM 0.21 32.378 0 6.66 6.9 14.13
12/31/2020 7:15:00 AM 0.17 32.306 0 6.66 6.74 14.16
12/31/2020 7:30:00 AM 0.13 32.234 0 6.65 7.03 14.18
12/31/2020 7:45:00 AM 0.08 32.144 0 6.66 6.46 14.2
12/31/2020 8:00:00 AM 0.07 32.126 0 6.65 6.73 14.21
12/31/2020 8:15:00 AM 0.07 32.126 0 6.68 7.19 14.22
12/31/2020 8:30:00 AM 0.08 32.144 0 6.67 6.75 14.21
12/31/2020 8:45:00 AM 0.09 32.162 0 6.67 6.52 14.22
12/31/2020 9:00:00 AM 0.12 32.216 0 6.67 6.72 14.21
12/31/2020 9:15:00 AM 0.09 32.162 0 6.66 6.8 14.24
12/31/2020 9:30:00 AM 0.06 32.108 0 6.67 6.36 14.26
12/31/2020 9:45:00 AM 0.03 32.054 0 6.66 5.85 14.28
12/31/2020 10:00:00 AM 0 32 0 6.62 5.76 14.3
12/31/2020 10:15:00 AM -0.03 31.946 0 6.57 5.68 14.32
12/31/2020 10:30:00 AM -0.08 31.856 0 6.57 5.32 14.38
12/31/2020 10:45:00 AM -0.06 31.892 0 6.59 5.43 14.38
12/31/2020 11:00:00 AM -0.03 31.946 0 6.59 5.4 14.36
12/31/2020 11:15:00 AM 0.02 32.036 0 6.6 5.87 14.33
12/31/2020 11:30:00 AM 0.03 32.054 0 6.58 6.33 14.36
12/31/2020 11:45:00 AM 0 32 0 6.39 6.07 14.37
12/31/2020 12:00:00 PM 0.03 32.054 0 6.53 5.85 14.38
12/31/2020 12:15:00 PM 0 32 0 6.4 6.97 14.32
12/31/2020 12:30:00 PM -0.02 31.964 0 6.52 6.22 14.38
12/31/2020 12:45:00 PM -0.04 31.928 0 6.48 6.68 14.38
12/31/2020 1:00:00 PM -0.05 31.91 0 6.41 6.01 14.41
12/31/2020 1:15:00 PM -0.08 31.856 0 6.26 9.39 14.39
12/31/2020 1:30:00 PM -0.05 31.91 0 6.25 7.71 14.36
12/31/2020 1:45:00 PM -0.04 31.928 0 6.14 9.46 14.37
12/31/2020 2:00:00 PM -0.01 31.982 0 6.21 7.87 14.36
12/31/2020 2:15:00 PM -0.03 31.946 0 6.19 9.47 14.38
12/31/2020 2:30:00 PM 0.05 32.09 0 6.17 9.58 14.34
12/31/2020 2:45:00 PM 0.12 32.216 0 6.27 8.62 14.3
12/31/2020 3:00:00 PM 0.12 32.216 0 6.03 10.41 14.28
12/31/2020 3:15:00 PM 0.14 32.252 0 6.3 10 14.29
12/31/2020 3:30:00 PM 0.03 32.054 0 6.02 10.61 14.33
12/31/2020 3:45:00 PM -0.02 31.964 0 5.96 10.72 14.36
12/31/2020 4:00:00 PM -0.11 31.802 0 6.02 10.61 14.43
12/31/2020 4:15:00 PM -0.21 31.622 0 6.09 10.51 14.48
12/31/2020 4:30:00 PM -0.33 31.406 0 6.09 10.62 14.54
12/31/2020 4:45:00 PM -0.41 31.262 0 6.15 10.59 14.58
12/31/2020 5:00:00 PM -0.45 31.19 0 6.14 10.42 14.59
12/31/2020 5:15:00 PM -0.53 31.046 0 6.03 10.51 14.64
12/31/2020 5:30:00 PM -0.42 31.244 0 6.14 10.56 14.61
12/31/2020 5:45:00 PM -0.48 31.136 0 6.11 10.65 14.65
12/31/2020 6:00:00 PM -0.65 30.83 0 6.07 10.71 14.74
12/31/2020 6:15:00 PM -0.72 30.704 0 6.1 10.68 14.75
12/31/2020 6:30:00 PM -0.76 30.632 0 6.15 10.62 14.79
12/31/2020 6:45:00 PM -0.75 30.65 0 6.16 10.72 14.78
12/31/2020 7:00:00 PM -0.86 30.452 0 6.14 10.7 14.84
12/31/2020 7:15:00 PM -0.99 30.218 0 6.1 10.79 14.87
12/31/2020 7:30:00 PM -1.06 30.092 0 6.16 10.8 14.89
12/31/2020 7:45:00 PM -1.34 29.588 0 6.17 10.76 15.1
12/31/2020 8:00:00 PM -1.46 29.372 0 6.09 10.88 15.13
12/31/2020 8:15:00 PM -1.51 29.282 0 6.09 10.86 15.16
12/31/2020 8:30:00 PM -1.68 28.976 0 6.09 10.9 15.25
12/31/2020 8:45:00 PM -1.86 28.652 0 6.02 10.93 15.31
12/31/2020 9:00:00 PM -2.27 27.914 0 6.09 10.93 15.54
12/31/2020 9:15:00 PM -2.42 27.644 0 6.08 11.02 15.62
12/31/2020 9:30:00 PM -2.58 27.356 0 6.05 11 15.7
12/31/2020 9:45:00 PM -2.69 27.158 0 6.09 10.99 15.74
12/31/2020 10:00:00 PM -2.91 26.762 0 6.03 11 15.86
12/31/2020 10:15:00 PM -3.09 26.438 0 6.06 11.02 15.96
12/31/2020 10:30:00 PM -3.28 26.096 0 6.06 11.02 16.08
12/31/2020 10:45:00 PM -3.41 25.862 0 6.06 11.08 16.15
12/31/2020 11:00:00 PM -3.48 25.736 0 6.05 11.07 16.18
12/31/2020 11:15:00 PM -3.64 25.448 0 6.05 11.06 16.22
12/31/2020 11:30:00 PM -3.77 25.214 0 6.08 11.08 16.32
12/31/2020 11:45:00 PM -4 24.8 0 6.07 11.09 16.44
1/1/2021 12:00:00 AM -4.15 24.53 0 6.08 11.16 16.53
1/1/2021 12:15:00 AM -4.24 24.368 0 6.11 11.11 16.58
1/1/2021 12:30:00 AM -4.51 23.882 0 6.01 11.18 16.73
1/1/2021 12:45:00 AM -4.64 23.648 0 6.02 11.14 16.82
1/1/2021 1:00:00 AM -4.75 23.45 0 6.04 11.18 16.89
1/1/2021 1:15:00 AM -5.02 22.964 0 6.05 11.22 17.03
1/1/2021 1:30:00 AM -5.08 22.856 0 6.06 11.21 17.06
1/1/2021 1:45:00 AM -5.16 22.712 0 6.03 11.18 17.12
1/1/2021 2:00:00 AM -5.33 22.406 0 6.02 11.22 17.19
1/1/2021 2:15:00 AM -5.48 22.136 0 6.03 11.26 17.29
1/1/2021 2:30:00 AM -5.49 22.118 0 6.09 11.23 17.31
1/1/2021 2:45:00 AM -5.45 22.19 0 6.09 11.24 17.26
1/1/2021 3:00:00 AM -5.85 21.47 0 6.05 11.34 17.54
1/1/2021 3:15:00 AM -5.93 21.326 0 6.08 11.26 17.59
1/1/2021 3:30:00 AM -5.99 21.218 0 6 11.28 17.57
1/1/2021 3:45:00 AM -6.28 20.696 0 6.07 11.33 17.81
1/1/2021 4:00:00 AM -6.19 20.858 0 6.08 11.27 17.74
1/1/2021 4:15:00 AM -6.08 21.056 0 6.09 11.3 17.67
1/1/2021 4:30:00 AM -6.12 20.984 0 6.06 11.26 17.7
1/1/2021 4:45:00 AM -6.17 20.894 0 6.06 11.3 17.72
1/1/2021 5:00:00 AM -6.3 20.66 0 6.08 11.28 17.83
1/1/2021 5:15:00 AM -6.32 20.624 0 6.02 11.34 17.81
1/1/2021 5:30:00 AM -6.49 20.318 0 6.05 11.35 17.91
1/1/2021 5:45:00 AM -6.53 20.246 0 6.04 11.31 17.94
1/1/2021 6:00:00 AM -6.57 20.174 0 6.07 11.35 17.99
1/1/2021 6:15:00 AM -6.61 20.102 0 6.08 11.36 18.01
1/1/2021 6:30:00 AM -6.6 20.12 0 6.05 11.42 17.99
1/1/2021 6:45:00 AM -6.65 20.03 0 6.02 11.39 18.01
1/1/2021 7:00:00 AM -6.68 19.976 0 6.05 11.38 18.04
1/1/2021 7:15:00 AM -6.76 19.832 0 6.03 11.41 18.08
1/1/2021 7:30:00 AM -6.97 19.454 0 6.03 11.41 18.23
1/1/2021 7:45:00 AM -7.12 19.184 0 6.03 11.42 18.33
1/1/2021 8:00:00 AM -7.39 18.698 0 6 11.43 18.52
1/1/2021 8:15:00 AM -7.28 18.896 0 6.06 11.47 18.46
1/1/2021 8:30:00 AM -6.95 19.49 0 6.09 11.47 18.21
1/1/2021 8:45:00 AM -6.74 19.868 0 6.12 11.42 18.05
1/1/2021 9:00:00 AM -6.66 20.012 0 6.12 11.41 18
1/1/2021 9:15:00 AM -6.23 20.786 0 6.16 11.46 17.71
1/1/2021 9:30:00 AM -6 21.2 0 6.1 11.27 17.56
1/1/2021 9:45:00 AM -5.83 21.506 0 6.12 11.21 17.47
1/1/2021 10:00:00 AM -5.53 22.046 0 6.18 11.07 17.27
1/1/2021 10:15:00 AM -5.25 22.55 0 6.14 11.11 17.07
1/1/2021 10:30:00 AM -4.98 23.036 0 6.15 11.16 16.88
1/1/2021 10:45:00 AM -4.58 23.756 0 6.17 10.78 16.65
1/1/2021 11:00:00 AM -4.09 24.638 0 6.18 10.27 16.38
1/1/2021 11:15:00 AM -3.65 25.43 0 6.11 10.21 16.12
1/1/2021 11:30:00 AM -3.35 25.97 0 6.05 10.87 15.95
1/1/2021 11:45:00 AM -3.13 26.366 0 6.03 10.96 15.83
1/1/2021 12:00:00 PM -2.83 26.906 0 6.01 10.98 15.66
1/1/2021 12:15:00 PM -2.56 27.392 0 6.12 10.72 15.52
1/1/2021 12:30:00 PM -2.32 27.824 0 6.02 10.97 15.4
1/1/2021 12:45:00 PM -2.1 28.22 0 6.08 10.84 15.29
1/1/2021 1:00:00 PM -1.86 28.652 0 6.06 10.8 15.16
1/1/2021 1:15:00 PM -1.62 29.084 0 6.12 10.39 15.04
1/1/2021 1:30:00 PM -1.42 29.444 0 6.05 10.56 14.93
1/1/2021 1:45:00 PM -1.26 29.732 0 5.92 10.53 14.84
1/1/2021 2:00:00 PM -1.15 29.93 0 6.02 10.83 14.81
1/1/2021 2:15:00 PM -1.09 30.038 0 6.11 10.62 14.78
1/1/2021 2:30:00 PM -1.03 30.146 0 6.12 10.27 14.77
1/1/2021 2:45:00 PM -0.9 30.38 0 6.22 9.4 14.69
1/1/2021 3:00:00 PM -0.75 30.65 0 6.25 8.62 14.69
1/1/2021 3:15:00 PM -0.68 30.776 0 6.28 8.11 14.58
1/1/2021 3:30:00 PM -0.6 30.92 0 6.29 7.65 14.55
1/1/2021 3:45:00 PM -0.57 30.974 0.001 6.25 7.42 14.54
1/1/2021 4:00:00 PM -0.51 31.082 0.001 6.23 7.35 14.5
1/1/2021 4:15:00 PM -0.51 31.082 0.001 6.26 7.19 14.5
1/1/2021 4:30:00 PM -0.42 31.244 0.001 6.33 7.15 14.45
1/1/2021 4:45:00 PM -0.3 31.46 0.001 6.37 7.38 14.39